<?xml version="1.0" encoding="UTF-8" standalone="no" ?>
<gpx xmlns="http://www.topografix.com/GPX/1/1" xmlns:xsi="http://www.w3.org/2001/XMLSchema-instance" xsi:schemaLocation="http://www.topografix.com/GPX/1/1 http://www.topografix.com/GPX/1/1/gpx.xsd" version="1.1" creator="VisuGPX - https://www.visugpx.com">
  <metadata>
    <name>GR52 / GR5 par Menton</name>
    <desc><![CDATA[Randonnée de 7 jours par le GR5 de Menton en direction du Nord en traversant notamment le parc du Mercantour.Enorme variété de paysages dès le départ et vues imprenables dès les premières heures, on est tout de suite dans le bain. Altitude max 2800 m mais encore pas mal de névés à cette période surtout à la descente vers le refuge de Nice. Comme d'habitude nous avons préféré les bivouacs "into the wild" et nous n'avons pas été déçus ! Terrain correct cependant les 2 premiers jours nécessitent de pouvoir enquiller beaucoup de D+.]]></desc>
  </metadata>
  <wpt lat="43.72679" lon="6.51125">
    <ele>955.9</ele>
    <name><![CDATA[xXSNAjco--.1.3gp]]></name>
  </wpt>
  <wpt lat="43.72679" lon="6.51125">
    <ele>955.9</ele>
    <name><![CDATA[xXSNAjco--.1.3gp]]></name>
  </wpt>
  <trk>
    <name><![CDATA[GR52 / GR5 par Menton_7]]></name>
    <trkseg>
      <trkpt lat="44.07196" lon="7.16761">
        <ele>1012.444</ele>
        <time>2020-06-30T07:47:31Z</time>
      </trkpt>
      <trkpt lat="44.07201" lon="7.16781">
        <ele>1092.799</ele>
        <time>2020-06-30T07:47:46Z</time>
      </trkpt>
      <trkpt lat="44.07188" lon="7.16787">
        <ele>1082.848</ele>
        <time>2020-06-30T07:48:02Z</time>
      </trkpt>
      <trkpt lat="44.07172" lon="7.16775">
        <ele>1074.133</ele>
        <time>2020-06-30T07:48:18Z</time>
      </trkpt>
      <trkpt lat="44.07158" lon="7.16764">
        <ele>1070.62</ele>
        <time>2020-06-30T07:48:33Z</time>
      </trkpt>
      <trkpt lat="44.07151" lon="7.16762">
        <ele>1071.59</ele>
        <time>2020-06-30T07:48:49Z</time>
      </trkpt>
      <trkpt lat="44.07148" lon="7.16762">
        <ele>1072.646</ele>
        <time>2020-06-30T07:49:05Z</time>
      </trkpt>
      <trkpt lat="44.07127" lon="7.16779">
        <ele>1075.892</ele>
        <time>2020-06-30T07:49:21Z</time>
      </trkpt>
      <trkpt lat="44.07111" lon="7.16779">
        <ele>1074.047</ele>
        <time>2020-06-30T07:49:37Z</time>
      </trkpt>
      <trkpt lat="44.0709" lon="7.16782">
        <ele>1075.478</ele>
        <time>2020-06-30T07:49:53Z</time>
      </trkpt>
      <trkpt lat="44.0707" lon="7.1678">
        <ele>1073.203</ele>
        <time>2020-06-30T07:50:09Z</time>
      </trkpt>
      <trkpt lat="44.07051" lon="7.16781">
        <ele>1071.52</ele>
        <time>2020-06-30T07:50:25Z</time>
      </trkpt>
      <trkpt lat="44.07032" lon="7.16777">
        <ele>1073.244</ele>
        <time>2020-06-30T07:50:41Z</time>
      </trkpt>
      <trkpt lat="44.07028" lon="7.16754">
        <ele>1069.449</ele>
        <time>2020-06-30T07:50:56Z</time>
      </trkpt>
      <trkpt lat="44.07038" lon="7.16731">
        <ele>1065.455</ele>
        <time>2020-06-30T07:51:12Z</time>
      </trkpt>
      <trkpt lat="44.0705" lon="7.16711">
        <ele>1058.269</ele>
        <time>2020-06-30T07:51:27Z</time>
      </trkpt>
      <trkpt lat="44.07066" lon="7.1669">
        <ele>1055.537</ele>
        <time>2020-06-30T07:51:43Z</time>
      </trkpt>
      <trkpt lat="44.07078" lon="7.16679">
        <ele>1058.484</ele>
        <time>2020-06-30T07:51:58Z</time>
      </trkpt>
      <trkpt lat="44.07093" lon="7.16673">
        <ele>1059.231</ele>
        <time>2020-06-30T07:52:13Z</time>
      </trkpt>
      <trkpt lat="44.07111" lon="7.16663">
        <ele>1054.792</ele>
        <time>2020-06-30T07:52:28Z</time>
      </trkpt>
      <trkpt lat="44.07129" lon="7.16654">
        <ele>1052.508</ele>
        <time>2020-06-30T07:52:43Z</time>
      </trkpt>
      <trkpt lat="44.07134" lon="7.16649">
        <ele>1054.582</ele>
        <time>2020-06-30T07:52:59Z</time>
      </trkpt>
      <trkpt lat="44.07113" lon="7.16648">
        <ele>1056.634</ele>
        <time>2020-06-30T07:53:15Z</time>
      </trkpt>
      <trkpt lat="44.07095" lon="7.1664">
        <ele>1055.036</ele>
        <time>2020-06-30T07:53:30Z</time>
      </trkpt>
      <trkpt lat="44.07076" lon="7.16633">
        <ele>1054.052</ele>
        <time>2020-06-30T07:53:46Z</time>
      </trkpt>
      <trkpt lat="44.07055" lon="7.1663">
        <ele>1052.701</ele>
        <time>2020-06-30T07:54:02Z</time>
      </trkpt>
      <trkpt lat="44.07037" lon="7.16627">
        <ele>1052.52</ele>
        <time>2020-06-30T07:54:17Z</time>
      </trkpt>
      <trkpt lat="44.07014" lon="7.16619">
        <ele>1052.907</ele>
        <time>2020-06-30T07:54:33Z</time>
      </trkpt>
      <trkpt lat="44.06994" lon="7.16616">
        <ele>1055.37</ele>
        <time>2020-06-30T07:54:48Z</time>
      </trkpt>
      <trkpt lat="44.06974" lon="7.16615">
        <ele>1052.405</ele>
        <time>2020-06-30T07:55:04Z</time>
      </trkpt>
      <trkpt lat="44.06953" lon="7.16613">
        <ele>1054.951</ele>
        <time>2020-06-30T07:55:19Z</time>
      </trkpt>
      <trkpt lat="44.06935" lon="7.1661">
        <ele>1058.957</ele>
        <time>2020-06-30T07:55:34Z</time>
      </trkpt>
      <trkpt lat="44.06919" lon="7.16601">
        <ele>1061.563</ele>
        <time>2020-06-30T07:55:50Z</time>
      </trkpt>
      <trkpt lat="44.06915" lon="7.16578">
        <ele>1055.773</ele>
        <time>2020-06-30T07:56:06Z</time>
      </trkpt>
      <trkpt lat="44.0691" lon="7.16556">
        <ele>1052.797</ele>
        <time>2020-06-30T07:56:21Z</time>
      </trkpt>
      <trkpt lat="44.06909" lon="7.1653">
        <ele>1048.272</ele>
        <time>2020-06-30T07:56:37Z</time>
      </trkpt>
      <trkpt lat="44.06896" lon="7.16511">
        <ele>1046.809</ele>
        <time>2020-06-30T07:56:53Z</time>
      </trkpt>
      <trkpt lat="44.06891" lon="7.16487">
        <ele>1041.086</ele>
        <time>2020-06-30T07:57:09Z</time>
      </trkpt>
      <trkpt lat="44.06894" lon="7.16462">
        <ele>1037.643</ele>
        <time>2020-06-30T07:57:24Z</time>
      </trkpt>
      <trkpt lat="44.06893" lon="7.16435">
        <ele>1035.445</ele>
        <time>2020-06-30T07:57:40Z</time>
      </trkpt>
      <trkpt lat="44.06896" lon="7.16407">
        <ele>1033.939</ele>
        <time>2020-06-30T07:57:55Z</time>
      </trkpt>
      <trkpt lat="44.06899" lon="7.16382">
        <ele>1033.461</ele>
        <time>2020-06-30T07:58:10Z</time>
      </trkpt>
      <trkpt lat="44.069" lon="7.16353">
        <ele>1034.244</ele>
        <time>2020-06-30T07:58:26Z</time>
      </trkpt>
      <trkpt lat="44.06898" lon="7.16325">
        <ele>1033.698</ele>
        <time>2020-06-30T07:58:42Z</time>
      </trkpt>
      <trkpt lat="44.06902" lon="7.163">
        <ele>1031.304</ele>
        <time>2020-06-30T07:58:58Z</time>
      </trkpt>
      <trkpt lat="44.0691" lon="7.16274">
        <ele>1027.1</ele>
        <time>2020-06-30T07:59:14Z</time>
      </trkpt>
      <trkpt lat="44.06913" lon="7.16252">
        <ele>1024.518</ele>
        <time>2020-06-30T07:59:30Z</time>
      </trkpt>
      <trkpt lat="44.0692" lon="7.16225">
        <ele>1021.727</ele>
        <time>2020-06-30T07:59:46Z</time>
      </trkpt>
      <trkpt lat="44.06922" lon="7.16199">
        <ele>1020.739</ele>
        <time>2020-06-30T08:00:01Z</time>
      </trkpt>
      <trkpt lat="44.06924" lon="7.16173">
        <ele>1019.656</ele>
        <time>2020-06-30T08:00:17Z</time>
      </trkpt>
      <trkpt lat="44.06924" lon="7.16146">
        <ele>1016.821</ele>
        <time>2020-06-30T08:00:33Z</time>
      </trkpt>
      <trkpt lat="44.06925" lon="7.16121">
        <ele>1014.52</ele>
        <time>2020-06-30T08:00:48Z</time>
      </trkpt>
      <trkpt lat="44.06922" lon="7.16092">
        <ele>1016.061</ele>
        <time>2020-06-30T08:01:04Z</time>
      </trkpt>
      <trkpt lat="44.06925" lon="7.16062">
        <ele>1017.204</ele>
        <time>2020-06-30T08:01:20Z</time>
      </trkpt>
      <trkpt lat="44.06926" lon="7.16038">
        <ele>1016.285</ele>
        <time>2020-06-30T08:01:36Z</time>
      </trkpt>
      <trkpt lat="44.06927" lon="7.16013">
        <ele>1013.49</ele>
        <time>2020-06-30T08:01:51Z</time>
      </trkpt>
      <trkpt lat="44.06921" lon="7.15993">
        <ele>1012.437</ele>
        <time>2020-06-30T08:02:06Z</time>
      </trkpt>
      <trkpt lat="44.06916" lon="7.15968">
        <ele>1008.871</ele>
        <time>2020-06-30T08:02:22Z</time>
      </trkpt>
      <trkpt lat="44.06914" lon="7.15941">
        <ele>1002.879</ele>
        <time>2020-06-30T08:02:38Z</time>
      </trkpt>
      <trkpt lat="44.06906" lon="7.15915">
        <ele>1001.867</ele>
        <time>2020-06-30T08:02:54Z</time>
      </trkpt>
      <trkpt lat="44.069" lon="7.15887">
        <ele>1001.492</ele>
        <time>2020-06-30T08:03:10Z</time>
      </trkpt>
      <trkpt lat="44.06897" lon="7.15864">
        <ele>1001.024</ele>
        <time>2020-06-30T08:03:25Z</time>
      </trkpt>
      <trkpt lat="44.06898" lon="7.1584">
        <ele>1000.044</ele>
        <time>2020-06-30T08:03:41Z</time>
      </trkpt>
      <trkpt lat="44.06899" lon="7.15827">
        <ele>999.312</ele>
        <time>2020-06-30T08:03:56Z</time>
      </trkpt>
      <trkpt lat="44.06899" lon="7.15827">
        <ele>999.312</ele>
        <time>2020-06-30T08:04:12Z</time>
      </trkpt>
      <trkpt lat="44.06906" lon="7.15808">
        <ele>997.97</ele>
        <time>2020-06-30T08:04:27Z</time>
      </trkpt>
      <trkpt lat="44.06913" lon="7.15795">
        <ele>996.547</ele>
        <time>2020-06-30T08:04:42Z</time>
      </trkpt>
      <trkpt lat="44.06921" lon="7.15777">
        <ele>992.099</ele>
        <time>2020-06-30T08:04:58Z</time>
      </trkpt>
      <trkpt lat="44.06929" lon="7.15755">
        <ele>987.171</ele>
        <time>2020-06-30T08:05:14Z</time>
      </trkpt>
      <trkpt lat="44.06929" lon="7.15737">
        <ele>983.033</ele>
        <time>2020-06-30T08:05:29Z</time>
      </trkpt>
      <trkpt lat="44.06929" lon="7.15715">
        <ele>981.766</ele>
        <time>2020-06-30T08:05:45Z</time>
      </trkpt>
      <trkpt lat="44.06921" lon="7.15696">
        <ele>980.337</ele>
        <time>2020-06-30T08:06:01Z</time>
      </trkpt>
      <trkpt lat="44.06927" lon="7.15678">
        <ele>976.478</ele>
        <time>2020-06-30T08:06:16Z</time>
      </trkpt>
      <trkpt lat="44.06933" lon="7.15655">
        <ele>974.865</ele>
        <time>2020-06-30T08:06:32Z</time>
      </trkpt>
      <trkpt lat="44.06934" lon="7.15638">
        <ele>973.58</ele>
        <time>2020-06-30T08:06:48Z</time>
      </trkpt>
      <trkpt lat="44.06939" lon="7.15611">
        <ele>970.053</ele>
        <time>2020-06-30T08:07:04Z</time>
      </trkpt>
      <trkpt lat="44.06938" lon="7.15603">
        <ele>970.514</ele>
        <time>2020-06-30T08:07:20Z</time>
      </trkpt>
      <trkpt lat="44.0694" lon="7.15581">
        <ele>970.543</ele>
        <time>2020-06-30T08:07:36Z</time>
      </trkpt>
      <trkpt lat="44.0695" lon="7.15562">
        <ele>966.93</ele>
        <time>2020-06-30T08:07:51Z</time>
      </trkpt>
      <trkpt lat="44.06953" lon="7.15539">
        <ele>962.881</ele>
        <time>2020-06-30T08:08:06Z</time>
      </trkpt>
      <trkpt lat="44.06967" lon="7.15519">
        <ele>959.765</ele>
        <time>2020-06-30T08:08:22Z</time>
      </trkpt>
      <trkpt lat="44.06968" lon="7.15493">
        <ele>953.067</ele>
        <time>2020-06-30T08:08:37Z</time>
      </trkpt>
      <trkpt lat="44.06981" lon="7.15467">
        <ele>951.312</ele>
        <time>2020-06-30T08:08:53Z</time>
      </trkpt>
      <trkpt lat="44.06991" lon="7.15455">
        <ele>948.447</ele>
        <time>2020-06-30T08:09:09Z</time>
      </trkpt>
      <trkpt lat="44.07008" lon="7.15442">
        <ele>948.159</ele>
        <time>2020-06-30T08:09:24Z</time>
      </trkpt>
      <trkpt lat="44.07004" lon="7.15431">
        <ele>945.285</ele>
        <time>2020-06-30T08:09:40Z</time>
      </trkpt>
      <trkpt lat="44.07004" lon="7.15431">
        <ele>945.285</ele>
        <time>2020-06-30T08:09:55Z</time>
      </trkpt>
      <trkpt lat="44.07002" lon="7.15432">
        <ele>945.297</ele>
        <time>2020-06-30T08:10:11Z</time>
      </trkpt>
      <trkpt lat="44.07002" lon="7.15432">
        <ele>945.297</ele>
        <time>2020-06-30T08:10:27Z</time>
      </trkpt>
      <trkpt lat="44.07002" lon="7.15432">
        <ele>945.297</ele>
        <time>2020-06-30T08:10:42Z</time>
      </trkpt>
      <trkpt lat="44.07002" lon="7.15432">
        <ele>945.297</ele>
        <time>2020-06-30T08:10:58Z</time>
      </trkpt>
      <trkpt lat="44.07002" lon="7.15432">
        <ele>945.297</ele>
        <time>2020-06-30T08:11:14Z</time>
      </trkpt>
      <trkpt lat="44.07003" lon="7.15433">
        <ele>942.677</ele>
        <time>2020-06-30T08:11:30Z</time>
      </trkpt>
      <trkpt lat="44.07001" lon="7.15432">
        <ele>941.751</ele>
        <time>2020-06-30T08:11:46Z</time>
      </trkpt>
      <trkpt lat="44.06997" lon="7.15416">
        <ele>940.043</ele>
        <time>2020-06-30T08:12:01Z</time>
      </trkpt>
      <trkpt lat="44.06984" lon="7.15399">
        <ele>939.174</ele>
        <time>2020-06-30T08:12:17Z</time>
      </trkpt>
      <trkpt lat="44.06985" lon="7.15377">
        <ele>937.912</ele>
        <time>2020-06-30T08:12:33Z</time>
      </trkpt>
      <trkpt lat="44.06979" lon="7.15362">
        <ele>935.922</ele>
        <time>2020-06-30T08:12:49Z</time>
      </trkpt>
      <trkpt lat="44.06966" lon="7.15342">
        <ele>936.855</ele>
        <time>2020-06-30T08:13:05Z</time>
      </trkpt>
      <trkpt lat="44.06966" lon="7.1532">
        <ele>932.826</ele>
        <time>2020-06-30T08:13:20Z</time>
      </trkpt>
      <trkpt lat="44.06961" lon="7.15305">
        <ele>928.231</ele>
        <time>2020-06-30T08:13:35Z</time>
      </trkpt>
      <trkpt lat="44.0695" lon="7.15294">
        <ele>920.54</ele>
        <time>2020-06-30T08:13:50Z</time>
      </trkpt>
      <trkpt lat="44.0694" lon="7.15286">
        <ele>916.282</ele>
        <time>2020-06-30T08:14:06Z</time>
      </trkpt>
      <trkpt lat="44.0693" lon="7.15274">
        <ele>910.49</ele>
        <time>2020-06-30T08:14:21Z</time>
      </trkpt>
      <trkpt lat="44.06921" lon="7.15255">
        <ele>907.978</ele>
        <time>2020-06-30T08:14:37Z</time>
      </trkpt>
      <trkpt lat="44.0691" lon="7.15239">
        <ele>906.255</ele>
        <time>2020-06-30T08:14:52Z</time>
      </trkpt>
      <trkpt lat="44.06901" lon="7.15237">
        <ele>907.636</ele>
        <time>2020-06-30T08:15:08Z</time>
      </trkpt>
      <trkpt lat="44.06896" lon="7.15232">
        <ele>906.886</ele>
        <time>2020-06-30T08:15:23Z</time>
      </trkpt>
      <trkpt lat="44.06907" lon="7.15216">
        <ele>898.558</ele>
        <time>2020-06-30T08:15:38Z</time>
      </trkpt>
      <trkpt lat="44.06922" lon="7.15207">
        <ele>893.694</ele>
        <time>2020-06-30T08:15:53Z</time>
      </trkpt>
      <trkpt lat="44.06929" lon="7.15203">
        <ele>890.632</ele>
        <time>2020-06-30T08:16:09Z</time>
      </trkpt>
      <trkpt lat="44.06937" lon="7.15202">
        <ele>885.986</ele>
        <time>2020-06-30T08:16:25Z</time>
      </trkpt>
      <trkpt lat="44.06943" lon="7.15191">
        <ele>885.186</ele>
        <time>2020-06-30T08:16:40Z</time>
      </trkpt>
      <trkpt lat="44.06955" lon="7.15164">
        <ele>884.14</ele>
        <time>2020-06-30T08:16:56Z</time>
      </trkpt>
      <trkpt lat="44.06961" lon="7.1515">
        <ele>883.255</ele>
        <time>2020-06-30T08:17:12Z</time>
      </trkpt>
      <trkpt lat="44.06951" lon="7.15141">
        <ele>888.937</ele>
        <time>2020-06-30T08:17:27Z</time>
      </trkpt>
      <trkpt lat="44.06943" lon="7.15145">
        <ele>887.102</ele>
        <time>2020-06-30T08:17:42Z</time>
      </trkpt>
      <trkpt lat="44.06936" lon="7.15145">
        <ele>879.443</ele>
        <time>2020-06-30T08:17:58Z</time>
      </trkpt>
      <trkpt lat="44.06926" lon="7.15124">
        <ele>880.15</ele>
        <time>2020-06-30T08:18:14Z</time>
      </trkpt>
      <trkpt lat="44.06904" lon="7.15102">
        <ele>885.083</ele>
        <time>2020-06-30T08:18:30Z</time>
      </trkpt>
      <trkpt lat="44.06896" lon="7.15082">
        <ele>879.641</ele>
        <time>2020-06-30T08:18:46Z</time>
      </trkpt>
      <trkpt lat="44.06895" lon="7.15065">
        <ele>876.062</ele>
        <time>2020-06-30T08:19:01Z</time>
      </trkpt>
      <trkpt lat="44.06895" lon="7.15046">
        <ele>877.864</ele>
        <time>2020-06-30T08:19:17Z</time>
      </trkpt>
      <trkpt lat="44.06893" lon="7.1503">
        <ele>881.033</ele>
        <time>2020-06-30T08:19:32Z</time>
      </trkpt>
      <trkpt lat="44.06882" lon="7.1502">
        <ele>878.236</ele>
        <time>2020-06-30T08:19:47Z</time>
      </trkpt>
      <trkpt lat="44.06871" lon="7.15004">
        <ele>878.259</ele>
        <time>2020-06-30T08:20:03Z</time>
      </trkpt>
      <trkpt lat="44.0687" lon="7.14992">
        <ele>877.252</ele>
        <time>2020-06-30T08:20:18Z</time>
      </trkpt>
      <trkpt lat="44.06871" lon="7.14969">
        <ele>877.372</ele>
        <time>2020-06-30T08:20:34Z</time>
      </trkpt>
      <trkpt lat="44.0688" lon="7.14952">
        <ele>874.665</ele>
        <time>2020-06-30T08:20:50Z</time>
      </trkpt>
      <trkpt lat="44.06889" lon="7.14935">
        <ele>876.538</ele>
        <time>2020-06-30T08:21:05Z</time>
      </trkpt>
      <trkpt lat="44.06892" lon="7.14927">
        <ele>875.851</ele>
        <time>2020-06-30T08:21:21Z</time>
      </trkpt>
      <trkpt lat="44.06876" lon="7.14917">
        <ele>875.736</ele>
        <time>2020-06-30T08:21:36Z</time>
      </trkpt>
      <trkpt lat="44.06867" lon="7.14897">
        <ele>878.65</ele>
        <time>2020-06-30T08:21:52Z</time>
      </trkpt>
      <trkpt lat="44.06865" lon="7.14877">
        <ele>879.516</ele>
        <time>2020-06-30T08:22:07Z</time>
      </trkpt>
      <trkpt lat="44.06864" lon="7.14854">
        <ele>880.639</ele>
        <time>2020-06-30T08:22:23Z</time>
      </trkpt>
      <trkpt lat="44.06857" lon="7.14834">
        <ele>881.431</ele>
        <time>2020-06-30T08:22:38Z</time>
      </trkpt>
      <trkpt lat="44.06851" lon="7.14812">
        <ele>882.154</ele>
        <time>2020-06-30T08:22:54Z</time>
      </trkpt>
      <trkpt lat="44.06842" lon="7.14804">
        <ele>883.174</ele>
        <time>2020-06-30T08:23:10Z</time>
      </trkpt>
      <trkpt lat="44.06842" lon="7.14804">
        <ele>883.174</ele>
        <time>2020-06-30T08:23:25Z</time>
      </trkpt>
      <trkpt lat="44.06842" lon="7.14804">
        <ele>883.174</ele>
        <time>2020-06-30T08:23:40Z</time>
      </trkpt>
      <trkpt lat="44.06833" lon="7.14781">
        <ele>884.155</ele>
        <time>2020-06-30T08:23:55Z</time>
      </trkpt>
      <trkpt lat="44.06822" lon="7.14762">
        <ele>884.714</ele>
        <time>2020-06-30T08:24:10Z</time>
      </trkpt>
      <trkpt lat="44.06814" lon="7.1474">
        <ele>882.385</ele>
        <time>2020-06-30T08:24:26Z</time>
      </trkpt>
      <trkpt lat="44.06805" lon="7.14719">
        <ele>883.55</ele>
        <time>2020-06-30T08:24:42Z</time>
      </trkpt>
      <trkpt lat="44.06796" lon="7.14696">
        <ele>884.158</ele>
        <time>2020-06-30T08:24:58Z</time>
      </trkpt>
      <trkpt lat="44.06794" lon="7.14673">
        <ele>884.361</ele>
        <time>2020-06-30T08:25:13Z</time>
      </trkpt>
      <trkpt lat="44.06795" lon="7.14651">
        <ele>886.204</ele>
        <time>2020-06-30T08:25:28Z</time>
      </trkpt>
      <trkpt lat="44.06793" lon="7.14627">
        <ele>887.278</ele>
        <time>2020-06-30T08:25:44Z</time>
      </trkpt>
      <trkpt lat="44.06792" lon="7.146">
        <ele>890.053</ele>
        <time>2020-06-30T08:26:00Z</time>
      </trkpt>
      <trkpt lat="44.06794" lon="7.14577">
        <ele>893.01</ele>
        <time>2020-06-30T08:26:16Z</time>
      </trkpt>
      <trkpt lat="44.06809" lon="7.14568">
        <ele>891.443</ele>
        <time>2020-06-30T08:26:32Z</time>
      </trkpt>
      <trkpt lat="44.06814" lon="7.14548">
        <ele>889.707</ele>
        <time>2020-06-30T08:26:48Z</time>
      </trkpt>
      <trkpt lat="44.06825" lon="7.14535">
        <ele>891.205</ele>
        <time>2020-06-30T08:27:04Z</time>
      </trkpt>
      <trkpt lat="44.06836" lon="7.14516">
        <ele>893.75</ele>
        <time>2020-06-30T08:27:20Z</time>
      </trkpt>
      <trkpt lat="44.0684" lon="7.14502">
        <ele>897.076</ele>
        <time>2020-06-30T08:27:36Z</time>
      </trkpt>
      <trkpt lat="44.06837" lon="7.145">
        <ele>897.953</ele>
        <time>2020-06-30T08:27:52Z</time>
      </trkpt>
      <trkpt lat="44.0683" lon="7.14501">
        <ele>898.417</ele>
        <time>2020-06-30T08:28:07Z</time>
      </trkpt>
      <trkpt lat="44.06815" lon="7.14496">
        <ele>900.93</ele>
        <time>2020-06-30T08:28:22Z</time>
      </trkpt>
      <trkpt lat="44.068" lon="7.14489">
        <ele>898.301</ele>
        <time>2020-06-30T08:28:38Z</time>
      </trkpt>
      <trkpt lat="44.06788" lon="7.14491">
        <ele>897.764</ele>
        <time>2020-06-30T08:28:54Z</time>
      </trkpt>
      <trkpt lat="44.06773" lon="7.14502">
        <ele>899.598</ele>
        <time>2020-06-30T08:29:10Z</time>
      </trkpt>
      <trkpt lat="44.06765" lon="7.14507">
        <ele>901.172</ele>
        <time>2020-06-30T08:29:26Z</time>
      </trkpt>
      <trkpt lat="44.06759" lon="7.14504">
        <ele>902.992</ele>
        <time>2020-06-30T08:29:42Z</time>
      </trkpt>
      <trkpt lat="44.06743" lon="7.14495">
        <ele>902.917</ele>
        <time>2020-06-30T08:29:57Z</time>
      </trkpt>
      <trkpt lat="44.06735" lon="7.14489">
        <ele>907.292</ele>
        <time>2020-06-30T08:30:13Z</time>
      </trkpt>
      <trkpt lat="44.06728" lon="7.14481">
        <ele>905.422</ele>
        <time>2020-06-30T08:30:29Z</time>
      </trkpt>
      <trkpt lat="44.06721" lon="7.14478">
        <ele>907.75</ele>
        <time>2020-06-30T08:30:45Z</time>
      </trkpt>
      <trkpt lat="44.06706" lon="7.14465">
        <ele>911.044</ele>
        <time>2020-06-30T08:31:01Z</time>
      </trkpt>
      <trkpt lat="44.06702" lon="7.14456">
        <ele>912.231</ele>
        <time>2020-06-30T08:31:16Z</time>
      </trkpt>
      <trkpt lat="44.06701" lon="7.14454">
        <ele>913.296</ele>
        <time>2020-06-30T08:31:31Z</time>
      </trkpt>
      <trkpt lat="44.06711" lon="7.14449">
        <ele>913.384</ele>
        <time>2020-06-30T08:31:46Z</time>
      </trkpt>
      <trkpt lat="44.06729" lon="7.14446">
        <ele>914</ele>
        <time>2020-06-30T08:32:01Z</time>
      </trkpt>
      <trkpt lat="44.06737" lon="7.14443">
        <ele>916.78</ele>
        <time>2020-06-30T08:32:17Z</time>
      </trkpt>
      <trkpt lat="44.06748" lon="7.14437">
        <ele>917.38</ele>
        <time>2020-06-30T08:32:33Z</time>
      </trkpt>
      <trkpt lat="44.06758" lon="7.14426">
        <ele>922.646</ele>
        <time>2020-06-30T08:32:48Z</time>
      </trkpt>
      <trkpt lat="44.06768" lon="7.14416">
        <ele>925.728</ele>
        <time>2020-06-30T08:33:04Z</time>
      </trkpt>
      <trkpt lat="44.06776" lon="7.1441">
        <ele>928.129</ele>
        <time>2020-06-30T08:33:20Z</time>
      </trkpt>
      <trkpt lat="44.06786" lon="7.14394">
        <ele>931.099</ele>
        <time>2020-06-30T08:33:35Z</time>
      </trkpt>
      <trkpt lat="44.06794" lon="7.14377">
        <ele>932.909</ele>
        <time>2020-06-30T08:33:50Z</time>
      </trkpt>
      <trkpt lat="44.06796" lon="7.14363">
        <ele>933.672</ele>
        <time>2020-06-30T08:34:06Z</time>
      </trkpt>
      <trkpt lat="44.06794" lon="7.14347">
        <ele>936.384</ele>
        <time>2020-06-30T08:34:22Z</time>
      </trkpt>
      <trkpt lat="44.0679" lon="7.14326">
        <ele>939.077</ele>
        <time>2020-06-30T08:34:38Z</time>
      </trkpt>
      <trkpt lat="44.06782" lon="7.14313">
        <ele>940.955</ele>
        <time>2020-06-30T08:34:54Z</time>
      </trkpt>
      <trkpt lat="44.06773" lon="7.14304">
        <ele>943.3</ele>
        <time>2020-06-30T08:35:09Z</time>
      </trkpt>
      <trkpt lat="44.06762" lon="7.14295">
        <ele>945.077</ele>
        <time>2020-06-30T08:35:25Z</time>
      </trkpt>
      <trkpt lat="44.06751" lon="7.14282">
        <ele>947.88</ele>
        <time>2020-06-30T08:35:41Z</time>
      </trkpt>
      <trkpt lat="44.06744" lon="7.14268">
        <ele>948.543</ele>
        <time>2020-06-30T08:35:57Z</time>
      </trkpt>
      <trkpt lat="44.06736" lon="7.1426">
        <ele>950.176</ele>
        <time>2020-06-30T08:36:12Z</time>
      </trkpt>
      <trkpt lat="44.06728" lon="7.14247">
        <ele>952.266</ele>
        <time>2020-06-30T08:36:28Z</time>
      </trkpt>
      <trkpt lat="44.06724" lon="7.14236">
        <ele>953.922</ele>
        <time>2020-06-30T08:36:43Z</time>
      </trkpt>
      <trkpt lat="44.06723" lon="7.14221">
        <ele>956.85</ele>
        <time>2020-06-30T08:36:59Z</time>
      </trkpt>
      <trkpt lat="44.06721" lon="7.14216">
        <ele>958.312</ele>
        <time>2020-06-30T08:37:14Z</time>
      </trkpt>
      <trkpt lat="44.06724" lon="7.14206">
        <ele>957.681</ele>
        <time>2020-06-30T08:37:30Z</time>
      </trkpt>
      <trkpt lat="44.06719" lon="7.14192">
        <ele>963.273</ele>
        <time>2020-06-30T08:37:45Z</time>
      </trkpt>
      <trkpt lat="44.0671" lon="7.14183">
        <ele>968.829</ele>
        <time>2020-06-30T08:38:01Z</time>
      </trkpt>
      <trkpt lat="44.06708" lon="7.14171">
        <ele>970.964</ele>
        <time>2020-06-30T08:38:16Z</time>
      </trkpt>
      <trkpt lat="44.06713" lon="7.14162">
        <ele>971.647</ele>
        <time>2020-06-30T08:38:32Z</time>
      </trkpt>
      <trkpt lat="44.06708" lon="7.14148">
        <ele>972.682</ele>
        <time>2020-06-30T08:38:48Z</time>
      </trkpt>
      <trkpt lat="44.06708" lon="7.1414">
        <ele>975.836</ele>
        <time>2020-06-30T08:39:03Z</time>
      </trkpt>
      <trkpt lat="44.0671" lon="7.14123">
        <ele>975.189</ele>
        <time>2020-06-30T08:39:18Z</time>
      </trkpt>
      <trkpt lat="44.0671" lon="7.141">
        <ele>977.257</ele>
        <time>2020-06-30T08:39:34Z</time>
      </trkpt>
      <trkpt lat="44.0671" lon="7.14077">
        <ele>978.013</ele>
        <time>2020-06-30T08:39:50Z</time>
      </trkpt>
      <trkpt lat="44.06711" lon="7.1406">
        <ele>980.988</ele>
        <time>2020-06-30T08:40:06Z</time>
      </trkpt>
      <trkpt lat="44.06711" lon="7.14042">
        <ele>983.6</ele>
        <time>2020-06-30T08:40:21Z</time>
      </trkpt>
      <trkpt lat="44.06712" lon="7.14025">
        <ele>984.983</ele>
        <time>2020-06-30T08:40:37Z</time>
      </trkpt>
      <trkpt lat="44.06709" lon="7.14007">
        <ele>988.686</ele>
        <time>2020-06-30T08:40:53Z</time>
      </trkpt>
      <trkpt lat="44.06708" lon="7.13989">
        <ele>991.515</ele>
        <time>2020-06-30T08:41:08Z</time>
      </trkpt>
      <trkpt lat="44.0671" lon="7.13978">
        <ele>990.913</ele>
        <time>2020-06-30T08:41:24Z</time>
      </trkpt>
      <trkpt lat="44.0671" lon="7.13978">
        <ele>990.913</ele>
        <time>2020-06-30T08:41:40Z</time>
      </trkpt>
      <trkpt lat="44.06708" lon="7.13976">
        <ele>990.805</ele>
        <time>2020-06-30T08:41:55Z</time>
      </trkpt>
      <trkpt lat="44.06702" lon="7.13958">
        <ele>989.117</ele>
        <time>2020-06-30T08:42:10Z</time>
      </trkpt>
      <trkpt lat="44.06698" lon="7.13932">
        <ele>985.904</ele>
        <time>2020-06-30T08:42:26Z</time>
      </trkpt>
      <trkpt lat="44.06694" lon="7.1391">
        <ele>984.72</ele>
        <time>2020-06-30T08:42:41Z</time>
      </trkpt>
      <trkpt lat="44.06693" lon="7.13885">
        <ele>983.507</ele>
        <time>2020-06-30T08:42:56Z</time>
      </trkpt>
      <trkpt lat="44.06697" lon="7.13863">
        <ele>982.649</ele>
        <time>2020-06-30T08:43:12Z</time>
      </trkpt>
      <trkpt lat="44.06703" lon="7.1385">
        <ele>983.375</ele>
        <time>2020-06-30T08:43:27Z</time>
      </trkpt>
      <trkpt lat="44.06707" lon="7.13836">
        <ele>984.471</ele>
        <time>2020-06-30T08:43:43Z</time>
      </trkpt>
      <trkpt lat="44.06708" lon="7.13812">
        <ele>990.07</ele>
        <time>2020-06-30T08:43:59Z</time>
      </trkpt>
      <trkpt lat="44.06704" lon="7.13806">
        <ele>991.655</ele>
        <time>2020-06-30T08:44:14Z</time>
      </trkpt>
      <trkpt lat="44.06692" lon="7.13815">
        <ele>996.155</ele>
        <time>2020-06-30T08:44:30Z</time>
      </trkpt>
      <trkpt lat="44.06675" lon="7.13801">
        <ele>993.74</ele>
        <time>2020-06-30T08:44:45Z</time>
      </trkpt>
      <trkpt lat="44.06665" lon="7.1378">
        <ele>992.352</ele>
        <time>2020-06-30T08:45:01Z</time>
      </trkpt>
      <trkpt lat="44.06655" lon="7.13762">
        <ele>991.785</ele>
        <time>2020-06-30T08:45:17Z</time>
      </trkpt>
      <trkpt lat="44.06649" lon="7.13747">
        <ele>993.785</ele>
        <time>2020-06-30T08:45:32Z</time>
      </trkpt>
      <trkpt lat="44.06638" lon="7.13732">
        <ele>995.274</ele>
        <time>2020-06-30T08:45:48Z</time>
      </trkpt>
      <trkpt lat="44.06626" lon="7.13721">
        <ele>998.695</ele>
        <time>2020-06-30T08:46:04Z</time>
      </trkpt>
      <trkpt lat="44.06616" lon="7.13709">
        <ele>1000.749</ele>
        <time>2020-06-30T08:46:19Z</time>
      </trkpt>
      <trkpt lat="44.06607" lon="7.13694">
        <ele>1001.812</ele>
        <time>2020-06-30T08:46:35Z</time>
      </trkpt>
      <trkpt lat="44.06599" lon="7.13679">
        <ele>1004.62</ele>
        <time>2020-06-30T08:46:50Z</time>
      </trkpt>
      <trkpt lat="44.06588" lon="7.13668">
        <ele>1006.712</ele>
        <time>2020-06-30T08:47:06Z</time>
      </trkpt>
      <trkpt lat="44.06581" lon="7.13654">
        <ele>1007.092</ele>
        <time>2020-06-30T08:47:21Z</time>
      </trkpt>
      <trkpt lat="44.06571" lon="7.13644">
        <ele>1010.431</ele>
        <time>2020-06-30T08:47:37Z</time>
      </trkpt>
      <trkpt lat="44.06559" lon="7.13636">
        <ele>1011.399</ele>
        <time>2020-06-30T08:47:52Z</time>
      </trkpt>
      <trkpt lat="44.06548" lon="7.13629">
        <ele>1013.283</ele>
        <time>2020-06-30T08:48:07Z</time>
      </trkpt>
      <trkpt lat="44.06535" lon="7.13621">
        <ele>1018.015</ele>
        <time>2020-06-30T08:48:23Z</time>
      </trkpt>
      <trkpt lat="44.06523" lon="7.13611">
        <ele>1018.563</ele>
        <time>2020-06-30T08:48:38Z</time>
      </trkpt>
      <trkpt lat="44.06511" lon="7.13599">
        <ele>1019.802</ele>
        <time>2020-06-30T08:48:54Z</time>
      </trkpt>
      <trkpt lat="44.06509" lon="7.13599">
        <ele>1019.464</ele>
        <time>2020-06-30T08:49:10Z</time>
      </trkpt>
      <trkpt lat="44.06509" lon="7.13601">
        <ele>1019.286</ele>
        <time>2020-06-30T08:49:26Z</time>
      </trkpt>
      <trkpt lat="44.06509" lon="7.13601">
        <ele>1019.286</ele>
        <time>2020-06-30T08:49:41Z</time>
      </trkpt>
      <trkpt lat="44.06509" lon="7.13601">
        <ele>1019.286</ele>
        <time>2020-06-30T08:49:56Z</time>
      </trkpt>
      <trkpt lat="44.06509" lon="7.13601">
        <ele>1019.286</ele>
        <time>2020-06-30T08:50:12Z</time>
      </trkpt>
      <trkpt lat="44.06508" lon="7.13603">
        <ele>1020.466</ele>
        <time>2020-06-30T08:50:27Z</time>
      </trkpt>
      <trkpt lat="44.06508" lon="7.13603">
        <ele>1020.466</ele>
        <time>2020-06-30T08:50:42Z</time>
      </trkpt>
      <trkpt lat="44.06503" lon="7.13594">
        <ele>1019.755</ele>
        <time>2020-06-30T08:50:57Z</time>
      </trkpt>
      <trkpt lat="44.06492" lon="7.13573">
        <ele>1021.833</ele>
        <time>2020-06-30T08:51:13Z</time>
      </trkpt>
      <trkpt lat="44.06493" lon="7.13558">
        <ele>1025.165</ele>
        <time>2020-06-30T08:51:28Z</time>
      </trkpt>
      <trkpt lat="44.06488" lon="7.1354">
        <ele>1028.451</ele>
        <time>2020-06-30T08:51:44Z</time>
      </trkpt>
      <trkpt lat="44.06484" lon="7.13515">
        <ele>1032.072</ele>
        <time>2020-06-30T08:52:00Z</time>
      </trkpt>
      <trkpt lat="44.06481" lon="7.13499">
        <ele>1035.353</ele>
        <time>2020-06-30T08:52:15Z</time>
      </trkpt>
      <trkpt lat="44.06478" lon="7.13478">
        <ele>1037.028</ele>
        <time>2020-06-30T08:52:31Z</time>
      </trkpt>
      <trkpt lat="44.06474" lon="7.13461">
        <ele>1039.14</ele>
        <time>2020-06-30T08:52:47Z</time>
      </trkpt>
      <trkpt lat="44.06474" lon="7.13442">
        <ele>1039.829</ele>
        <time>2020-06-30T08:53:02Z</time>
      </trkpt>
      <trkpt lat="44.06472" lon="7.13423">
        <ele>1040.05</ele>
        <time>2020-06-30T08:53:18Z</time>
      </trkpt>
      <trkpt lat="44.0647" lon="7.13405">
        <ele>1041.205</ele>
        <time>2020-06-30T08:53:34Z</time>
      </trkpt>
      <trkpt lat="44.06465" lon="7.13391">
        <ele>1044.116</ele>
        <time>2020-06-30T08:53:50Z</time>
      </trkpt>
      <trkpt lat="44.06458" lon="7.1338">
        <ele>1047.618</ele>
        <time>2020-06-30T08:54:06Z</time>
      </trkpt>
      <trkpt lat="44.0645" lon="7.13372">
        <ele>1047.818</ele>
        <time>2020-06-30T08:54:21Z</time>
      </trkpt>
      <trkpt lat="44.06444" lon="7.13357">
        <ele>1050.552</ele>
        <time>2020-06-30T08:54:37Z</time>
      </trkpt>
      <trkpt lat="44.06438" lon="7.1335">
        <ele>1054.2</ele>
        <time>2020-06-30T08:54:52Z</time>
      </trkpt>
      <trkpt lat="44.06431" lon="7.13334">
        <ele>1055.858</ele>
        <time>2020-06-30T08:55:08Z</time>
      </trkpt>
      <trkpt lat="44.06423" lon="7.13323">
        <ele>1058.798</ele>
        <time>2020-06-30T08:55:24Z</time>
      </trkpt>
      <trkpt lat="44.06422" lon="7.13314">
        <ele>1061.851</ele>
        <time>2020-06-30T08:55:40Z</time>
      </trkpt>
      <trkpt lat="44.06418" lon="7.13298">
        <ele>1065.311</ele>
        <time>2020-06-30T08:55:56Z</time>
      </trkpt>
      <trkpt lat="44.06417" lon="7.13292">
        <ele>1065.458</ele>
        <time>2020-06-30T08:56:12Z</time>
      </trkpt>
      <trkpt lat="44.06412" lon="7.13282">
        <ele>1068.587</ele>
        <time>2020-06-30T08:56:28Z</time>
      </trkpt>
      <trkpt lat="44.06404" lon="7.13257">
        <ele>1072.197</ele>
        <time>2020-06-30T08:56:44Z</time>
      </trkpt>
      <trkpt lat="44.06403" lon="7.13243">
        <ele>1072.843</ele>
        <time>2020-06-30T08:57:00Z</time>
      </trkpt>
      <trkpt lat="44.06403" lon="7.13243">
        <ele>1072.843</ele>
        <time>2020-06-30T08:57:15Z</time>
      </trkpt>
      <trkpt lat="44.06403" lon="7.13243">
        <ele>1072.843</ele>
        <time>2020-06-30T08:57:31Z</time>
      </trkpt>
      <trkpt lat="44.06403" lon="7.13243">
        <ele>1072.843</ele>
        <time>2020-06-30T08:57:46Z</time>
      </trkpt>
      <trkpt lat="44.06403" lon="7.13243">
        <ele>1072.843</ele>
        <time>2020-06-30T08:58:01Z</time>
      </trkpt>
      <trkpt lat="44.06403" lon="7.13243">
        <ele>1072.843</ele>
        <time>2020-06-30T08:58:17Z</time>
      </trkpt>
      <trkpt lat="44.064" lon="7.13223">
        <ele>1072.841</ele>
        <time>2020-06-30T08:58:33Z</time>
      </trkpt>
      <trkpt lat="44.06398" lon="7.13212">
        <ele>1075.589</ele>
        <time>2020-06-30T08:58:48Z</time>
      </trkpt>
      <trkpt lat="44.06398" lon="7.13212">
        <ele>1075.589</ele>
        <time>2020-06-30T08:59:03Z</time>
      </trkpt>
      <trkpt lat="44.06397" lon="7.1321">
        <ele>1076.369</ele>
        <time>2020-06-30T08:59:19Z</time>
      </trkpt>
      <trkpt lat="44.06391" lon="7.13187">
        <ele>1080.881</ele>
        <time>2020-06-30T08:59:34Z</time>
      </trkpt>
      <trkpt lat="44.06385" lon="7.13164">
        <ele>1083.085</ele>
        <time>2020-06-30T08:59:50Z</time>
      </trkpt>
      <trkpt lat="44.06383" lon="7.13163">
        <ele>1085.426</ele>
        <time>2020-06-30T09:00:06Z</time>
      </trkpt>
      <trkpt lat="44.06383" lon="7.13159">
        <ele>1084.606</ele>
        <time>2020-06-30T09:00:21Z</time>
      </trkpt>
      <trkpt lat="44.06398" lon="7.13148">
        <ele>1080.342</ele>
        <time>2020-06-30T09:00:36Z</time>
      </trkpt>
      <trkpt lat="44.06405" lon="7.1314">
        <ele>1083.127</ele>
        <time>2020-06-30T09:00:52Z</time>
      </trkpt>
      <trkpt lat="44.06419" lon="7.1313">
        <ele>1083.639</ele>
        <time>2020-06-30T09:01:08Z</time>
      </trkpt>
      <trkpt lat="44.0642" lon="7.13131">
        <ele>1083.247</ele>
        <time>2020-06-30T09:01:24Z</time>
      </trkpt>
      <trkpt lat="44.06422" lon="7.13131">
        <ele>1083.004</ele>
        <time>2020-06-30T09:01:40Z</time>
      </trkpt>
      <trkpt lat="44.06426" lon="7.13129">
        <ele>1083.701</ele>
        <time>2020-06-30T09:01:56Z</time>
      </trkpt>
      <trkpt lat="44.06425" lon="7.13126">
        <ele>1082.885</ele>
        <time>2020-06-30T09:02:12Z</time>
      </trkpt>
      <trkpt lat="44.06433" lon="7.13113">
        <ele>1084.038</ele>
        <time>2020-06-30T09:02:27Z</time>
      </trkpt>
      <trkpt lat="44.06429" lon="7.13114">
        <ele>1087.892</ele>
        <time>2020-06-30T09:02:43Z</time>
      </trkpt>
      <trkpt lat="44.06414" lon="7.13129">
        <ele>1091.918</ele>
        <time>2020-06-30T09:02:58Z</time>
      </trkpt>
      <trkpt lat="44.06414" lon="7.1313">
        <ele>1090.07</ele>
        <time>2020-06-30T09:03:13Z</time>
      </trkpt>
      <trkpt lat="44.06414" lon="7.1313">
        <ele>1090.07</ele>
        <time>2020-06-30T09:03:28Z</time>
      </trkpt>
      <trkpt lat="44.06414" lon="7.1313">
        <ele>1090.07</ele>
        <time>2020-06-30T09:03:44Z</time>
      </trkpt>
      <trkpt lat="44.06413" lon="7.13128">
        <ele>1091.064</ele>
        <time>2020-06-30T09:03:59Z</time>
      </trkpt>
      <trkpt lat="44.06413" lon="7.13128">
        <ele>1091.064</ele>
        <time>2020-06-30T09:04:15Z</time>
      </trkpt>
      <trkpt lat="44.06413" lon="7.13128">
        <ele>1091.064</ele>
        <time>2020-06-30T09:04:30Z</time>
      </trkpt>
      <trkpt lat="44.06413" lon="7.13128">
        <ele>1091.064</ele>
        <time>2020-06-30T09:04:46Z</time>
      </trkpt>
      <trkpt lat="44.06413" lon="7.13128">
        <ele>1091.064</ele>
        <time>2020-06-30T09:05:01Z</time>
      </trkpt>
      <trkpt lat="44.06413" lon="7.13128">
        <ele>1091.064</ele>
        <time>2020-06-30T09:05:17Z</time>
      </trkpt>
      <trkpt lat="44.06414" lon="7.13129">
        <ele>1088.663</ele>
        <time>2020-06-30T09:05:32Z</time>
      </trkpt>
      <trkpt lat="44.06414" lon="7.13129">
        <ele>1088.663</ele>
        <time>2020-06-30T09:05:48Z</time>
      </trkpt>
      <trkpt lat="44.06414" lon="7.13129">
        <ele>1088.663</ele>
        <time>2020-06-30T09:06:03Z</time>
      </trkpt>
      <trkpt lat="44.06414" lon="7.13131">
        <ele>1086.803</ele>
        <time>2020-06-30T09:06:19Z</time>
      </trkpt>
      <trkpt lat="44.06414" lon="7.13131">
        <ele>1086.803</ele>
        <time>2020-06-30T09:06:35Z</time>
      </trkpt>
      <trkpt lat="44.06414" lon="7.13131">
        <ele>1086.803</ele>
        <time>2020-06-30T09:06:50Z</time>
      </trkpt>
      <trkpt lat="44.06414" lon="7.13131">
        <ele>1086.803</ele>
        <time>2020-06-30T09:07:06Z</time>
      </trkpt>
      <trkpt lat="44.06414" lon="7.13131">
        <ele>1086.803</ele>
        <time>2020-06-30T09:07:21Z</time>
      </trkpt>
      <trkpt lat="44.06414" lon="7.13131">
        <ele>1086.803</ele>
        <time>2020-06-30T09:07:37Z</time>
      </trkpt>
      <trkpt lat="44.06413" lon="7.13128">
        <ele>1085.588</ele>
        <time>2020-06-30T09:07:52Z</time>
      </trkpt>
      <trkpt lat="44.06415" lon="7.13133">
        <ele>1084.069</ele>
        <time>2020-06-30T09:08:07Z</time>
      </trkpt>
      <trkpt lat="44.06415" lon="7.13133">
        <ele>1084.069</ele>
        <time>2020-06-30T09:08:22Z</time>
      </trkpt>
      <trkpt lat="44.06415" lon="7.13132">
        <ele>1082.386</ele>
        <time>2020-06-30T09:08:38Z</time>
      </trkpt>
      <trkpt lat="44.06418" lon="7.13131">
        <ele>1079.628</ele>
        <time>2020-06-30T09:08:54Z</time>
      </trkpt>
      <trkpt lat="44.0641" lon="7.13128">
        <ele>1081.667</ele>
        <time>2020-06-30T09:09:10Z</time>
      </trkpt>
      <trkpt lat="44.06393" lon="7.13134">
        <ele>1080.688</ele>
        <time>2020-06-30T09:09:26Z</time>
      </trkpt>
      <trkpt lat="44.06382" lon="7.13136">
        <ele>1075.622</ele>
        <time>2020-06-30T09:09:42Z</time>
      </trkpt>
      <trkpt lat="44.06383" lon="7.13136">
        <ele>1076.423</ele>
        <time>2020-06-30T09:09:57Z</time>
      </trkpt>
      <trkpt lat="44.06383" lon="7.13135">
        <ele>1076.108</ele>
        <time>2020-06-30T09:10:12Z</time>
      </trkpt>
      <trkpt lat="44.06388" lon="7.13147">
        <ele>1075.091</ele>
        <time>2020-06-30T09:10:28Z</time>
      </trkpt>
      <trkpt lat="44.06388" lon="7.13169">
        <ele>1076.531</ele>
        <time>2020-06-30T09:10:43Z</time>
      </trkpt>
      <trkpt lat="44.06392" lon="7.13196">
        <ele>1078.778</ele>
        <time>2020-06-30T09:10:59Z</time>
      </trkpt>
      <trkpt lat="44.06391" lon="7.13219">
        <ele>1072.932</ele>
        <time>2020-06-30T09:11:15Z</time>
      </trkpt>
      <trkpt lat="44.06379" lon="7.13197">
        <ele>1071.202</ele>
        <time>2020-06-30T09:11:30Z</time>
      </trkpt>
      <trkpt lat="44.06379" lon="7.13197">
        <ele>1071.718</ele>
        <time>2020-06-30T09:11:46Z</time>
      </trkpt>
      <trkpt lat="44.06379" lon="7.13197">
        <ele>1071.718</ele>
        <time>2020-06-30T09:12:02Z</time>
      </trkpt>
      <trkpt lat="44.06379" lon="7.13197">
        <ele>1071.718</ele>
        <time>2020-06-30T09:12:18Z</time>
      </trkpt>
      <trkpt lat="44.06379" lon="7.13197">
        <ele>1071.718</ele>
        <time>2020-06-30T09:12:34Z</time>
      </trkpt>
      <trkpt lat="44.06379" lon="7.13197">
        <ele>1071.718</ele>
        <time>2020-06-30T09:12:49Z</time>
      </trkpt>
      <trkpt lat="44.06379" lon="7.13197">
        <ele>1071.718</ele>
        <time>2020-06-30T09:13:05Z</time>
      </trkpt>
      <trkpt lat="44.06379" lon="7.13197">
        <ele>1071.718</ele>
        <time>2020-06-30T09:13:20Z</time>
      </trkpt>
      <trkpt lat="44.06379" lon="7.13197">
        <ele>1071.718</ele>
        <time>2020-06-30T09:13:35Z</time>
      </trkpt>
      <trkpt lat="44.06376" lon="7.132">
        <ele>1073.392</ele>
        <time>2020-06-30T09:13:51Z</time>
      </trkpt>
      <trkpt lat="44.06376" lon="7.132">
        <ele>1073.392</ele>
        <time>2020-06-30T09:14:06Z</time>
      </trkpt>
      <trkpt lat="44.06376" lon="7.132">
        <ele>1073.392</ele>
        <time>2020-06-30T09:14:22Z</time>
      </trkpt>
      <trkpt lat="44.06371" lon="7.13203">
        <ele>1075.211</ele>
        <time>2020-06-30T09:14:37Z</time>
      </trkpt>
      <trkpt lat="44.06379" lon="7.13211">
        <ele>1077.02</ele>
        <time>2020-06-30T09:14:52Z</time>
      </trkpt>
      <trkpt lat="44.06381" lon="7.13205">
        <ele>1085.172</ele>
        <time>2020-06-30T09:15:07Z</time>
      </trkpt>
      <trkpt lat="44.06379" lon="7.13195">
        <ele>1087.471</ele>
        <time>2020-06-30T09:15:23Z</time>
      </trkpt>
      <trkpt lat="44.06378" lon="7.13185">
        <ele>1088.272</ele>
        <time>2020-06-30T09:15:38Z</time>
      </trkpt>
      <trkpt lat="44.06369" lon="7.13166">
        <ele>1081.69</ele>
        <time>2020-06-30T09:15:54Z</time>
      </trkpt>
      <trkpt lat="44.06358" lon="7.13148">
        <ele>1081.366</ele>
        <time>2020-06-30T09:16:09Z</time>
      </trkpt>
      <trkpt lat="44.06343" lon="7.13134">
        <ele>1088.846</ele>
        <time>2020-06-30T09:16:25Z</time>
      </trkpt>
      <trkpt lat="44.06338" lon="7.13115">
        <ele>1086.379</ele>
        <time>2020-06-30T09:16:41Z</time>
      </trkpt>
      <trkpt lat="44.06341" lon="7.13088">
        <ele>1080.637</ele>
        <time>2020-06-30T09:16:56Z</time>
      </trkpt>
      <trkpt lat="44.06345" lon="7.13065">
        <ele>1069.421</ele>
        <time>2020-06-30T09:17:12Z</time>
      </trkpt>
      <trkpt lat="44.06354" lon="7.1306">
        <ele>1068.064</ele>
        <time>2020-06-30T09:17:28Z</time>
      </trkpt>
      <trkpt lat="44.06354" lon="7.13059">
        <ele>1067.593</ele>
        <time>2020-06-30T09:17:43Z</time>
      </trkpt>
      <trkpt lat="44.06355" lon="7.13061">
        <ele>1067.187</ele>
        <time>2020-06-30T09:17:59Z</time>
      </trkpt>
      <trkpt lat="44.06366" lon="7.13071">
        <ele>1068.397</ele>
        <time>2020-06-30T09:18:15Z</time>
      </trkpt>
      <trkpt lat="44.06378" lon="7.1308">
        <ele>1066.811</ele>
        <time>2020-06-30T09:18:30Z</time>
      </trkpt>
      <trkpt lat="44.06396" lon="7.1308">
        <ele>1065.145</ele>
        <time>2020-06-30T09:18:46Z</time>
      </trkpt>
      <trkpt lat="44.06415" lon="7.13078">
        <ele>1058.373</ele>
        <time>2020-06-30T09:19:02Z</time>
      </trkpt>
      <trkpt lat="44.06427" lon="7.13068">
        <ele>1051.673</ele>
        <time>2020-06-30T09:19:17Z</time>
      </trkpt>
      <trkpt lat="44.06437" lon="7.13052">
        <ele>1052.736</ele>
        <time>2020-06-30T09:19:33Z</time>
      </trkpt>
      <trkpt lat="44.06447" lon="7.13036">
        <ele>1050.848</ele>
        <time>2020-06-30T09:19:48Z</time>
      </trkpt>
      <trkpt lat="44.06464" lon="7.13022">
        <ele>1049.494</ele>
        <time>2020-06-30T09:20:03Z</time>
      </trkpt>
      <trkpt lat="44.06475" lon="7.13014">
        <ele>1048.292</ele>
        <time>2020-06-30T09:20:18Z</time>
      </trkpt>
      <trkpt lat="44.06477" lon="7.13013">
        <ele>1048.406</ele>
        <time>2020-06-30T09:20:34Z</time>
      </trkpt>
      <trkpt lat="44.06477" lon="7.13013">
        <ele>1048.406</ele>
        <time>2020-06-30T09:20:50Z</time>
      </trkpt>
      <trkpt lat="44.06477" lon="7.13013">
        <ele>1048.406</ele>
        <time>2020-06-30T09:21:05Z</time>
      </trkpt>
      <trkpt lat="44.06477" lon="7.13013">
        <ele>1048.406</ele>
        <time>2020-06-30T09:21:21Z</time>
      </trkpt>
      <trkpt lat="44.06477" lon="7.13013">
        <ele>1048.236</ele>
        <time>2020-06-30T09:21:37Z</time>
      </trkpt>
      <trkpt lat="44.0649" lon="7.13017">
        <ele>1045.606</ele>
        <time>2020-06-30T09:21:52Z</time>
      </trkpt>
      <trkpt lat="44.06505" lon="7.1302">
        <ele>1042.462</ele>
        <time>2020-06-30T09:22:07Z</time>
      </trkpt>
      <trkpt lat="44.06522" lon="7.13021">
        <ele>1043.064</ele>
        <time>2020-06-30T09:22:23Z</time>
      </trkpt>
      <trkpt lat="44.06539" lon="7.13016">
        <ele>1043.725</ele>
        <time>2020-06-30T09:22:39Z</time>
      </trkpt>
      <trkpt lat="44.06551" lon="7.13024">
        <ele>1041.443</ele>
        <time>2020-06-30T09:22:54Z</time>
      </trkpt>
      <trkpt lat="44.06564" lon="7.13033">
        <ele>1040.861</ele>
        <time>2020-06-30T09:23:10Z</time>
      </trkpt>
      <trkpt lat="44.0658" lon="7.13053">
        <ele>1038.603</ele>
        <time>2020-06-30T09:23:26Z</time>
      </trkpt>
      <trkpt lat="44.06598" lon="7.1307">
        <ele>1033.707</ele>
        <time>2020-06-30T09:23:42Z</time>
      </trkpt>
      <trkpt lat="44.06612" lon="7.13081">
        <ele>1031.294</ele>
        <time>2020-06-30T09:23:57Z</time>
      </trkpt>
      <trkpt lat="44.06634" lon="7.13097">
        <ele>1029.949</ele>
        <time>2020-06-30T09:24:13Z</time>
      </trkpt>
      <trkpt lat="44.06648" lon="7.13103">
        <ele>1026.98</ele>
        <time>2020-06-30T09:24:28Z</time>
      </trkpt>
      <trkpt lat="44.06661" lon="7.1312">
        <ele>1027.505</ele>
        <time>2020-06-30T09:24:44Z</time>
      </trkpt>
      <trkpt lat="44.06671" lon="7.13135">
        <ele>1028.62</ele>
        <time>2020-06-30T09:25:00Z</time>
      </trkpt>
      <trkpt lat="44.06693" lon="7.13144">
        <ele>1028.302</ele>
        <time>2020-06-30T09:25:16Z</time>
      </trkpt>
      <trkpt lat="44.06707" lon="7.13147">
        <ele>1022.182</ele>
        <time>2020-06-30T09:25:31Z</time>
      </trkpt>
      <trkpt lat="44.06722" lon="7.13158">
        <ele>1015.238</ele>
        <time>2020-06-30T09:25:47Z</time>
      </trkpt>
      <trkpt lat="44.06738" lon="7.13162">
        <ele>1011.508</ele>
        <time>2020-06-30T09:26:02Z</time>
      </trkpt>
      <trkpt lat="44.06754" lon="7.13161">
        <ele>1010.773</ele>
        <time>2020-06-30T09:26:17Z</time>
      </trkpt>
      <trkpt lat="44.06772" lon="7.13153">
        <ele>1009.695</ele>
        <time>2020-06-30T09:26:33Z</time>
      </trkpt>
      <trkpt lat="44.06778" lon="7.13157">
        <ele>1007.557</ele>
        <time>2020-06-30T09:26:48Z</time>
      </trkpt>
      <trkpt lat="44.0677" lon="7.13143">
        <ele>1000.001</ele>
        <time>2020-06-30T09:27:04Z</time>
      </trkpt>
      <trkpt lat="44.06783" lon="7.13132">
        <ele>990.188</ele>
        <time>2020-06-30T09:27:20Z</time>
      </trkpt>
      <trkpt lat="44.06797" lon="7.13115">
        <ele>975.38</ele>
        <time>2020-06-30T09:27:35Z</time>
      </trkpt>
      <trkpt lat="44.06811" lon="7.131">
        <ele>979.237</ele>
        <time>2020-06-30T09:27:51Z</time>
      </trkpt>
      <trkpt lat="44.06823" lon="7.13083">
        <ele>978.04</ele>
        <time>2020-06-30T09:28:06Z</time>
      </trkpt>
      <trkpt lat="44.06829" lon="7.13056">
        <ele>976.162</ele>
        <time>2020-06-30T09:28:22Z</time>
      </trkpt>
      <trkpt lat="44.06837" lon="7.13034">
        <ele>976.577</ele>
        <time>2020-06-30T09:28:37Z</time>
      </trkpt>
      <trkpt lat="44.06847" lon="7.13011">
        <ele>979.689</ele>
        <time>2020-06-30T09:28:53Z</time>
      </trkpt>
      <trkpt lat="44.0686" lon="7.12991">
        <ele>980.543</ele>
        <time>2020-06-30T09:29:08Z</time>
      </trkpt>
      <trkpt lat="44.06874" lon="7.12972">
        <ele>981.278</ele>
        <time>2020-06-30T09:29:24Z</time>
      </trkpt>
      <trkpt lat="44.06892" lon="7.12966">
        <ele>983.754</ele>
        <time>2020-06-30T09:29:40Z</time>
      </trkpt>
      <trkpt lat="44.06914" lon="7.12965">
        <ele>983.95</ele>
        <time>2020-06-30T09:29:56Z</time>
      </trkpt>
      <trkpt lat="44.06925" lon="7.12949">
        <ele>985.573</ele>
        <time>2020-06-30T09:30:11Z</time>
      </trkpt>
      <trkpt lat="44.06929" lon="7.12959">
        <ele>980.652</ele>
        <time>2020-06-30T09:30:26Z</time>
      </trkpt>
      <trkpt lat="44.06941" lon="7.12971">
        <ele>979.197</ele>
        <time>2020-06-30T09:30:42Z</time>
      </trkpt>
      <trkpt lat="44.06939" lon="7.12956">
        <ele>975.548</ele>
        <time>2020-06-30T09:30:57Z</time>
      </trkpt>
      <trkpt lat="44.06936" lon="7.12934">
        <ele>968.162</ele>
        <time>2020-06-30T09:31:13Z</time>
      </trkpt>
      <trkpt lat="44.0695" lon="7.12913">
        <ele>961.561</ele>
        <time>2020-06-30T09:31:28Z</time>
      </trkpt>
      <trkpt lat="44.0695" lon="7.12886">
        <ele>962.505</ele>
        <time>2020-06-30T09:31:44Z</time>
      </trkpt>
      <trkpt lat="44.06952" lon="7.12858">
        <ele>963.673</ele>
        <time>2020-06-30T09:32:00Z</time>
      </trkpt>
      <trkpt lat="44.06943" lon="7.12825">
        <ele>975.295</ele>
        <time>2020-06-30T09:32:16Z</time>
      </trkpt>
      <trkpt lat="44.06935" lon="7.12805">
        <ele>983.995</ele>
        <time>2020-06-30T09:32:31Z</time>
      </trkpt>
      <trkpt lat="44.0691" lon="7.1278">
        <ele>998.401</ele>
        <time>2020-06-30T09:32:46Z</time>
      </trkpt>
      <trkpt lat="44.06903" lon="7.1275">
        <ele>1011.132</ele>
        <time>2020-06-30T09:33:02Z</time>
      </trkpt>
      <trkpt lat="44.06922" lon="7.12718">
        <ele>1006.565</ele>
        <time>2020-06-30T09:33:17Z</time>
      </trkpt>
      <trkpt lat="44.06939" lon="7.12699">
        <ele>997.684</ele>
        <time>2020-06-30T09:33:32Z</time>
      </trkpt>
      <trkpt lat="44.06953" lon="7.1268">
        <ele>990.476</ele>
        <time>2020-06-30T09:33:48Z</time>
      </trkpt>
      <trkpt lat="44.06968" lon="7.12661">
        <ele>985.699</ele>
        <time>2020-06-30T09:34:04Z</time>
      </trkpt>
      <trkpt lat="44.06988" lon="7.12647">
        <ele>976.485</ele>
        <time>2020-06-30T09:34:20Z</time>
      </trkpt>
      <trkpt lat="44.07006" lon="7.12633">
        <ele>967.712</ele>
        <time>2020-06-30T09:34:36Z</time>
      </trkpt>
      <trkpt lat="44.07018" lon="7.12621">
        <ele>966.493</ele>
        <time>2020-06-30T09:34:51Z</time>
      </trkpt>
      <trkpt lat="44.07011" lon="7.12597">
        <ele>969.189</ele>
        <time>2020-06-30T09:35:07Z</time>
      </trkpt>
      <trkpt lat="44.06998" lon="7.12564">
        <ele>976.242</ele>
        <time>2020-06-30T09:35:23Z</time>
      </trkpt>
      <trkpt lat="44.06989" lon="7.1254">
        <ele>985.928</ele>
        <time>2020-06-30T09:35:38Z</time>
      </trkpt>
      <trkpt lat="44.0699" lon="7.1251">
        <ele>989.037</ele>
        <time>2020-06-30T09:35:54Z</time>
      </trkpt>
      <trkpt lat="44.06973" lon="7.12487">
        <ele>996.79</ele>
        <time>2020-06-30T09:36:09Z</time>
      </trkpt>
      <trkpt lat="44.06957" lon="7.12465">
        <ele>999.406</ele>
        <time>2020-06-30T09:36:25Z</time>
      </trkpt>
      <trkpt lat="44.06945" lon="7.12443">
        <ele>1001.202</ele>
        <time>2020-06-30T09:36:40Z</time>
      </trkpt>
      <trkpt lat="44.06942" lon="7.12416">
        <ele>1000.754</ele>
        <time>2020-06-30T09:36:56Z</time>
      </trkpt>
      <trkpt lat="44.06951" lon="7.1239">
        <ele>998.133</ele>
        <time>2020-06-30T09:37:12Z</time>
      </trkpt>
      <trkpt lat="44.06962" lon="7.12367">
        <ele>989.079</ele>
        <time>2020-06-30T09:37:27Z</time>
      </trkpt>
      <trkpt lat="44.06962" lon="7.12345">
        <ele>988.601</ele>
        <time>2020-06-30T09:37:43Z</time>
      </trkpt>
      <trkpt lat="44.06965" lon="7.12324">
        <ele>984.111</ele>
        <time>2020-06-30T09:37:58Z</time>
      </trkpt>
      <trkpt lat="44.06976" lon="7.12301">
        <ele>977.458</ele>
        <time>2020-06-30T09:38:14Z</time>
      </trkpt>
      <trkpt lat="44.0699" lon="7.12272">
        <ele>970.599</ele>
        <time>2020-06-30T09:38:29Z</time>
      </trkpt>
      <trkpt lat="44.06995" lon="7.12244">
        <ele>965.969</ele>
        <time>2020-06-30T09:38:45Z</time>
      </trkpt>
      <trkpt lat="44.06997" lon="7.12214">
        <ele>962.948</ele>
        <time>2020-06-30T09:39:00Z</time>
      </trkpt>
      <trkpt lat="44.06996" lon="7.12181">
        <ele>960.814</ele>
        <time>2020-06-30T09:39:16Z</time>
      </trkpt>
      <trkpt lat="44.07003" lon="7.12153">
        <ele>949.596</ele>
        <time>2020-06-30T09:39:32Z</time>
      </trkpt>
      <trkpt lat="44.07003" lon="7.12123">
        <ele>936.98</ele>
        <time>2020-06-30T09:39:48Z</time>
      </trkpt>
      <trkpt lat="44.07002" lon="7.12095">
        <ele>928.391</ele>
        <time>2020-06-30T09:40:03Z</time>
      </trkpt>
      <trkpt lat="44.06999" lon="7.12074">
        <ele>927.004</ele>
        <time>2020-06-30T09:40:19Z</time>
      </trkpt>
      <trkpt lat="44.06995" lon="7.12049">
        <ele>924.679</ele>
        <time>2020-06-30T09:40:34Z</time>
      </trkpt>
      <trkpt lat="44.06997" lon="7.12022">
        <ele>915.526</ele>
        <time>2020-06-30T09:40:49Z</time>
      </trkpt>
      <trkpt lat="44.07016" lon="7.12007">
        <ele>910.285</ele>
        <time>2020-06-30T09:41:05Z</time>
      </trkpt>
      <trkpt lat="44.07032" lon="7.11992">
        <ele>909.887</ele>
        <time>2020-06-30T09:41:20Z</time>
      </trkpt>
      <trkpt lat="44.07049" lon="7.11984">
        <ele>907.43</ele>
        <time>2020-06-30T09:41:36Z</time>
      </trkpt>
      <trkpt lat="44.07059" lon="7.1196">
        <ele>906.925</ele>
        <time>2020-06-30T09:41:52Z</time>
      </trkpt>
      <trkpt lat="44.07076" lon="7.11948">
        <ele>904.854</ele>
        <time>2020-06-30T09:42:07Z</time>
      </trkpt>
      <trkpt lat="44.07091" lon="7.11937">
        <ele>905.065</ele>
        <time>2020-06-30T09:42:23Z</time>
      </trkpt>
      <trkpt lat="44.07095" lon="7.11917">
        <ele>906.199</ele>
        <time>2020-06-30T09:42:39Z</time>
      </trkpt>
      <trkpt lat="44.07095" lon="7.11887">
        <ele>906.729</ele>
        <time>2020-06-30T09:42:55Z</time>
      </trkpt>
      <trkpt lat="44.07104" lon="7.1186">
        <ele>904.053</ele>
        <time>2020-06-30T09:43:11Z</time>
      </trkpt>
      <trkpt lat="44.07118" lon="7.11835">
        <ele>900.228</ele>
        <time>2020-06-30T09:43:29Z</time>
      </trkpt>
      <trkpt lat="44.07138" lon="7.11825">
        <ele>893.18</ele>
        <time>2020-06-30T09:43:45Z</time>
      </trkpt>
      <trkpt lat="44.07154" lon="7.11807">
        <ele>891.94</ele>
        <time>2020-06-30T09:44:01Z</time>
      </trkpt>
      <trkpt lat="44.07166" lon="7.11782">
        <ele>892.119</ele>
        <time>2020-06-30T09:44:17Z</time>
      </trkpt>
      <trkpt lat="44.07175" lon="7.11758">
        <ele>889.06</ele>
        <time>2020-06-30T09:44:32Z</time>
      </trkpt>
      <trkpt lat="44.0719" lon="7.11745">
        <ele>886.592</ele>
        <time>2020-06-30T09:44:47Z</time>
      </trkpt>
      <trkpt lat="44.0721" lon="7.11745">
        <ele>885.37</ele>
        <time>2020-06-30T09:45:03Z</time>
      </trkpt>
      <trkpt lat="44.07228" lon="7.1175">
        <ele>883.428</ele>
        <time>2020-06-30T09:45:19Z</time>
      </trkpt>
      <trkpt lat="44.07248" lon="7.11757">
        <ele>886.552</ele>
        <time>2020-06-30T09:45:35Z</time>
      </trkpt>
      <trkpt lat="44.07264" lon="7.11766">
        <ele>883.779</ele>
        <time>2020-06-30T09:45:51Z</time>
      </trkpt>
      <trkpt lat="44.07282" lon="7.11774">
        <ele>884.924</ele>
        <time>2020-06-30T09:46:06Z</time>
      </trkpt>
      <trkpt lat="44.07299" lon="7.1179">
        <ele>882.953</ele>
        <time>2020-06-30T09:46:21Z</time>
      </trkpt>
      <trkpt lat="44.07317" lon="7.11807">
        <ele>878.861</ele>
        <time>2020-06-30T09:46:36Z</time>
      </trkpt>
      <trkpt lat="44.07332" lon="7.11827">
        <ele>877.443</ele>
        <time>2020-06-30T09:46:52Z</time>
      </trkpt>
      <trkpt lat="44.07346" lon="7.11853">
        <ele>876.68</ele>
        <time>2020-06-30T09:47:08Z</time>
      </trkpt>
      <trkpt lat="44.0736" lon="7.11871">
        <ele>873.96</ele>
        <time>2020-06-30T09:47:23Z</time>
      </trkpt>
      <trkpt lat="44.07367" lon="7.11892">
        <ele>873.692</ele>
        <time>2020-06-30T09:47:38Z</time>
      </trkpt>
      <trkpt lat="44.07375" lon="7.11919">
        <ele>873.616</ele>
        <time>2020-06-30T09:47:54Z</time>
      </trkpt>
      <trkpt lat="44.07391" lon="7.11937">
        <ele>875.507</ele>
        <time>2020-06-30T09:48:09Z</time>
      </trkpt>
      <trkpt lat="44.07402" lon="7.11951">
        <ele>871.397</ele>
        <time>2020-06-30T09:48:25Z</time>
      </trkpt>
      <trkpt lat="44.07416" lon="7.11965">
        <ele>866.302</ele>
        <time>2020-06-30T09:48:41Z</time>
      </trkpt>
      <trkpt lat="44.07429" lon="7.11975">
        <ele>864.957</ele>
        <time>2020-06-30T09:48:56Z</time>
      </trkpt>
      <trkpt lat="44.07446" lon="7.11995">
        <ele>860.983</ele>
        <time>2020-06-30T09:49:11Z</time>
      </trkpt>
      <trkpt lat="44.07465" lon="7.12008">
        <ele>858.501</ele>
        <time>2020-06-30T09:49:27Z</time>
      </trkpt>
      <trkpt lat="44.07472" lon="7.12005">
        <ele>855.907</ele>
        <time>2020-06-30T09:49:42Z</time>
      </trkpt>
      <trkpt lat="44.07463" lon="7.11985">
        <ele>855.349</ele>
        <time>2020-06-30T09:49:57Z</time>
      </trkpt>
      <trkpt lat="44.07473" lon="7.11961">
        <ele>854.942</ele>
        <time>2020-06-30T09:50:13Z</time>
      </trkpt>
      <trkpt lat="44.07491" lon="7.11955">
        <ele>850.755</ele>
        <time>2020-06-30T09:50:28Z</time>
      </trkpt>
      <trkpt lat="44.07496" lon="7.11955">
        <ele>849.532</ele>
        <time>2020-06-30T09:50:44Z</time>
      </trkpt>
      <trkpt lat="44.07512" lon="7.11942">
        <ele>847.537</ele>
        <time>2020-06-30T09:51:00Z</time>
      </trkpt>
      <trkpt lat="44.07501" lon="7.11924">
        <ele>851.5</ele>
        <time>2020-06-30T09:51:16Z</time>
      </trkpt>
      <trkpt lat="44.07503" lon="7.11901">
        <ele>846.457</ele>
        <time>2020-06-30T09:51:32Z</time>
      </trkpt>
      <trkpt lat="44.07517" lon="7.11876">
        <ele>847.487</ele>
        <time>2020-06-30T09:51:47Z</time>
      </trkpt>
      <trkpt lat="44.07523" lon="7.11848">
        <ele>849.263</ele>
        <time>2020-06-30T09:52:03Z</time>
      </trkpt>
      <trkpt lat="44.07528" lon="7.11832">
        <ele>848.963</ele>
        <time>2020-06-30T09:52:18Z</time>
      </trkpt>
      <trkpt lat="44.07535" lon="7.11816">
        <ele>849.745</ele>
        <time>2020-06-30T09:52:33Z</time>
      </trkpt>
      <trkpt lat="44.07538" lon="7.11799">
        <ele>851.573</ele>
        <time>2020-06-30T09:52:48Z</time>
      </trkpt>
      <trkpt lat="44.07538" lon="7.11788">
        <ele>851.048</ele>
        <time>2020-06-30T09:53:04Z</time>
      </trkpt>
      <trkpt lat="44.07538" lon="7.11753">
        <ele>849.68</ele>
        <time>2020-06-30T09:53:20Z</time>
      </trkpt>
      <trkpt lat="44.07547" lon="7.11735">
        <ele>834.7</ele>
        <time>2020-06-30T09:53:36Z</time>
      </trkpt>
      <trkpt lat="44.07556" lon="7.11711">
        <ele>830.049</ele>
        <time>2020-06-30T09:53:52Z</time>
      </trkpt>
      <trkpt lat="44.07557" lon="7.11679">
        <ele>830.246</ele>
        <time>2020-06-30T09:54:08Z</time>
      </trkpt>
      <trkpt lat="44.07559" lon="7.11651">
        <ele>831.214</ele>
        <time>2020-06-30T09:54:24Z</time>
      </trkpt>
      <trkpt lat="44.07555" lon="7.1163">
        <ele>832.39</ele>
        <time>2020-06-30T09:54:40Z</time>
      </trkpt>
      <trkpt lat="44.07553" lon="7.11603">
        <ele>830.394</ele>
        <time>2020-06-30T09:54:56Z</time>
      </trkpt>
      <trkpt lat="44.0756" lon="7.11585">
        <ele>826.447</ele>
        <time>2020-06-30T09:55:11Z</time>
      </trkpt>
      <trkpt lat="44.07558" lon="7.11557">
        <ele>824.88</ele>
        <time>2020-06-30T09:55:26Z</time>
      </trkpt>
      <trkpt lat="44.07559" lon="7.11533">
        <ele>825.437</ele>
        <time>2020-06-30T09:55:42Z</time>
      </trkpt>
      <trkpt lat="44.07566" lon="7.11512">
        <ele>818.09</ele>
        <time>2020-06-30T09:55:58Z</time>
      </trkpt>
      <trkpt lat="44.07572" lon="7.11488">
        <ele>813.462</ele>
        <time>2020-06-30T09:56:14Z</time>
      </trkpt>
      <trkpt lat="44.07583" lon="7.11465">
        <ele>806.943</ele>
        <time>2020-06-30T09:56:30Z</time>
      </trkpt>
      <trkpt lat="44.07587" lon="7.11448">
        <ele>807.112</ele>
        <time>2020-06-30T09:56:46Z</time>
      </trkpt>
      <trkpt lat="44.07591" lon="7.11444">
        <ele>805.488</ele>
        <time>2020-06-30T09:57:01Z</time>
      </trkpt>
      <trkpt lat="44.07603" lon="7.11423">
        <ele>803.183</ele>
        <time>2020-06-30T09:57:17Z</time>
      </trkpt>
      <trkpt lat="44.07619" lon="7.11407">
        <ele>797.244</ele>
        <time>2020-06-30T09:57:32Z</time>
      </trkpt>
      <trkpt lat="44.0763" lon="7.11389">
        <ele>795.802</ele>
        <time>2020-06-30T09:57:48Z</time>
      </trkpt>
      <trkpt lat="44.07642" lon="7.11361">
        <ele>791.871</ele>
        <time>2020-06-30T09:58:04Z</time>
      </trkpt>
      <trkpt lat="44.07646" lon="7.11343">
        <ele>787.227</ele>
        <time>2020-06-30T09:58:20Z</time>
      </trkpt>
      <trkpt lat="44.07654" lon="7.11323">
        <ele>779.836</ele>
        <time>2020-06-30T09:58:35Z</time>
      </trkpt>
      <trkpt lat="44.0766" lon="7.11308">
        <ele>779.218</ele>
        <time>2020-06-30T09:58:51Z</time>
      </trkpt>
      <trkpt lat="44.07668" lon="7.11283">
        <ele>780.827</ele>
        <time>2020-06-30T09:59:07Z</time>
      </trkpt>
      <trkpt lat="44.07666" lon="7.11264">
        <ele>778.666</ele>
        <time>2020-06-30T09:59:22Z</time>
      </trkpt>
      <trkpt lat="44.0766" lon="7.11275">
        <ele>771.714</ele>
        <time>2020-06-30T09:59:38Z</time>
      </trkpt>
      <trkpt lat="44.0766" lon="7.11276">
        <ele>771.703</ele>
        <time>2020-06-30T09:59:54Z</time>
      </trkpt>
      <trkpt lat="44.07658" lon="7.11283">
        <ele>770.218</ele>
        <time>2020-06-30T10:00:10Z</time>
      </trkpt>
      <trkpt lat="44.07644" lon="7.11293">
        <ele>763.77</ele>
        <time>2020-06-30T10:00:25Z</time>
      </trkpt>
      <trkpt lat="44.07622" lon="7.11287">
        <ele>760.597</ele>
        <time>2020-06-30T10:00:41Z</time>
      </trkpt>
      <trkpt lat="44.07599" lon="7.11287">
        <ele>760.196</ele>
        <time>2020-06-30T10:00:56Z</time>
      </trkpt>
      <trkpt lat="44.07586" lon="7.11294">
        <ele>757.515</ele>
        <time>2020-06-30T10:01:11Z</time>
      </trkpt>
      <trkpt lat="44.07572" lon="7.11303">
        <ele>752.452</ele>
        <time>2020-06-30T10:01:27Z</time>
      </trkpt>
      <trkpt lat="44.0756" lon="7.11316">
        <ele>747.383</ele>
        <time>2020-06-30T10:01:43Z</time>
      </trkpt>
      <trkpt lat="44.07567" lon="7.11344">
        <ele>741.283</ele>
        <time>2020-06-30T10:01:59Z</time>
      </trkpt>
      <trkpt lat="44.07559" lon="7.1135">
        <ele>738.363</ele>
        <time>2020-06-30T10:02:14Z</time>
      </trkpt>
      <trkpt lat="44.07554" lon="7.11329">
        <ele>738.447</ele>
        <time>2020-06-30T10:02:30Z</time>
      </trkpt>
      <trkpt lat="44.07557" lon="7.11313">
        <ele>739.991</ele>
        <time>2020-06-30T10:02:45Z</time>
      </trkpt>
      <trkpt lat="44.07561" lon="7.11296">
        <ele>740.161</ele>
        <time>2020-06-30T10:03:01Z</time>
      </trkpt>
      <trkpt lat="44.07562" lon="7.11283">
        <ele>739.755</ele>
        <time>2020-06-30T10:03:17Z</time>
      </trkpt>
      <trkpt lat="44.07565" lon="7.11256">
        <ele>738.675</ele>
        <time>2020-06-30T10:03:33Z</time>
      </trkpt>
      <trkpt lat="44.07574" lon="7.11234">
        <ele>731.66</ele>
        <time>2020-06-30T10:03:49Z</time>
      </trkpt>
      <trkpt lat="44.07589" lon="7.11211">
        <ele>726.792</ele>
        <time>2020-06-30T10:04:05Z</time>
      </trkpt>
      <trkpt lat="44.07597" lon="7.11191">
        <ele>723.029</ele>
        <time>2020-06-30T10:04:21Z</time>
      </trkpt>
      <trkpt lat="44.07605" lon="7.11169">
        <ele>720.445</ele>
        <time>2020-06-30T10:04:37Z</time>
      </trkpt>
      <trkpt lat="44.07619" lon="7.11164">
        <ele>717.099</ele>
        <time>2020-06-30T10:04:53Z</time>
      </trkpt>
      <trkpt lat="44.07632" lon="7.11152">
        <ele>718.771</ele>
        <time>2020-06-30T10:05:08Z</time>
      </trkpt>
      <trkpt lat="44.0763" lon="7.11131">
        <ele>716.485</ele>
        <time>2020-06-30T10:05:24Z</time>
      </trkpt>
      <trkpt lat="44.07631" lon="7.11106">
        <ele>711.733</ele>
        <time>2020-06-30T10:05:39Z</time>
      </trkpt>
      <trkpt lat="44.07635" lon="7.11075">
        <ele>708.38</ele>
        <time>2020-06-30T10:05:55Z</time>
      </trkpt>
      <trkpt lat="44.07635" lon="7.11058">
        <ele>701.671</ele>
        <time>2020-06-30T10:06:10Z</time>
      </trkpt>
      <trkpt lat="44.07636" lon="7.11056">
        <ele>700.789</ele>
        <time>2020-06-30T10:06:26Z</time>
      </trkpt>
      <trkpt lat="44.07637" lon="7.11057">
        <ele>699.201</ele>
        <time>2020-06-30T10:06:41Z</time>
      </trkpt>
      <trkpt lat="44.07637" lon="7.11057">
        <ele>699.201</ele>
        <time>2020-06-30T10:06:57Z</time>
      </trkpt>
      <trkpt lat="44.07645" lon="7.11053">
        <ele>694.281</ele>
        <time>2020-06-30T10:07:13Z</time>
      </trkpt>
      <trkpt lat="44.07656" lon="7.11038">
        <ele>692.842</ele>
        <time>2020-06-30T10:07:28Z</time>
      </trkpt>
      <trkpt lat="44.0767" lon="7.11025">
        <ele>690.636</ele>
        <time>2020-06-30T10:07:43Z</time>
      </trkpt>
      <trkpt lat="44.07687" lon="7.11013">
        <ele>687.896</ele>
        <time>2020-06-30T10:07:59Z</time>
      </trkpt>
      <trkpt lat="44.07705" lon="7.10998">
        <ele>684.28</ele>
        <time>2020-06-30T10:08:15Z</time>
      </trkpt>
      <trkpt lat="44.07719" lon="7.10984">
        <ele>680.879</ele>
        <time>2020-06-30T10:08:30Z</time>
      </trkpt>
      <trkpt lat="44.07734" lon="7.10981">
        <ele>679.079</ele>
        <time>2020-06-30T10:08:46Z</time>
      </trkpt>
      <trkpt lat="44.07753" lon="7.10972">
        <ele>674.405</ele>
        <time>2020-06-30T10:09:02Z</time>
      </trkpt>
      <trkpt lat="44.0777" lon="7.10964">
        <ele>669.796</ele>
        <time>2020-06-30T10:09:17Z</time>
      </trkpt>
      <trkpt lat="44.07786" lon="7.10952">
        <ele>668.686</ele>
        <time>2020-06-30T10:09:32Z</time>
      </trkpt>
      <trkpt lat="44.07807" lon="7.10956">
        <ele>664.722</ele>
        <time>2020-06-30T10:09:47Z</time>
      </trkpt>
      <trkpt lat="44.07821" lon="7.10938">
        <ele>662.849</ele>
        <time>2020-06-30T10:10:03Z</time>
      </trkpt>
      <trkpt lat="44.07838" lon="7.10921">
        <ele>661.711</ele>
        <time>2020-06-30T10:10:19Z</time>
      </trkpt>
      <trkpt lat="44.07853" lon="7.109">
        <ele>661.073</ele>
        <time>2020-06-30T10:10:35Z</time>
      </trkpt>
      <trkpt lat="44.07866" lon="7.10877">
        <ele>662.551</ele>
        <time>2020-06-30T10:10:51Z</time>
      </trkpt>
      <trkpt lat="44.07883" lon="7.10865">
        <ele>661.129</ele>
        <time>2020-06-30T10:11:06Z</time>
      </trkpt>
      <trkpt lat="44.07893" lon="7.10865">
        <ele>660.709</ele>
        <time>2020-06-30T10:11:21Z</time>
      </trkpt>
      <trkpt lat="44.07905" lon="7.10865">
        <ele>655.886</ele>
        <time>2020-06-30T10:11:37Z</time>
      </trkpt>
      <trkpt lat="44.0792" lon="7.10857">
        <ele>657.07</ele>
        <time>2020-06-30T10:11:53Z</time>
      </trkpt>
      <trkpt lat="44.07923" lon="7.10835">
        <ele>657.896</ele>
        <time>2020-06-30T10:12:08Z</time>
      </trkpt>
      <trkpt lat="44.07931" lon="7.10813">
        <ele>660.257</ele>
        <time>2020-06-30T10:12:23Z</time>
      </trkpt>
      <trkpt lat="44.07937" lon="7.10786">
        <ele>660.224</ele>
        <time>2020-06-30T10:12:39Z</time>
      </trkpt>
      <trkpt lat="44.07951" lon="7.1076">
        <ele>660.721</ele>
        <time>2020-06-30T10:12:55Z</time>
      </trkpt>
      <trkpt lat="44.07961" lon="7.10737">
        <ele>659.351</ele>
        <time>2020-06-30T10:13:11Z</time>
      </trkpt>
      <trkpt lat="44.07967" lon="7.10728">
        <ele>660.162</ele>
        <time>2020-06-30T10:13:27Z</time>
      </trkpt>
      <trkpt lat="44.07966" lon="7.10747">
        <ele>658.384</ele>
        <time>2020-06-30T10:13:42Z</time>
      </trkpt>
      <trkpt lat="44.07961" lon="7.10769">
        <ele>656.223</ele>
        <time>2020-06-30T10:13:58Z</time>
      </trkpt>
      <trkpt lat="44.0797" lon="7.10789">
        <ele>656.929</ele>
        <time>2020-06-30T10:14:14Z</time>
      </trkpt>
      <trkpt lat="44.07963" lon="7.1078">
        <ele>658.217</ele>
        <time>2020-06-30T10:14:30Z</time>
      </trkpt>
      <trkpt lat="44.07969" lon="7.10769">
        <ele>661.811</ele>
        <time>2020-06-30T10:14:46Z</time>
      </trkpt>
      <trkpt lat="44.07982" lon="7.10761">
        <ele>661.279</ele>
        <time>2020-06-30T10:15:02Z</time>
      </trkpt>
      <trkpt lat="44.0799" lon="7.10749">
        <ele>658.012</ele>
        <time>2020-06-30T10:15:18Z</time>
      </trkpt>
      <trkpt lat="44.07993" lon="7.10741">
        <ele>654</ele>
        <time>2020-06-30T10:15:34Z</time>
      </trkpt>
      <trkpt lat="44.07995" lon="7.1074">
        <ele>654.166</ele>
        <time>2020-06-30T10:15:49Z</time>
      </trkpt>
      <trkpt lat="44.07998" lon="7.10738">
        <ele>654.263</ele>
        <time>2020-06-30T10:16:05Z</time>
      </trkpt>
      <trkpt lat="44.08" lon="7.10736">
        <ele>653.054</ele>
        <time>2020-06-30T10:16:21Z</time>
      </trkpt>
      <trkpt lat="44.08" lon="7.10736">
        <ele>653.054</ele>
        <time>2020-06-30T10:16:37Z</time>
      </trkpt>
      <trkpt lat="44.08001" lon="7.10735">
        <ele>652.789</ele>
        <time>2020-06-30T10:16:52Z</time>
      </trkpt>
      <trkpt lat="44.08023" lon="7.1073">
        <ele>641.872</ele>
        <time>2020-06-30T10:17:08Z</time>
      </trkpt>
      <trkpt lat="44.08023" lon="7.10731">
        <ele>639.273</ele>
        <time>2020-06-30T10:17:23Z</time>
      </trkpt>
      <trkpt lat="44.08023" lon="7.10731">
        <ele>639.273</ele>
        <time>2020-06-30T10:17:39Z</time>
      </trkpt>
      <trkpt lat="44.08023" lon="7.10731">
        <ele>639.273</ele>
        <time>2020-06-30T10:17:54Z</time>
      </trkpt>
      <trkpt lat="44.08023" lon="7.10731">
        <ele>639.273</ele>
        <time>2020-06-30T10:18:10Z</time>
      </trkpt>
      <trkpt lat="44.0802" lon="7.10731">
        <ele>635.717</ele>
        <time>2020-06-30T10:18:25Z</time>
      </trkpt>
      <trkpt lat="44.08018" lon="7.10726">
        <ele>636.072</ele>
        <time>2020-06-30T10:18:42Z</time>
      </trkpt>
      <trkpt lat="44.08018" lon="7.10728">
        <ele>633.952</ele>
        <time>2020-06-30T10:18:57Z</time>
      </trkpt>
      <trkpt lat="44.08029" lon="7.10734">
        <ele>629.849</ele>
        <time>2020-06-30T10:19:12Z</time>
      </trkpt>
      <trkpt lat="44.08029" lon="7.10731">
        <ele>621.774</ele>
        <time>2020-06-30T10:19:27Z</time>
      </trkpt>
      <trkpt lat="44.08036" lon="7.10731">
        <ele>616.894</ele>
        <time>2020-06-30T10:19:43Z</time>
      </trkpt>
      <trkpt lat="44.08039" lon="7.1073">
        <ele>608.724</ele>
        <time>2020-06-30T10:19:59Z</time>
      </trkpt>
      <trkpt lat="44.08043" lon="7.10736">
        <ele>606.058</ele>
        <time>2020-06-30T10:20:15Z</time>
      </trkpt>
      <trkpt lat="44.08043" lon="7.1074">
        <ele>606.948</ele>
        <time>2020-06-30T10:20:30Z</time>
      </trkpt>
      <trkpt lat="44.08048" lon="7.10756">
        <ele>608.418</ele>
        <time>2020-06-30T10:20:46Z</time>
      </trkpt>
      <trkpt lat="44.08047" lon="7.10755">
        <ele>606.644</ele>
        <time>2020-06-30T10:21:01Z</time>
      </trkpt>
      <trkpt lat="44.08048" lon="7.10756">
        <ele>605.857</ele>
        <time>2020-06-30T10:21:16Z</time>
      </trkpt>
      <trkpt lat="44.0805" lon="7.10755">
        <ele>602.874</ele>
        <time>2020-06-30T10:21:32Z</time>
      </trkpt>
      <trkpt lat="44.0805" lon="7.10755">
        <ele>602.874</ele>
        <time>2020-06-30T10:21:47Z</time>
      </trkpt>
      <trkpt lat="44.08074" lon="7.10748">
        <ele>590.161</ele>
        <time>2020-06-30T10:22:03Z</time>
      </trkpt>
      <trkpt lat="44.08082" lon="7.10742">
        <ele>581.153</ele>
        <time>2020-06-30T10:22:18Z</time>
      </trkpt>
      <trkpt lat="44.08094" lon="7.10739">
        <ele>557.442</ele>
        <time>2020-06-30T10:22:34Z</time>
      </trkpt>
      <trkpt lat="44.08097" lon="7.10739">
        <ele>554.986</ele>
        <time>2020-06-30T10:22:50Z</time>
      </trkpt>
      <trkpt lat="44.08087" lon="7.10731">
        <ele>554.219</ele>
        <time>2020-06-30T10:23:05Z</time>
      </trkpt>
      <trkpt lat="44.08094" lon="7.10714">
        <ele>550.012</ele>
        <time>2020-06-30T10:23:21Z</time>
      </trkpt>
      <trkpt lat="44.08109" lon="7.10718">
        <ele>541.689</ele>
        <time>2020-06-30T10:23:36Z</time>
      </trkpt>
      <trkpt lat="44.08129" lon="7.10722">
        <ele>527.496</ele>
        <time>2020-06-30T10:23:52Z</time>
      </trkpt>
      <trkpt lat="44.0815" lon="7.10724">
        <ele>513.057</ele>
        <time>2020-06-30T10:24:07Z</time>
      </trkpt>
      <trkpt lat="44.08171" lon="7.10717">
        <ele>505.252</ele>
        <time>2020-06-30T10:24:23Z</time>
      </trkpt>
      <trkpt lat="44.08186" lon="7.1071">
        <ele>499.905</ele>
        <time>2020-06-30T10:24:38Z</time>
      </trkpt>
      <trkpt lat="44.08201" lon="7.10689">
        <ele>505.333</ele>
        <time>2020-06-30T10:24:54Z</time>
      </trkpt>
      <trkpt lat="44.08211" lon="7.10674">
        <ele>509.443</ele>
        <time>2020-06-30T10:25:09Z</time>
      </trkpt>
      <trkpt lat="44.08228" lon="7.10665">
        <ele>512.763</ele>
        <time>2020-06-30T10:25:25Z</time>
      </trkpt>
      <trkpt lat="44.08246" lon="7.1066">
        <ele>514.635</ele>
        <time>2020-06-30T10:25:41Z</time>
      </trkpt>
      <trkpt lat="44.08263" lon="7.10653">
        <ele>520.585</ele>
        <time>2020-06-30T10:25:57Z</time>
      </trkpt>
      <trkpt lat="44.08278" lon="7.10642">
        <ele>517.515</ele>
        <time>2020-06-30T10:26:12Z</time>
      </trkpt>
      <trkpt lat="44.08292" lon="7.10637">
        <ele>508.511</ele>
        <time>2020-06-30T10:26:27Z</time>
      </trkpt>
      <trkpt lat="44.08297" lon="7.10633">
        <ele>509.679</ele>
        <time>2020-06-30T10:26:43Z</time>
      </trkpt>
      <trkpt lat="44.08297" lon="7.10633">
        <ele>509.679</ele>
        <time>2020-06-30T10:26:59Z</time>
      </trkpt>
      <trkpt lat="44.08297" lon="7.10633">
        <ele>509.679</ele>
        <time>2020-06-30T10:27:15Z</time>
      </trkpt>
      <trkpt lat="44.08297" lon="7.10633">
        <ele>509.679</ele>
        <time>2020-06-30T10:27:30Z</time>
      </trkpt>
      <trkpt lat="44.083" lon="7.10627">
        <ele>511.038</ele>
        <time>2020-06-30T10:27:45Z</time>
      </trkpt>
      <trkpt lat="44.083" lon="7.10627">
        <ele>511.038</ele>
        <time>2020-06-30T10:28:01Z</time>
      </trkpt>
      <trkpt lat="44.083" lon="7.10627">
        <ele>511.038</ele>
        <time>2020-06-30T10:28:16Z</time>
      </trkpt>
      <trkpt lat="44.083" lon="7.10627">
        <ele>511.038</ele>
        <time>2020-06-30T10:28:31Z</time>
      </trkpt>
      <trkpt lat="44.083" lon="7.10627">
        <ele>511.038</ele>
        <time>2020-06-30T10:28:47Z</time>
      </trkpt>
      <trkpt lat="44.083" lon="7.10627">
        <ele>511.038</ele>
        <time>2020-06-30T10:29:03Z</time>
      </trkpt>
      <trkpt lat="44.083" lon="7.10627">
        <ele>511.038</ele>
        <time>2020-06-30T10:29:18Z</time>
      </trkpt>
      <trkpt lat="44.083" lon="7.10627">
        <ele>511.038</ele>
        <time>2020-06-30T10:29:34Z</time>
      </trkpt>
      <trkpt lat="44.08299" lon="7.10596">
        <ele>522.464</ele>
        <time>2020-06-30T10:29:49Z</time>
      </trkpt>
      <trkpt lat="44.08305" lon="7.10579">
        <ele>533.991</ele>
        <time>2020-06-30T10:30:04Z</time>
      </trkpt>
      <trkpt lat="44.08329" lon="7.10559">
        <ele>541.135</ele>
        <time>2020-06-30T10:30:19Z</time>
      </trkpt>
      <trkpt lat="44.0835" lon="7.10547">
        <ele>540.662</ele>
        <time>2020-06-30T10:30:35Z</time>
      </trkpt>
      <trkpt lat="44.08366" lon="7.10554">
        <ele>542.603</ele>
        <time>2020-06-30T10:30:51Z</time>
      </trkpt>
      <trkpt lat="44.08363" lon="7.10543">
        <ele>545.594</ele>
        <time>2020-06-30T10:31:07Z</time>
      </trkpt>
      <trkpt lat="44.08362" lon="7.1052">
        <ele>538.666</ele>
        <time>2020-06-30T10:31:22Z</time>
      </trkpt>
      <trkpt lat="44.08369" lon="7.10519">
        <ele>537.952</ele>
        <time>2020-06-30T10:31:37Z</time>
      </trkpt>
      <trkpt lat="44.08366" lon="7.10505">
        <ele>544.479</ele>
        <time>2020-06-30T10:31:53Z</time>
      </trkpt>
      <trkpt lat="44.08366" lon="7.10505">
        <ele>544.479</ele>
        <time>2020-06-30T10:32:08Z</time>
      </trkpt>
      <trkpt lat="44.08366" lon="7.10505">
        <ele>544.479</ele>
        <time>2020-06-30T10:32:24Z</time>
      </trkpt>
      <trkpt lat="44.08366" lon="7.10506">
        <ele>547.282</ele>
        <time>2020-06-30T10:32:40Z</time>
      </trkpt>
      <trkpt lat="44.08365" lon="7.10501">
        <ele>548.279</ele>
        <time>2020-06-30T10:32:56Z</time>
      </trkpt>
      <trkpt lat="44.08363" lon="7.10494">
        <ele>549.811</ele>
        <time>2020-06-30T10:33:12Z</time>
      </trkpt>
      <trkpt lat="44.08363" lon="7.10496">
        <ele>549.938</ele>
        <time>2020-06-30T10:33:28Z</time>
      </trkpt>
      <trkpt lat="44.08363" lon="7.10496">
        <ele>549.938</ele>
        <time>2020-06-30T10:33:43Z</time>
      </trkpt>
      <trkpt lat="44.08363" lon="7.10496">
        <ele>549.938</ele>
        <time>2020-06-30T10:33:59Z</time>
      </trkpt>
      <trkpt lat="44.08363" lon="7.10496">
        <ele>549.938</ele>
        <time>2020-06-30T10:34:15Z</time>
      </trkpt>
      <trkpt lat="44.08363" lon="7.10496">
        <ele>549.938</ele>
        <time>2020-06-30T10:34:31Z</time>
      </trkpt>
      <trkpt lat="44.08363" lon="7.10496">
        <ele>549.938</ele>
        <time>2020-06-30T10:34:47Z</time>
      </trkpt>
      <trkpt lat="44.08363" lon="7.10496">
        <ele>549.938</ele>
        <time>2020-06-30T10:35:02Z</time>
      </trkpt>
      <trkpt lat="44.08363" lon="7.10496">
        <ele>549.938</ele>
        <time>2020-06-30T10:35:18Z</time>
      </trkpt>
      <trkpt lat="44.08363" lon="7.10496">
        <ele>549.938</ele>
        <time>2020-06-30T10:35:34Z</time>
      </trkpt>
      <trkpt lat="44.08363" lon="7.10496">
        <ele>549.938</ele>
        <time>2020-06-30T10:35:49Z</time>
      </trkpt>
      <trkpt lat="44.08363" lon="7.10496">
        <ele>549.938</ele>
        <time>2020-06-30T10:36:04Z</time>
      </trkpt>
      <trkpt lat="44.08363" lon="7.10496">
        <ele>549.938</ele>
        <time>2020-06-30T10:36:20Z</time>
      </trkpt>
      <trkpt lat="44.08368" lon="7.105">
        <ele>547.268</ele>
        <time>2020-06-30T10:36:35Z</time>
      </trkpt>
      <trkpt lat="44.08382" lon="7.10515">
        <ele>543.33</ele>
        <time>2020-06-30T10:36:51Z</time>
      </trkpt>
      <trkpt lat="44.08366" lon="7.1053">
        <ele>542.459</ele>
        <time>2020-06-30T10:37:07Z</time>
      </trkpt>
      <trkpt lat="44.08355" lon="7.10533">
        <ele>544.494</ele>
        <time>2020-06-30T10:37:22Z</time>
      </trkpt>
      <trkpt lat="44.08347" lon="7.10548">
        <ele>549.314</ele>
        <time>2020-06-30T10:37:37Z</time>
      </trkpt>
      <trkpt lat="44.08321" lon="7.10556">
        <ele>552.902</ele>
        <time>2020-06-30T10:37:53Z</time>
      </trkpt>
      <trkpt lat="44.08299" lon="7.10577">
        <ele>543.376</ele>
        <time>2020-06-30T10:38:08Z</time>
      </trkpt>
      <trkpt lat="44.08281" lon="7.10594">
        <ele>541.5</ele>
        <time>2020-06-30T10:38:24Z</time>
      </trkpt>
      <trkpt lat="44.08263" lon="7.10597">
        <ele>544.81</ele>
        <time>2020-06-30T10:38:40Z</time>
      </trkpt>
      <trkpt lat="44.08244" lon="7.1061">
        <ele>547.205</ele>
        <time>2020-06-30T10:38:56Z</time>
      </trkpt>
      <trkpt lat="44.08231" lon="7.10616">
        <ele>553.685</ele>
        <time>2020-06-30T10:39:12Z</time>
      </trkpt>
      <trkpt lat="44.08215" lon="7.10627">
        <ele>556.12</ele>
        <time>2020-06-30T10:39:27Z</time>
      </trkpt>
      <trkpt lat="44.08203" lon="7.10648">
        <ele>549.497</ele>
        <time>2020-06-30T10:39:43Z</time>
      </trkpt>
      <trkpt lat="44.082" lon="7.1065">
        <ele>551.824</ele>
        <time>2020-06-30T10:39:58Z</time>
      </trkpt>
      <trkpt lat="44.08199" lon="7.10653">
        <ele>551.875</ele>
        <time>2020-06-30T10:40:14Z</time>
      </trkpt>
      <trkpt lat="44.08203" lon="7.10675">
        <ele>550.363</ele>
        <time>2020-06-30T10:41:44Z</time>
      </trkpt>
      <trkpt lat="44.08197" lon="7.1067">
        <ele>552.461</ele>
        <time>2020-06-30T10:42:00Z</time>
      </trkpt>
      <trkpt lat="44.08183" lon="7.10547">
        <ele>690.406</ele>
        <time>2020-06-30T10:42:15Z</time>
      </trkpt>
      <trkpt lat="44.08186" lon="7.10528">
        <ele>714.495</ele>
        <time>2020-06-30T10:42:30Z</time>
      </trkpt>
      <trkpt lat="44.0819" lon="7.10531">
        <ele>711.114</ele>
        <time>2020-06-30T10:42:46Z</time>
      </trkpt>
      <trkpt lat="44.08194" lon="7.10537">
        <ele>706.22</ele>
        <time>2020-06-30T10:43:02Z</time>
      </trkpt>
      <trkpt lat="44.082" lon="7.10571">
        <ele>670.721</ele>
        <time>2020-06-30T10:43:18Z</time>
      </trkpt>
      <trkpt lat="44.08206" lon="7.10592">
        <ele>656.438</ele>
        <time>2020-06-30T10:43:33Z</time>
      </trkpt>
      <trkpt lat="44.08206" lon="7.10592">
        <ele>656.438</ele>
        <time>2020-06-30T10:43:48Z</time>
      </trkpt>
      <trkpt lat="44.08206" lon="7.10592">
        <ele>656.438</ele>
        <time>2020-06-30T10:44:04Z</time>
      </trkpt>
      <trkpt lat="44.08206" lon="7.10592">
        <ele>656.438</ele>
        <time>2020-06-30T10:44:19Z</time>
      </trkpt>
      <trkpt lat="44.08206" lon="7.10592">
        <ele>656.438</ele>
        <time>2020-06-30T10:44:35Z</time>
      </trkpt>
      <trkpt lat="44.08206" lon="7.10592">
        <ele>656.438</ele>
        <time>2020-06-30T10:44:51Z</time>
      </trkpt>
      <trkpt lat="44.08211" lon="7.106">
        <ele>645.167</ele>
        <time>2020-06-30T10:45:06Z</time>
      </trkpt>
      <trkpt lat="44.08211" lon="7.106">
        <ele>645.167</ele>
        <time>2020-06-30T10:45:22Z</time>
      </trkpt>
      <trkpt lat="44.08211" lon="7.106">
        <ele>645.167</ele>
        <time>2020-06-30T10:45:38Z</time>
      </trkpt>
      <trkpt lat="44.08211" lon="7.106">
        <ele>645.167</ele>
        <time>2020-06-30T10:45:54Z</time>
      </trkpt>
      <trkpt lat="44.08211" lon="7.106">
        <ele>644.921</ele>
        <time>2020-06-30T10:46:10Z</time>
      </trkpt>
      <trkpt lat="44.08213" lon="7.10602">
        <ele>643.379</ele>
        <time>2020-06-30T10:46:26Z</time>
      </trkpt>
      <trkpt lat="44.08213" lon="7.10602">
        <ele>643.379</ele>
        <time>2020-06-30T10:46:41Z</time>
      </trkpt>
      <trkpt lat="44.08207" lon="7.10595">
        <ele>648.371</ele>
        <time>2020-06-30T10:46:57Z</time>
      </trkpt>
      <trkpt lat="44.08199" lon="7.10587">
        <ele>653.812</ele>
        <time>2020-06-30T10:47:13Z</time>
      </trkpt>
      <trkpt lat="44.08193" lon="7.10581">
        <ele>654.961</ele>
        <time>2020-06-30T10:47:28Z</time>
      </trkpt>
      <trkpt lat="44.08193" lon="7.10584">
        <ele>653.481</ele>
        <time>2020-06-30T10:47:44Z</time>
      </trkpt>
      <trkpt lat="44.08193" lon="7.10584">
        <ele>653.481</ele>
        <time>2020-06-30T10:47:59Z</time>
      </trkpt>
      <trkpt lat="44.08188" lon="7.10576">
        <ele>660.112</ele>
        <time>2020-06-30T10:48:15Z</time>
      </trkpt>
      <trkpt lat="44.08188" lon="7.10572">
        <ele>666.787</ele>
        <time>2020-06-30T10:48:30Z</time>
      </trkpt>
      <trkpt lat="44.08183" lon="7.10554">
        <ele>682.891</ele>
        <time>2020-06-30T10:48:46Z</time>
      </trkpt>
      <trkpt lat="44.08168" lon="7.10523">
        <ele>687.354</ele>
        <time>2020-06-30T10:49:15Z</time>
      </trkpt>
      <trkpt lat="44.08176" lon="7.10554">
        <ele>675.677</ele>
        <time>2020-06-30T10:49:31Z</time>
      </trkpt>
      <trkpt lat="44.08178" lon="7.10563">
        <ele>673.331</ele>
        <time>2020-06-30T10:49:47Z</time>
      </trkpt>
      <trkpt lat="44.08177" lon="7.1056">
        <ele>679.759</ele>
        <time>2020-06-30T10:50:02Z</time>
      </trkpt>
      <trkpt lat="44.08171" lon="7.1055">
        <ele>681.789</ele>
        <time>2020-06-30T10:50:18Z</time>
      </trkpt>
      <trkpt lat="44.08171" lon="7.1055">
        <ele>681.789</ele>
        <time>2020-06-30T10:50:34Z</time>
      </trkpt>
      <trkpt lat="44.08171" lon="7.1055">
        <ele>681.789</ele>
        <time>2020-06-30T10:50:49Z</time>
      </trkpt>
      <trkpt lat="44.08169" lon="7.10547">
        <ele>684.75</ele>
        <time>2020-06-30T10:51:05Z</time>
      </trkpt>
      <trkpt lat="44.0817" lon="7.10549">
        <ele>683.965</ele>
        <time>2020-06-30T10:51:20Z</time>
      </trkpt>
      <trkpt lat="44.0817" lon="7.10549">
        <ele>683.965</ele>
        <time>2020-06-30T10:51:36Z</time>
      </trkpt>
      <trkpt lat="44.0817" lon="7.10549">
        <ele>683.965</ele>
        <time>2020-06-30T10:51:51Z</time>
      </trkpt>
      <trkpt lat="44.0817" lon="7.10549">
        <ele>683.965</ele>
        <time>2020-06-30T10:52:07Z</time>
      </trkpt>
      <trkpt lat="44.08168" lon="7.10541">
        <ele>692.386</ele>
        <time>2020-06-30T10:52:22Z</time>
      </trkpt>
      <trkpt lat="44.08168" lon="7.10541">
        <ele>691.768</ele>
        <time>2020-06-30T10:52:38Z</time>
      </trkpt>
      <trkpt lat="44.08163" lon="7.10517">
        <ele>710.392</ele>
        <time>2020-06-30T10:52:54Z</time>
      </trkpt>
      <trkpt lat="44.08165" lon="7.10533">
        <ele>696.972</ele>
        <time>2020-06-30T10:53:09Z</time>
      </trkpt>
      <trkpt lat="44.08161" lon="7.10523">
        <ele>707.493</ele>
        <time>2020-06-30T10:53:25Z</time>
      </trkpt>
      <trkpt lat="44.08162" lon="7.10535">
        <ele>691.986</ele>
        <time>2020-06-30T10:53:40Z</time>
      </trkpt>
      <trkpt lat="44.08157" lon="7.1052">
        <ele>708.93</ele>
        <time>2020-06-30T10:53:55Z</time>
      </trkpt>
      <trkpt lat="44.08151" lon="7.10519">
        <ele>705.929</ele>
        <time>2020-06-30T10:54:11Z</time>
      </trkpt>
      <trkpt lat="44.08154" lon="7.10515">
        <ele>710.967</ele>
        <time>2020-06-30T10:54:26Z</time>
      </trkpt>
      <trkpt lat="44.08154" lon="7.10515">
        <ele>710.967</ele>
        <time>2020-06-30T10:54:42Z</time>
      </trkpt>
      <trkpt lat="44.08164" lon="7.1053">
        <ele>707.251</ele>
        <time>2020-06-30T10:54:58Z</time>
      </trkpt>
      <trkpt lat="44.08164" lon="7.10529">
        <ele>705.779</ele>
        <time>2020-06-30T10:55:14Z</time>
      </trkpt>
      <trkpt lat="44.0816" lon="7.10531">
        <ele>695.512</ele>
        <time>2020-06-30T10:55:30Z</time>
      </trkpt>
      <trkpt lat="44.08159" lon="7.10528">
        <ele>690.705</ele>
        <time>2020-06-30T10:55:45Z</time>
      </trkpt>
      <trkpt lat="44.08163" lon="7.10527">
        <ele>701.941</ele>
        <time>2020-06-30T10:56:00Z</time>
      </trkpt>
      <trkpt lat="44.08162" lon="7.10525">
        <ele>702.782</ele>
        <time>2020-06-30T10:56:16Z</time>
      </trkpt>
      <trkpt lat="44.08162" lon="7.10525">
        <ele>702.782</ele>
        <time>2020-06-30T10:56:31Z</time>
      </trkpt>
      <trkpt lat="44.0816" lon="7.10523">
        <ele>700.144</ele>
        <time>2020-06-30T10:56:47Z</time>
      </trkpt>
      <trkpt lat="44.0816" lon="7.10523">
        <ele>700.144</ele>
        <time>2020-06-30T10:57:02Z</time>
      </trkpt>
      <trkpt lat="44.08158" lon="7.10526">
        <ele>700.368</ele>
        <time>2020-06-30T10:57:18Z</time>
      </trkpt>
      <trkpt lat="44.08162" lon="7.10539">
        <ele>691.031</ele>
        <time>2020-06-30T10:57:41Z</time>
      </trkpt>
      <trkpt lat="44.08163" lon="7.10554">
        <ele>670.539</ele>
        <time>2020-06-30T10:57:56Z</time>
      </trkpt>
      <trkpt lat="44.08159" lon="7.10547">
        <ele>673.724</ele>
        <time>2020-06-30T10:58:12Z</time>
      </trkpt>
      <trkpt lat="44.08159" lon="7.10547">
        <ele>673.724</ele>
        <time>2020-06-30T10:58:27Z</time>
      </trkpt>
      <trkpt lat="44.08158" lon="7.10547">
        <ele>673.897</ele>
        <time>2020-06-30T10:58:43Z</time>
      </trkpt>
      <trkpt lat="44.0815" lon="7.10544">
        <ele>676.449</ele>
        <time>2020-06-30T10:58:59Z</time>
      </trkpt>
      <trkpt lat="44.08153" lon="7.10539">
        <ele>676.348</ele>
        <time>2020-06-30T10:59:14Z</time>
      </trkpt>
      <trkpt lat="44.08153" lon="7.10539">
        <ele>676.348</ele>
        <time>2020-06-30T10:59:30Z</time>
      </trkpt>
      <trkpt lat="44.08153" lon="7.10539">
        <ele>676.348</ele>
        <time>2020-06-30T10:59:45Z</time>
      </trkpt>
      <trkpt lat="44.08153" lon="7.10539">
        <ele>676.348</ele>
        <time>2020-06-30T11:00:01Z</time>
      </trkpt>
      <trkpt lat="44.08153" lon="7.10539">
        <ele>676.348</ele>
        <time>2020-06-30T11:00:17Z</time>
      </trkpt>
      <trkpt lat="44.08153" lon="7.10539">
        <ele>676.348</ele>
        <time>2020-06-30T11:00:32Z</time>
      </trkpt>
      <trkpt lat="44.08153" lon="7.10539">
        <ele>676.348</ele>
        <time>2020-06-30T11:00:48Z</time>
      </trkpt>
      <trkpt lat="44.08152" lon="7.10537">
        <ele>676.46</ele>
        <time>2020-06-30T11:01:04Z</time>
      </trkpt>
      <trkpt lat="44.08152" lon="7.10537">
        <ele>676.46</ele>
        <time>2020-06-30T11:01:19Z</time>
      </trkpt>
      <trkpt lat="44.08152" lon="7.10537">
        <ele>676.46</ele>
        <time>2020-06-30T11:01:35Z</time>
      </trkpt>
      <trkpt lat="44.08152" lon="7.10537">
        <ele>676.46</ele>
        <time>2020-06-30T11:01:50Z</time>
      </trkpt>
      <trkpt lat="44.08152" lon="7.10537">
        <ele>676.46</ele>
        <time>2020-06-30T11:02:06Z</time>
      </trkpt>
      <trkpt lat="44.08152" lon="7.10537">
        <ele>676.46</ele>
        <time>2020-06-30T11:02:22Z</time>
      </trkpt>
      <trkpt lat="44.08152" lon="7.10537">
        <ele>676.46</ele>
        <time>2020-06-30T11:02:38Z</time>
      </trkpt>
      <trkpt lat="44.08152" lon="7.10537">
        <ele>676.46</ele>
        <time>2020-06-30T11:02:53Z</time>
      </trkpt>
      <trkpt lat="44.08152" lon="7.10537">
        <ele>676.46</ele>
        <time>2020-06-30T11:03:08Z</time>
      </trkpt>
      <trkpt lat="44.08152" lon="7.10539">
        <ele>674.011</ele>
        <time>2020-06-30T11:03:24Z</time>
      </trkpt>
      <trkpt lat="44.08151" lon="7.10542">
        <ele>672.255</ele>
        <time>2020-06-30T11:03:39Z</time>
      </trkpt>
      <trkpt lat="44.08155" lon="7.10547">
        <ele>668.512</ele>
        <time>2020-06-30T11:03:55Z</time>
      </trkpt>
      <trkpt lat="44.08156" lon="7.10547">
        <ele>667.4</ele>
        <time>2020-06-30T11:04:10Z</time>
      </trkpt>
      <trkpt lat="44.08155" lon="7.10548">
        <ele>665.206</ele>
        <time>2020-06-30T11:04:26Z</time>
      </trkpt>
      <trkpt lat="44.08152" lon="7.10554">
        <ele>657.245</ele>
        <time>2020-06-30T11:04:42Z</time>
      </trkpt>
      <trkpt lat="44.08152" lon="7.10554">
        <ele>653.725</ele>
        <time>2020-06-30T11:04:57Z</time>
      </trkpt>
      <trkpt lat="44.08155" lon="7.10561">
        <ele>652.243</ele>
        <time>2020-06-30T11:05:13Z</time>
      </trkpt>
      <trkpt lat="44.08155" lon="7.10561">
        <ele>652.243</ele>
        <time>2020-06-30T11:05:28Z</time>
      </trkpt>
      <trkpt lat="44.08155" lon="7.10561">
        <ele>652.243</ele>
        <time>2020-06-30T11:05:44Z</time>
      </trkpt>
      <trkpt lat="44.08155" lon="7.10561">
        <ele>652.243</ele>
        <time>2020-06-30T11:05:59Z</time>
      </trkpt>
      <trkpt lat="44.08155" lon="7.10561">
        <ele>652.243</ele>
        <time>2020-06-30T11:06:15Z</time>
      </trkpt>
      <trkpt lat="44.08155" lon="7.10561">
        <ele>652.243</ele>
        <time>2020-06-30T11:06:31Z</time>
      </trkpt>
      <trkpt lat="44.08155" lon="7.10561">
        <ele>652.243</ele>
        <time>2020-06-30T11:06:47Z</time>
      </trkpt>
      <trkpt lat="44.08155" lon="7.10561">
        <ele>652.243</ele>
        <time>2020-06-30T11:07:03Z</time>
      </trkpt>
      <trkpt lat="44.08155" lon="7.10561">
        <ele>652.243</ele>
        <time>2020-06-30T11:07:19Z</time>
      </trkpt>
      <trkpt lat="44.08155" lon="7.10561">
        <ele>652.243</ele>
        <time>2020-06-30T11:07:34Z</time>
      </trkpt>
      <trkpt lat="44.08155" lon="7.10561">
        <ele>652.243</ele>
        <time>2020-06-30T11:07:49Z</time>
      </trkpt>
      <trkpt lat="44.08155" lon="7.10561">
        <ele>652.243</ele>
        <time>2020-06-30T11:08:05Z</time>
      </trkpt>
      <trkpt lat="44.08151" lon="7.1056">
        <ele>650.928</ele>
        <time>2020-06-30T11:08:21Z</time>
      </trkpt>
      <trkpt lat="44.08151" lon="7.1056">
        <ele>650.928</ele>
        <time>2020-06-30T11:08:37Z</time>
      </trkpt>
      <trkpt lat="44.08154" lon="7.10568">
        <ele>651.217</ele>
        <time>2020-06-30T11:08:52Z</time>
      </trkpt>
      <trkpt lat="44.08153" lon="7.10569">
        <ele>649.542</ele>
        <time>2020-06-30T11:09:08Z</time>
      </trkpt>
      <trkpt lat="44.08153" lon="7.10575">
        <ele>645.088</ele>
        <time>2020-06-30T11:09:23Z</time>
      </trkpt>
      <trkpt lat="44.08153" lon="7.10575">
        <ele>645.088</ele>
        <time>2020-06-30T11:09:39Z</time>
      </trkpt>
      <trkpt lat="44.08149" lon="7.10575">
        <ele>640.792</ele>
        <time>2020-06-30T11:09:54Z</time>
      </trkpt>
      <trkpt lat="44.08149" lon="7.10575">
        <ele>640.792</ele>
        <time>2020-06-30T11:10:09Z</time>
      </trkpt>
      <trkpt lat="44.08152" lon="7.10579">
        <ele>639.021</ele>
        <time>2020-06-30T11:10:25Z</time>
      </trkpt>
      <trkpt lat="44.08152" lon="7.10579">
        <ele>639.021</ele>
        <time>2020-06-30T11:10:40Z</time>
      </trkpt>
      <trkpt lat="44.08152" lon="7.10579">
        <ele>639.021</ele>
        <time>2020-06-30T11:10:56Z</time>
      </trkpt>
      <trkpt lat="44.08152" lon="7.10579">
        <ele>639.021</ele>
        <time>2020-06-30T11:11:11Z</time>
      </trkpt>
      <trkpt lat="44.08152" lon="7.10579">
        <ele>639.021</ele>
        <time>2020-06-30T11:11:27Z</time>
      </trkpt>
      <trkpt lat="44.08152" lon="7.10579">
        <ele>639.021</ele>
        <time>2020-06-30T11:11:43Z</time>
      </trkpt>
      <trkpt lat="44.08151" lon="7.10584">
        <ele>630.621</ele>
        <time>2020-06-30T11:11:59Z</time>
      </trkpt>
      <trkpt lat="44.08167" lon="7.10603">
        <ele>625.747</ele>
        <time>2020-06-30T11:12:14Z</time>
      </trkpt>
      <trkpt lat="44.08167" lon="7.10603">
        <ele>625.747</ele>
        <time>2020-06-30T11:12:30Z</time>
      </trkpt>
      <trkpt lat="44.0817" lon="7.10605">
        <ele>616.14</ele>
        <time>2020-06-30T11:12:46Z</time>
      </trkpt>
      <trkpt lat="44.08169" lon="7.10609">
        <ele>610.682</ele>
        <time>2020-06-30T11:13:02Z</time>
      </trkpt>
      <trkpt lat="44.08178" lon="7.10628">
        <ele>602.718</ele>
        <time>2020-06-30T11:13:17Z</time>
      </trkpt>
      <trkpt lat="44.08167" lon="7.10611">
        <ele>600.425</ele>
        <time>2020-06-30T11:13:32Z</time>
      </trkpt>
      <trkpt lat="44.0816" lon="7.10603">
        <ele>598.563</ele>
        <time>2020-06-30T11:13:47Z</time>
      </trkpt>
      <trkpt lat="44.0816" lon="7.10603">
        <ele>598.563</ele>
        <time>2020-06-30T11:14:03Z</time>
      </trkpt>
      <trkpt lat="44.0816" lon="7.10603">
        <ele>598.563</ele>
        <time>2020-06-30T11:14:19Z</time>
      </trkpt>
      <trkpt lat="44.0816" lon="7.10603">
        <ele>598.563</ele>
        <time>2020-06-30T11:14:34Z</time>
      </trkpt>
      <trkpt lat="44.0816" lon="7.10603">
        <ele>598.563</ele>
        <time>2020-06-30T11:14:49Z</time>
      </trkpt>
      <trkpt lat="44.0816" lon="7.10603">
        <ele>598.563</ele>
        <time>2020-06-30T11:15:05Z</time>
      </trkpt>
      <trkpt lat="44.08163" lon="7.10609">
        <ele>598.59</ele>
        <time>2020-06-30T11:15:20Z</time>
      </trkpt>
      <trkpt lat="44.08178" lon="7.10632">
        <ele>596.424</ele>
        <time>2020-06-30T11:15:36Z</time>
      </trkpt>
      <trkpt lat="44.08184" lon="7.10646">
        <ele>595.94</ele>
        <time>2020-06-30T11:15:51Z</time>
      </trkpt>
      <trkpt lat="44.08184" lon="7.10639">
        <ele>594.324</ele>
        <time>2020-06-30T11:16:07Z</time>
      </trkpt>
      <trkpt lat="44.08184" lon="7.10639">
        <ele>594.324</ele>
        <time>2020-06-30T11:16:22Z</time>
      </trkpt>
      <trkpt lat="44.08186" lon="7.10652">
        <ele>588.376</ele>
        <time>2020-06-30T11:16:37Z</time>
      </trkpt>
      <trkpt lat="44.08186" lon="7.10652">
        <ele>588.376</ele>
        <time>2020-06-30T11:16:52Z</time>
      </trkpt>
      <trkpt lat="44.08188" lon="7.10658">
        <ele>588.284</ele>
        <time>2020-06-30T11:17:07Z</time>
      </trkpt>
      <trkpt lat="44.08188" lon="7.10658">
        <ele>588.284</ele>
        <time>2020-06-30T11:17:23Z</time>
      </trkpt>
      <trkpt lat="44.08185" lon="7.10651">
        <ele>587.263</ele>
        <time>2020-06-30T11:17:38Z</time>
      </trkpt>
      <trkpt lat="44.08175" lon="7.10634">
        <ele>585.176</ele>
        <time>2020-06-30T11:17:54Z</time>
      </trkpt>
      <trkpt lat="44.08175" lon="7.10634">
        <ele>585.176</ele>
        <time>2020-06-30T11:18:09Z</time>
      </trkpt>
      <trkpt lat="44.08185" lon="7.10643">
        <ele>584.753</ele>
        <time>2020-06-30T11:18:25Z</time>
      </trkpt>
      <trkpt lat="44.08188" lon="7.10646">
        <ele>585.522</ele>
        <time>2020-06-30T11:18:41Z</time>
      </trkpt>
      <trkpt lat="44.08188" lon="7.10646">
        <ele>585.522</ele>
        <time>2020-06-30T11:18:56Z</time>
      </trkpt>
      <trkpt lat="44.08188" lon="7.10646">
        <ele>585.522</ele>
        <time>2020-06-30T11:19:12Z</time>
      </trkpt>
      <trkpt lat="44.08188" lon="7.10646">
        <ele>585.522</ele>
        <time>2020-06-30T11:19:27Z</time>
      </trkpt>
      <trkpt lat="44.08188" lon="7.10646">
        <ele>585.522</ele>
        <time>2020-06-30T11:19:43Z</time>
      </trkpt>
      <trkpt lat="44.08188" lon="7.10646">
        <ele>585.522</ele>
        <time>2020-06-30T11:19:58Z</time>
      </trkpt>
      <trkpt lat="44.08188" lon="7.10646">
        <ele>585.522</ele>
        <time>2020-06-30T11:20:14Z</time>
      </trkpt>
      <trkpt lat="44.08188" lon="7.10646">
        <ele>585.522</ele>
        <time>2020-06-30T11:20:30Z</time>
      </trkpt>
      <trkpt lat="44.08188" lon="7.10646">
        <ele>585.522</ele>
        <time>2020-06-30T11:20:46Z</time>
      </trkpt>
      <trkpt lat="44.08175" lon="7.10635">
        <ele>582.707</ele>
        <time>2020-06-30T11:21:01Z</time>
      </trkpt>
      <trkpt lat="44.08182" lon="7.1063">
        <ele>581.172</ele>
        <time>2020-06-30T11:21:17Z</time>
      </trkpt>
      <trkpt lat="44.08184" lon="7.10631">
        <ele>581.911</ele>
        <time>2020-06-30T11:21:33Z</time>
      </trkpt>
      <trkpt lat="44.08184" lon="7.10631">
        <ele>581.911</ele>
        <time>2020-06-30T11:21:49Z</time>
      </trkpt>
      <trkpt lat="44.08184" lon="7.10631">
        <ele>581.911</ele>
        <time>2020-06-30T11:22:05Z</time>
      </trkpt>
      <trkpt lat="44.08184" lon="7.10631">
        <ele>581.911</ele>
        <time>2020-06-30T11:22:20Z</time>
      </trkpt>
      <trkpt lat="44.08184" lon="7.10631">
        <ele>581.911</ele>
        <time>2020-06-30T11:22:36Z</time>
      </trkpt>
      <trkpt lat="44.08184" lon="7.10631">
        <ele>581.911</ele>
        <time>2020-06-30T11:22:51Z</time>
      </trkpt>
      <trkpt lat="44.08184" lon="7.10631">
        <ele>581.911</ele>
        <time>2020-06-30T11:23:07Z</time>
      </trkpt>
      <trkpt lat="44.08184" lon="7.10631">
        <ele>581.911</ele>
        <time>2020-06-30T11:23:22Z</time>
      </trkpt>
      <trkpt lat="44.08184" lon="7.10631">
        <ele>581.911</ele>
        <time>2020-06-30T11:23:38Z</time>
      </trkpt>
      <trkpt lat="44.08184" lon="7.10631">
        <ele>581.911</ele>
        <time>2020-06-30T11:23:53Z</time>
      </trkpt>
      <trkpt lat="44.08184" lon="7.10631">
        <ele>581.911</ele>
        <time>2020-06-30T11:24:09Z</time>
      </trkpt>
      <trkpt lat="44.08184" lon="7.10631">
        <ele>581.911</ele>
        <time>2020-06-30T11:24:25Z</time>
      </trkpt>
      <trkpt lat="44.08184" lon="7.10631">
        <ele>581.911</ele>
        <time>2020-06-30T11:24:41Z</time>
      </trkpt>
      <trkpt lat="44.08184" lon="7.10631">
        <ele>581.911</ele>
        <time>2020-06-30T11:24:56Z</time>
      </trkpt>
      <trkpt lat="44.08184" lon="7.10631">
        <ele>581.911</ele>
        <time>2020-06-30T11:25:11Z</time>
      </trkpt>
      <trkpt lat="44.08184" lon="7.10631">
        <ele>581.911</ele>
        <time>2020-06-30T11:25:27Z</time>
      </trkpt>
      <trkpt lat="44.08184" lon="7.10631">
        <ele>581.911</ele>
        <time>2020-06-30T11:25:42Z</time>
      </trkpt>
      <trkpt lat="44.08184" lon="7.10634">
        <ele>579.415</ele>
        <time>2020-06-30T11:25:58Z</time>
      </trkpt>
      <trkpt lat="44.08182" lon="7.10636">
        <ele>578.069</ele>
        <time>2020-06-30T11:26:14Z</time>
      </trkpt>
      <trkpt lat="44.08182" lon="7.10636">
        <ele>578.069</ele>
        <time>2020-06-30T11:26:30Z</time>
      </trkpt>
      <trkpt lat="44.08182" lon="7.10636">
        <ele>578.069</ele>
        <time>2020-06-30T11:26:45Z</time>
      </trkpt>
      <trkpt lat="44.08184" lon="7.10639">
        <ele>577.782</ele>
        <time>2020-06-30T11:27:01Z</time>
      </trkpt>
      <trkpt lat="44.08184" lon="7.10639">
        <ele>577.782</ele>
        <time>2020-06-30T11:27:16Z</time>
      </trkpt>
      <trkpt lat="44.08186" lon="7.1064">
        <ele>576.87</ele>
        <time>2020-06-30T11:27:32Z</time>
      </trkpt>
      <trkpt lat="44.08186" lon="7.1064">
        <ele>576.87</ele>
        <time>2020-06-30T11:27:48Z</time>
      </trkpt>
      <trkpt lat="44.08184" lon="7.10643">
        <ele>575.874</ele>
        <time>2020-06-30T11:28:04Z</time>
      </trkpt>
      <trkpt lat="44.08184" lon="7.10643">
        <ele>575.874</ele>
        <time>2020-06-30T11:28:20Z</time>
      </trkpt>
      <trkpt lat="44.08184" lon="7.10643">
        <ele>575.874</ele>
        <time>2020-06-30T11:28:36Z</time>
      </trkpt>
      <trkpt lat="44.08184" lon="7.10643">
        <ele>575.874</ele>
        <time>2020-06-30T11:28:52Z</time>
      </trkpt>
      <trkpt lat="44.08184" lon="7.10643">
        <ele>575.874</ele>
        <time>2020-06-30T11:29:07Z</time>
      </trkpt>
      <trkpt lat="44.08184" lon="7.10643">
        <ele>575.874</ele>
        <time>2020-06-30T11:29:23Z</time>
      </trkpt>
      <trkpt lat="44.08184" lon="7.10642">
        <ele>576.467</ele>
        <time>2020-06-30T11:29:39Z</time>
      </trkpt>
      <trkpt lat="44.08184" lon="7.10642">
        <ele>576.467</ele>
        <time>2020-06-30T11:29:55Z</time>
      </trkpt>
      <trkpt lat="44.08184" lon="7.10642">
        <ele>576.467</ele>
        <time>2020-06-30T11:30:10Z</time>
      </trkpt>
      <trkpt lat="44.08184" lon="7.10642">
        <ele>576.467</ele>
        <time>2020-06-30T11:30:25Z</time>
      </trkpt>
      <trkpt lat="44.08184" lon="7.10642">
        <ele>576.467</ele>
        <time>2020-06-30T11:30:41Z</time>
      </trkpt>
      <trkpt lat="44.08184" lon="7.10642">
        <ele>576.467</ele>
        <time>2020-06-30T11:30:56Z</time>
      </trkpt>
      <trkpt lat="44.08184" lon="7.10642">
        <ele>576.467</ele>
        <time>2020-06-30T11:31:12Z</time>
      </trkpt>
      <trkpt lat="44.08184" lon="7.10642">
        <ele>576.467</ele>
        <time>2020-06-30T11:31:27Z</time>
      </trkpt>
      <trkpt lat="44.08184" lon="7.10642">
        <ele>576.467</ele>
        <time>2020-06-30T11:31:43Z</time>
      </trkpt>
      <trkpt lat="44.08184" lon="7.10642">
        <ele>576.467</ele>
        <time>2020-06-30T11:31:59Z</time>
      </trkpt>
      <trkpt lat="44.08182" lon="7.10636">
        <ele>576.211</ele>
        <time>2020-06-30T11:32:14Z</time>
      </trkpt>
      <trkpt lat="44.08182" lon="7.10636">
        <ele>576.211</ele>
        <time>2020-06-30T11:32:30Z</time>
      </trkpt>
      <trkpt lat="44.08182" lon="7.10636">
        <ele>576.211</ele>
        <time>2020-06-30T11:32:45Z</time>
      </trkpt>
      <trkpt lat="44.08182" lon="7.10636">
        <ele>576.211</ele>
        <time>2020-06-30T11:33:00Z</time>
      </trkpt>
      <trkpt lat="44.08182" lon="7.10636">
        <ele>576.211</ele>
        <time>2020-06-30T11:33:16Z</time>
      </trkpt>
      <trkpt lat="44.08181" lon="7.10637">
        <ele>576.69</ele>
        <time>2020-06-30T11:33:32Z</time>
      </trkpt>
      <trkpt lat="44.08181" lon="7.10637">
        <ele>576.69</ele>
        <time>2020-06-30T11:33:47Z</time>
      </trkpt>
      <trkpt lat="44.08181" lon="7.10637">
        <ele>576.69</ele>
        <time>2020-06-30T11:34:03Z</time>
      </trkpt>
      <trkpt lat="44.08181" lon="7.10637">
        <ele>576.69</ele>
        <time>2020-06-30T11:34:18Z</time>
      </trkpt>
      <trkpt lat="44.08178" lon="7.10631">
        <ele>575.552</ele>
        <time>2020-06-30T11:34:34Z</time>
      </trkpt>
      <trkpt lat="44.08181" lon="7.10635">
        <ele>573.398</ele>
        <time>2020-06-30T11:34:50Z</time>
      </trkpt>
      <trkpt lat="44.08181" lon="7.10635">
        <ele>573.398</ele>
        <time>2020-06-30T11:35:05Z</time>
      </trkpt>
      <trkpt lat="44.08181" lon="7.10635">
        <ele>573.398</ele>
        <time>2020-06-30T11:35:21Z</time>
      </trkpt>
      <trkpt lat="44.08181" lon="7.10636">
        <ele>573.594</ele>
        <time>2020-06-30T11:35:36Z</time>
      </trkpt>
      <trkpt lat="44.08182" lon="7.10639">
        <ele>573.208</ele>
        <time>2020-06-30T11:35:52Z</time>
      </trkpt>
      <trkpt lat="44.08182" lon="7.10639">
        <ele>573.208</ele>
        <time>2020-06-30T11:36:08Z</time>
      </trkpt>
      <trkpt lat="44.08182" lon="7.10639">
        <ele>573.208</ele>
        <time>2020-06-30T11:36:23Z</time>
      </trkpt>
      <trkpt lat="44.08185" lon="7.1064">
        <ele>574.173</ele>
        <time>2020-06-30T11:36:39Z</time>
      </trkpt>
      <trkpt lat="44.08185" lon="7.1064">
        <ele>574.173</ele>
        <time>2020-06-30T11:36:54Z</time>
      </trkpt>
      <trkpt lat="44.08185" lon="7.1064">
        <ele>574.173</ele>
        <time>2020-06-30T11:37:10Z</time>
      </trkpt>
      <trkpt lat="44.08185" lon="7.1064">
        <ele>574.173</ele>
        <time>2020-06-30T11:37:26Z</time>
      </trkpt>
      <trkpt lat="44.08185" lon="7.1064">
        <ele>574.173</ele>
        <time>2020-06-30T11:37:41Z</time>
      </trkpt>
      <trkpt lat="44.08185" lon="7.1064">
        <ele>574.173</ele>
        <time>2020-06-30T11:37:57Z</time>
      </trkpt>
      <trkpt lat="44.08185" lon="7.1064">
        <ele>574.173</ele>
        <time>2020-06-30T11:38:12Z</time>
      </trkpt>
      <trkpt lat="44.08185" lon="7.1064">
        <ele>574.173</ele>
        <time>2020-06-30T11:38:27Z</time>
      </trkpt>
      <trkpt lat="44.08185" lon="7.1064">
        <ele>574.173</ele>
        <time>2020-06-30T11:38:43Z</time>
      </trkpt>
      <trkpt lat="44.08185" lon="7.1064">
        <ele>574.173</ele>
        <time>2020-06-30T11:38:58Z</time>
      </trkpt>
      <trkpt lat="44.08184" lon="7.10639">
        <ele>573.759</ele>
        <time>2020-06-30T11:39:14Z</time>
      </trkpt>
      <trkpt lat="44.08184" lon="7.10639">
        <ele>573.759</ele>
        <time>2020-06-30T11:39:30Z</time>
      </trkpt>
      <trkpt lat="44.08184" lon="7.10639">
        <ele>573.759</ele>
        <time>2020-06-30T11:39:46Z</time>
      </trkpt>
      <trkpt lat="44.08184" lon="7.10639">
        <ele>573.759</ele>
        <time>2020-06-30T11:40:02Z</time>
      </trkpt>
      <trkpt lat="44.08188" lon="7.10644">
        <ele>571.516</ele>
        <time>2020-06-30T11:40:17Z</time>
      </trkpt>
      <trkpt lat="44.08188" lon="7.10644">
        <ele>571.516</ele>
        <time>2020-06-30T11:40:32Z</time>
      </trkpt>
      <trkpt lat="44.08188" lon="7.10644">
        <ele>571.516</ele>
        <time>2020-06-30T11:40:47Z</time>
      </trkpt>
      <trkpt lat="44.08188" lon="7.10644">
        <ele>571.516</ele>
        <time>2020-06-30T11:41:03Z</time>
      </trkpt>
      <trkpt lat="44.08188" lon="7.10644">
        <ele>571.516</ele>
        <time>2020-06-30T11:41:18Z</time>
      </trkpt>
      <trkpt lat="44.08182" lon="7.10644">
        <ele>571.526</ele>
        <time>2020-06-30T11:41:34Z</time>
      </trkpt>
      <trkpt lat="44.08182" lon="7.10644">
        <ele>571.526</ele>
        <time>2020-06-30T11:41:50Z</time>
      </trkpt>
      <trkpt lat="44.08182" lon="7.10647">
        <ele>570.833</ele>
        <time>2020-06-30T11:42:06Z</time>
      </trkpt>
      <trkpt lat="44.08182" lon="7.10647">
        <ele>570.833</ele>
        <time>2020-06-30T11:42:21Z</time>
      </trkpt>
      <trkpt lat="44.08182" lon="7.10647">
        <ele>570.833</ele>
        <time>2020-06-30T11:42:36Z</time>
      </trkpt>
      <trkpt lat="44.08182" lon="7.10647">
        <ele>570.833</ele>
        <time>2020-06-30T11:42:52Z</time>
      </trkpt>
      <trkpt lat="44.08181" lon="7.10644">
        <ele>570.699</ele>
        <time>2020-06-30T11:43:08Z</time>
      </trkpt>
      <trkpt lat="44.08181" lon="7.10643">
        <ele>570.083</ele>
        <time>2020-06-30T11:43:24Z</time>
      </trkpt>
      <trkpt lat="44.08181" lon="7.10643">
        <ele>570.083</ele>
        <time>2020-06-30T11:43:39Z</time>
      </trkpt>
      <trkpt lat="44.08181" lon="7.10643">
        <ele>570.083</ele>
        <time>2020-06-30T11:43:55Z</time>
      </trkpt>
      <trkpt lat="44.08181" lon="7.10643">
        <ele>570.083</ele>
        <time>2020-06-30T11:44:10Z</time>
      </trkpt>
      <trkpt lat="44.08181" lon="7.10643">
        <ele>570.083</ele>
        <time>2020-06-30T11:44:25Z</time>
      </trkpt>
      <trkpt lat="44.08181" lon="7.10642">
        <ele>569.858</ele>
        <time>2020-06-30T11:44:41Z</time>
      </trkpt>
      <trkpt lat="44.08182" lon="7.10643">
        <ele>569.351</ele>
        <time>2020-06-30T11:44:57Z</time>
      </trkpt>
      <trkpt lat="44.08182" lon="7.10643">
        <ele>569.351</ele>
        <time>2020-06-30T11:45:13Z</time>
      </trkpt>
      <trkpt lat="44.08182" lon="7.10643">
        <ele>569.351</ele>
        <time>2020-06-30T11:45:28Z</time>
      </trkpt>
      <trkpt lat="44.08182" lon="7.10643">
        <ele>569.351</ele>
        <time>2020-06-30T11:45:44Z</time>
      </trkpt>
      <trkpt lat="44.08182" lon="7.10643">
        <ele>569.351</ele>
        <time>2020-06-30T11:46:00Z</time>
      </trkpt>
      <trkpt lat="44.08182" lon="7.10643">
        <ele>569.351</ele>
        <time>2020-06-30T11:46:16Z</time>
      </trkpt>
      <trkpt lat="44.08182" lon="7.10643">
        <ele>569.351</ele>
        <time>2020-06-30T11:46:31Z</time>
      </trkpt>
      <trkpt lat="44.08185" lon="7.10646">
        <ele>568.614</ele>
        <time>2020-06-30T11:46:47Z</time>
      </trkpt>
      <trkpt lat="44.08185" lon="7.10646">
        <ele>568.614</ele>
        <time>2020-06-30T11:47:02Z</time>
      </trkpt>
      <trkpt lat="44.08185" lon="7.10646">
        <ele>568.614</ele>
        <time>2020-06-30T11:47:17Z</time>
      </trkpt>
      <trkpt lat="44.08185" lon="7.10646">
        <ele>568.614</ele>
        <time>2020-06-30T11:47:32Z</time>
      </trkpt>
      <trkpt lat="44.08185" lon="7.10646">
        <ele>568.614</ele>
        <time>2020-06-30T11:47:48Z</time>
      </trkpt>
      <trkpt lat="44.08185" lon="7.10646">
        <ele>568.614</ele>
        <time>2020-06-30T11:48:04Z</time>
      </trkpt>
      <trkpt lat="44.08187" lon="7.10647">
        <ele>568.157</ele>
        <time>2020-06-30T11:48:19Z</time>
      </trkpt>
      <trkpt lat="44.08187" lon="7.10647">
        <ele>568.157</ele>
        <time>2020-06-30T11:48:35Z</time>
      </trkpt>
      <trkpt lat="44.08187" lon="7.10647">
        <ele>568.157</ele>
        <time>2020-06-30T11:48:50Z</time>
      </trkpt>
      <trkpt lat="44.08187" lon="7.10647">
        <ele>568.157</ele>
        <time>2020-06-30T11:49:05Z</time>
      </trkpt>
      <trkpt lat="44.08187" lon="7.10647">
        <ele>568.157</ele>
        <time>2020-06-30T11:49:21Z</time>
      </trkpt>
      <trkpt lat="44.08187" lon="7.10647">
        <ele>568.157</ele>
        <time>2020-06-30T11:49:36Z</time>
      </trkpt>
      <trkpt lat="44.08185" lon="7.10647">
        <ele>566.803</ele>
        <time>2020-06-30T11:49:52Z</time>
      </trkpt>
      <trkpt lat="44.08185" lon="7.10647">
        <ele>566.803</ele>
        <time>2020-06-30T11:50:08Z</time>
      </trkpt>
      <trkpt lat="44.08185" lon="7.10647">
        <ele>566.803</ele>
        <time>2020-06-30T11:50:24Z</time>
      </trkpt>
      <trkpt lat="44.08185" lon="7.10647">
        <ele>566.803</ele>
        <time>2020-06-30T11:50:39Z</time>
      </trkpt>
      <trkpt lat="44.08185" lon="7.10647">
        <ele>566.803</ele>
        <time>2020-06-30T11:50:55Z</time>
      </trkpt>
      <trkpt lat="44.08185" lon="7.10647">
        <ele>566.803</ele>
        <time>2020-06-30T11:51:11Z</time>
      </trkpt>
      <trkpt lat="44.08185" lon="7.10647">
        <ele>566.803</ele>
        <time>2020-06-30T11:51:26Z</time>
      </trkpt>
      <trkpt lat="44.08185" lon="7.10647">
        <ele>566.803</ele>
        <time>2020-06-30T11:51:41Z</time>
      </trkpt>
      <trkpt lat="44.08185" lon="7.10647">
        <ele>566.803</ele>
        <time>2020-06-30T11:51:57Z</time>
      </trkpt>
      <trkpt lat="44.08185" lon="7.10647">
        <ele>566.803</ele>
        <time>2020-06-30T11:52:13Z</time>
      </trkpt>
      <trkpt lat="44.08185" lon="7.10647">
        <ele>566.803</ele>
        <time>2020-06-30T11:52:29Z</time>
      </trkpt>
      <trkpt lat="44.08185" lon="7.10647">
        <ele>566.803</ele>
        <time>2020-06-30T11:52:45Z</time>
      </trkpt>
      <trkpt lat="44.08185" lon="7.10647">
        <ele>566.803</ele>
        <time>2020-06-30T11:53:00Z</time>
      </trkpt>
      <trkpt lat="44.08185" lon="7.10647">
        <ele>566.803</ele>
        <time>2020-06-30T11:53:16Z</time>
      </trkpt>
      <trkpt lat="44.08185" lon="7.10647">
        <ele>566.803</ele>
        <time>2020-06-30T11:53:32Z</time>
      </trkpt>
      <trkpt lat="44.08185" lon="7.10647">
        <ele>566.803</ele>
        <time>2020-06-30T11:53:47Z</time>
      </trkpt>
      <trkpt lat="44.08185" lon="7.10647">
        <ele>566.803</ele>
        <time>2020-06-30T11:54:03Z</time>
      </trkpt>
      <trkpt lat="44.08185" lon="7.10647">
        <ele>566.803</ele>
        <time>2020-06-30T11:54:19Z</time>
      </trkpt>
      <trkpt lat="44.08185" lon="7.10647">
        <ele>566.803</ele>
        <time>2020-06-30T11:54:34Z</time>
      </trkpt>
      <trkpt lat="44.08185" lon="7.10647">
        <ele>566.803</ele>
        <time>2020-06-30T11:54:49Z</time>
      </trkpt>
      <trkpt lat="44.08184" lon="7.10647">
        <ele>566.955</ele>
        <time>2020-06-30T11:55:04Z</time>
      </trkpt>
      <trkpt lat="44.08187" lon="7.10645">
        <ele>567.096</ele>
        <time>2020-06-30T11:55:20Z</time>
      </trkpt>
      <trkpt lat="44.08189" lon="7.10643">
        <ele>567.528</ele>
        <time>2020-06-30T11:55:36Z</time>
      </trkpt>
      <trkpt lat="44.08186" lon="7.10642">
        <ele>568.512</ele>
        <time>2020-06-30T11:55:51Z</time>
      </trkpt>
      <trkpt lat="44.08186" lon="7.10642">
        <ele>568.512</ele>
        <time>2020-06-30T11:56:06Z</time>
      </trkpt>
      <trkpt lat="44.08186" lon="7.10642">
        <ele>568.512</ele>
        <time>2020-06-30T11:56:22Z</time>
      </trkpt>
      <trkpt lat="44.08186" lon="7.10642">
        <ele>568.512</ele>
        <time>2020-06-30T11:56:37Z</time>
      </trkpt>
      <trkpt lat="44.08186" lon="7.10642">
        <ele>568.512</ele>
        <time>2020-06-30T11:56:53Z</time>
      </trkpt>
      <trkpt lat="44.08186" lon="7.10642">
        <ele>568.512</ele>
        <time>2020-06-30T11:57:09Z</time>
      </trkpt>
      <trkpt lat="44.08186" lon="7.10642">
        <ele>568.512</ele>
        <time>2020-06-30T11:57:24Z</time>
      </trkpt>
      <trkpt lat="44.08187" lon="7.10641">
        <ele>568.154</ele>
        <time>2020-06-30T11:57:40Z</time>
      </trkpt>
      <trkpt lat="44.08187" lon="7.10641">
        <ele>568.154</ele>
        <time>2020-06-30T11:57:55Z</time>
      </trkpt>
      <trkpt lat="44.08187" lon="7.10641">
        <ele>568.154</ele>
        <time>2020-06-30T11:58:10Z</time>
      </trkpt>
      <trkpt lat="44.08187" lon="7.10641">
        <ele>568.154</ele>
        <time>2020-06-30T11:58:26Z</time>
      </trkpt>
      <trkpt lat="44.08186" lon="7.10642">
        <ele>567.323</ele>
        <time>2020-06-30T11:58:42Z</time>
      </trkpt>
      <trkpt lat="44.08187" lon="7.10643">
        <ele>567.176</ele>
        <time>2020-06-30T11:58:57Z</time>
      </trkpt>
      <trkpt lat="44.08187" lon="7.10643">
        <ele>567.176</ele>
        <time>2020-06-30T11:59:13Z</time>
      </trkpt>
      <trkpt lat="44.08187" lon="7.10646">
        <ele>566.219</ele>
        <time>2020-06-30T11:59:28Z</time>
      </trkpt>
      <trkpt lat="44.08187" lon="7.10646">
        <ele>566.219</ele>
        <time>2020-06-30T11:59:44Z</time>
      </trkpt>
      <trkpt lat="44.08187" lon="7.10646">
        <ele>566.219</ele>
        <time>2020-06-30T12:00:00Z</time>
      </trkpt>
      <trkpt lat="44.08188" lon="7.10645">
        <ele>565.793</ele>
        <time>2020-06-30T12:00:16Z</time>
      </trkpt>
      <trkpt lat="44.08187" lon="7.10644">
        <ele>564.853</ele>
        <time>2020-06-30T12:00:31Z</time>
      </trkpt>
      <trkpt lat="44.08187" lon="7.10644">
        <ele>564.853</ele>
        <time>2020-06-30T12:00:46Z</time>
      </trkpt>
      <trkpt lat="44.08187" lon="7.10644">
        <ele>564.853</ele>
        <time>2020-06-30T12:01:02Z</time>
      </trkpt>
      <trkpt lat="44.08187" lon="7.10644">
        <ele>564.853</ele>
        <time>2020-06-30T12:01:17Z</time>
      </trkpt>
      <trkpt lat="44.08187" lon="7.10644">
        <ele>564.853</ele>
        <time>2020-06-30T12:01:33Z</time>
      </trkpt>
      <trkpt lat="44.08187" lon="7.10644">
        <ele>564.435</ele>
        <time>2020-06-30T12:01:49Z</time>
      </trkpt>
      <trkpt lat="44.08188" lon="7.10645">
        <ele>565.205</ele>
        <time>2020-06-30T12:02:04Z</time>
      </trkpt>
      <trkpt lat="44.08188" lon="7.10645">
        <ele>565.205</ele>
        <time>2020-06-30T12:02:20Z</time>
      </trkpt>
      <trkpt lat="44.08188" lon="7.10645">
        <ele>565.205</ele>
        <time>2020-06-30T12:02:35Z</time>
      </trkpt>
      <trkpt lat="44.08188" lon="7.10645">
        <ele>565.205</ele>
        <time>2020-06-30T12:02:50Z</time>
      </trkpt>
      <trkpt lat="44.08185" lon="7.10646">
        <ele>565.428</ele>
        <time>2020-06-30T12:03:05Z</time>
      </trkpt>
      <trkpt lat="44.08186" lon="7.10647">
        <ele>564.286</ele>
        <time>2020-06-30T12:03:21Z</time>
      </trkpt>
      <trkpt lat="44.08187" lon="7.10649">
        <ele>564.353</ele>
        <time>2020-06-30T12:03:37Z</time>
      </trkpt>
      <trkpt lat="44.08187" lon="7.10649">
        <ele>564.353</ele>
        <time>2020-06-30T12:03:53Z</time>
      </trkpt>
      <trkpt lat="44.08188" lon="7.10649">
        <ele>563.874</ele>
        <time>2020-06-30T12:04:09Z</time>
      </trkpt>
      <trkpt lat="44.08199" lon="7.10665">
        <ele>561.303</ele>
        <time>2020-06-30T12:04:25Z</time>
      </trkpt>
      <trkpt lat="44.08197" lon="7.10665">
        <ele>561.24</ele>
        <time>2020-06-30T12:04:41Z</time>
      </trkpt>
      <trkpt lat="44.08196" lon="7.10664">
        <ele>561.661</ele>
        <time>2020-06-30T12:04:57Z</time>
      </trkpt>
      <trkpt lat="44.08196" lon="7.10664">
        <ele>561.661</ele>
        <time>2020-06-30T12:05:12Z</time>
      </trkpt>
      <trkpt lat="44.08196" lon="7.10664">
        <ele>561.661</ele>
        <time>2020-06-30T12:05:27Z</time>
      </trkpt>
      <trkpt lat="44.08196" lon="7.10664">
        <ele>561.661</ele>
        <time>2020-06-30T12:05:43Z</time>
      </trkpt>
      <trkpt lat="44.08196" lon="7.10664">
        <ele>561.661</ele>
        <time>2020-06-30T12:05:58Z</time>
      </trkpt>
      <trkpt lat="44.08191" lon="7.10663">
        <ele>561.278</ele>
        <time>2020-06-30T12:06:14Z</time>
      </trkpt>
      <trkpt lat="44.08191" lon="7.10663">
        <ele>561.278</ele>
        <time>2020-06-30T12:06:29Z</time>
      </trkpt>
      <trkpt lat="44.08191" lon="7.10663">
        <ele>561.278</ele>
        <time>2020-06-30T12:06:45Z</time>
      </trkpt>
      <trkpt lat="44.08191" lon="7.10663">
        <ele>561.278</ele>
        <time>2020-06-30T12:07:00Z</time>
      </trkpt>
      <trkpt lat="44.08192" lon="7.1066">
        <ele>561.903</ele>
        <time>2020-06-30T12:07:16Z</time>
      </trkpt>
      <trkpt lat="44.08192" lon="7.1066">
        <ele>561.903</ele>
        <time>2020-06-30T12:07:32Z</time>
      </trkpt>
      <trkpt lat="44.08192" lon="7.1066">
        <ele>561.903</ele>
        <time>2020-06-30T12:07:47Z</time>
      </trkpt>
      <trkpt lat="44.08192" lon="7.1066">
        <ele>561.903</ele>
        <time>2020-06-30T12:08:03Z</time>
      </trkpt>
      <trkpt lat="44.08192" lon="7.1066">
        <ele>561.903</ele>
        <time>2020-06-30T12:08:18Z</time>
      </trkpt>
      <trkpt lat="44.08192" lon="7.1066">
        <ele>561.903</ele>
        <time>2020-06-30T12:08:33Z</time>
      </trkpt>
      <trkpt lat="44.08192" lon="7.1066">
        <ele>561.903</ele>
        <time>2020-06-30T12:08:49Z</time>
      </trkpt>
      <trkpt lat="44.08192" lon="7.1066">
        <ele>561.903</ele>
        <time>2020-06-30T12:09:05Z</time>
      </trkpt>
      <trkpt lat="44.08192" lon="7.1066">
        <ele>561.903</ele>
        <time>2020-06-30T12:09:21Z</time>
      </trkpt>
      <trkpt lat="44.08192" lon="7.1066">
        <ele>561.903</ele>
        <time>2020-06-30T12:09:37Z</time>
      </trkpt>
      <trkpt lat="44.08192" lon="7.1066">
        <ele>561.903</ele>
        <time>2020-06-30T12:09:52Z</time>
      </trkpt>
      <trkpt lat="44.08192" lon="7.1066">
        <ele>561.903</ele>
        <time>2020-06-30T12:10:07Z</time>
      </trkpt>
      <trkpt lat="44.08189" lon="7.10662">
        <ele>559.697</ele>
        <time>2020-06-30T12:10:23Z</time>
      </trkpt>
      <trkpt lat="44.08189" lon="7.10662">
        <ele>560.509</ele>
        <time>2020-06-30T12:10:38Z</time>
      </trkpt>
      <trkpt lat="44.08188" lon="7.10662">
        <ele>557.491</ele>
        <time>2020-06-30T12:10:54Z</time>
      </trkpt>
      <trkpt lat="44.08188" lon="7.10662">
        <ele>557.491</ele>
        <time>2020-06-30T12:11:10Z</time>
      </trkpt>
      <trkpt lat="44.08188" lon="7.10662">
        <ele>557.491</ele>
        <time>2020-06-30T12:11:26Z</time>
      </trkpt>
      <trkpt lat="44.08189" lon="7.1066">
        <ele>558.096</ele>
        <time>2020-06-30T12:11:41Z</time>
      </trkpt>
      <trkpt lat="44.08189" lon="7.1066">
        <ele>558.096</ele>
        <time>2020-06-30T12:11:57Z</time>
      </trkpt>
      <trkpt lat="44.08189" lon="7.1066">
        <ele>558.096</ele>
        <time>2020-06-30T12:12:12Z</time>
      </trkpt>
      <trkpt lat="44.08188" lon="7.10663">
        <ele>559.041</ele>
        <time>2020-06-30T12:12:28Z</time>
      </trkpt>
      <trkpt lat="44.08188" lon="7.10664">
        <ele>559.391</ele>
        <time>2020-06-30T12:12:44Z</time>
      </trkpt>
      <trkpt lat="44.08188" lon="7.10664">
        <ele>559.391</ele>
        <time>2020-06-30T12:12:59Z</time>
      </trkpt>
      <trkpt lat="44.08188" lon="7.10664">
        <ele>559.391</ele>
        <time>2020-06-30T12:13:15Z</time>
      </trkpt>
      <trkpt lat="44.08188" lon="7.10664">
        <ele>559.391</ele>
        <time>2020-06-30T12:13:31Z</time>
      </trkpt>
      <trkpt lat="44.08188" lon="7.10664">
        <ele>559.391</ele>
        <time>2020-06-30T12:13:46Z</time>
      </trkpt>
      <trkpt lat="44.08188" lon="7.10664">
        <ele>559.391</ele>
        <time>2020-06-30T12:14:02Z</time>
      </trkpt>
      <trkpt lat="44.08187" lon="7.10662">
        <ele>559.549</ele>
        <time>2020-06-30T12:14:17Z</time>
      </trkpt>
      <trkpt lat="44.08186" lon="7.1066">
        <ele>560.377</ele>
        <time>2020-06-30T12:14:33Z</time>
      </trkpt>
      <trkpt lat="44.08186" lon="7.1066">
        <ele>560.377</ele>
        <time>2020-06-30T12:14:48Z</time>
      </trkpt>
      <trkpt lat="44.08186" lon="7.1066">
        <ele>560.377</ele>
        <time>2020-06-30T12:15:04Z</time>
      </trkpt>
      <trkpt lat="44.08181" lon="7.10655">
        <ele>560.964</ele>
        <time>2020-06-30T12:15:20Z</time>
      </trkpt>
      <trkpt lat="44.08181" lon="7.10655">
        <ele>560.964</ele>
        <time>2020-06-30T12:15:35Z</time>
      </trkpt>
      <trkpt lat="44.08186" lon="7.10664">
        <ele>561.125</ele>
        <time>2020-06-30T12:15:51Z</time>
      </trkpt>
      <trkpt lat="44.08186" lon="7.10664">
        <ele>561.125</ele>
        <time>2020-06-30T12:16:07Z</time>
      </trkpt>
      <trkpt lat="44.08193" lon="7.10695">
        <ele>561.642</ele>
        <time>2020-06-30T12:16:22Z</time>
      </trkpt>
      <trkpt lat="44.08193" lon="7.10695">
        <ele>561.642</ele>
        <time>2020-06-30T12:16:38Z</time>
      </trkpt>
      <trkpt lat="44.08193" lon="7.10695">
        <ele>561.642</ele>
        <time>2020-06-30T12:16:53Z</time>
      </trkpt>
      <trkpt lat="44.08193" lon="7.10695">
        <ele>561.642</ele>
        <time>2020-06-30T12:17:08Z</time>
      </trkpt>
      <trkpt lat="44.08191" lon="7.10682">
        <ele>566.898</ele>
        <time>2020-06-30T12:17:24Z</time>
      </trkpt>
      <trkpt lat="44.08191" lon="7.10682">
        <ele>566.898</ele>
        <time>2020-06-30T12:17:40Z</time>
      </trkpt>
      <trkpt lat="44.08191" lon="7.10682">
        <ele>566.898</ele>
        <time>2020-06-30T12:17:55Z</time>
      </trkpt>
      <trkpt lat="44.08191" lon="7.10682">
        <ele>566.898</ele>
        <time>2020-06-30T12:18:11Z</time>
      </trkpt>
      <trkpt lat="44.0818" lon="7.1066">
        <ele>555.646</ele>
        <time>2020-06-30T12:18:26Z</time>
      </trkpt>
      <trkpt lat="44.0818" lon="7.1066">
        <ele>555.646</ele>
        <time>2020-06-30T12:18:42Z</time>
      </trkpt>
      <trkpt lat="44.0818" lon="7.1066">
        <ele>555.646</ele>
        <time>2020-06-30T12:18:58Z</time>
      </trkpt>
      <trkpt lat="44.08181" lon="7.10662">
        <ele>555.214</ele>
        <time>2020-06-30T12:19:13Z</time>
      </trkpt>
      <trkpt lat="44.08182" lon="7.10663">
        <ele>555.522</ele>
        <time>2020-06-30T12:19:28Z</time>
      </trkpt>
      <trkpt lat="44.08182" lon="7.10663">
        <ele>555.522</ele>
        <time>2020-06-30T12:19:43Z</time>
      </trkpt>
      <trkpt lat="44.08182" lon="7.10663">
        <ele>555.522</ele>
        <time>2020-06-30T12:19:59Z</time>
      </trkpt>
      <trkpt lat="44.08182" lon="7.10663">
        <ele>555.522</ele>
        <time>2020-06-30T12:20:15Z</time>
      </trkpt>
      <trkpt lat="44.08182" lon="7.10663">
        <ele>555.522</ele>
        <time>2020-06-30T12:20:31Z</time>
      </trkpt>
      <trkpt lat="44.08182" lon="7.10663">
        <ele>555.522</ele>
        <time>2020-06-30T12:20:46Z</time>
      </trkpt>
      <trkpt lat="44.08182" lon="7.10663">
        <ele>555.522</ele>
        <time>2020-06-30T12:21:02Z</time>
      </trkpt>
      <trkpt lat="44.08182" lon="7.10663">
        <ele>555.522</ele>
        <time>2020-06-30T12:21:18Z</time>
      </trkpt>
      <trkpt lat="44.08182" lon="7.10663">
        <ele>555.522</ele>
        <time>2020-06-30T12:21:34Z</time>
      </trkpt>
      <trkpt lat="44.08182" lon="7.10663">
        <ele>555.522</ele>
        <time>2020-06-30T12:21:49Z</time>
      </trkpt>
      <trkpt lat="44.08182" lon="7.10663">
        <ele>555.522</ele>
        <time>2020-06-30T12:22:04Z</time>
      </trkpt>
      <trkpt lat="44.08182" lon="7.10663">
        <ele>555.522</ele>
        <time>2020-06-30T12:22:20Z</time>
      </trkpt>
      <trkpt lat="44.08182" lon="7.10663">
        <ele>555.522</ele>
        <time>2020-06-30T12:22:36Z</time>
      </trkpt>
      <trkpt lat="44.08182" lon="7.10663">
        <ele>555.522</ele>
        <time>2020-06-30T12:22:51Z</time>
      </trkpt>
      <trkpt lat="44.08182" lon="7.10663">
        <ele>555.522</ele>
        <time>2020-06-30T12:23:07Z</time>
      </trkpt>
      <trkpt lat="44.08182" lon="7.10663">
        <ele>555.522</ele>
        <time>2020-06-30T12:23:23Z</time>
      </trkpt>
      <trkpt lat="44.08182" lon="7.10663">
        <ele>555.522</ele>
        <time>2020-06-30T12:23:38Z</time>
      </trkpt>
      <trkpt lat="44.08182" lon="7.10663">
        <ele>555.522</ele>
        <time>2020-06-30T12:23:53Z</time>
      </trkpt>
      <trkpt lat="44.08184" lon="7.10661">
        <ele>557.345</ele>
        <time>2020-06-30T12:24:09Z</time>
      </trkpt>
      <trkpt lat="44.08185" lon="7.10664">
        <ele>556.237</ele>
        <time>2020-06-30T12:24:24Z</time>
      </trkpt>
      <trkpt lat="44.08185" lon="7.10664">
        <ele>556.237</ele>
        <time>2020-06-30T12:24:40Z</time>
      </trkpt>
      <trkpt lat="44.08185" lon="7.10664">
        <ele>556.237</ele>
        <time>2020-06-30T12:24:56Z</time>
      </trkpt>
      <trkpt lat="44.08185" lon="7.10664">
        <ele>556.237</ele>
        <time>2020-06-30T12:25:11Z</time>
      </trkpt>
      <trkpt lat="44.08185" lon="7.10664">
        <ele>556.237</ele>
        <time>2020-06-30T12:25:27Z</time>
      </trkpt>
      <trkpt lat="44.08185" lon="7.10664">
        <ele>556.237</ele>
        <time>2020-06-30T12:25:43Z</time>
      </trkpt>
      <trkpt lat="44.08185" lon="7.10664">
        <ele>556.237</ele>
        <time>2020-06-30T12:25:59Z</time>
      </trkpt>
      <trkpt lat="44.08185" lon="7.10664">
        <ele>556.237</ele>
        <time>2020-06-30T12:26:15Z</time>
      </trkpt>
      <trkpt lat="44.08185" lon="7.10664">
        <ele>556.237</ele>
        <time>2020-06-30T12:26:30Z</time>
      </trkpt>
      <trkpt lat="44.08185" lon="7.10664">
        <ele>556.237</ele>
        <time>2020-06-30T12:26:45Z</time>
      </trkpt>
      <trkpt lat="44.08184" lon="7.10665">
        <ele>554.54</ele>
        <time>2020-06-30T12:27:00Z</time>
      </trkpt>
      <trkpt lat="44.08182" lon="7.10665">
        <ele>551.813</ele>
        <time>2020-06-30T12:27:15Z</time>
      </trkpt>
      <trkpt lat="44.08181" lon="7.10662">
        <ele>549.445</ele>
        <time>2020-06-30T12:27:31Z</time>
      </trkpt>
      <trkpt lat="44.08181" lon="7.10662">
        <ele>549.445</ele>
        <time>2020-06-30T12:27:46Z</time>
      </trkpt>
      <trkpt lat="44.08181" lon="7.10662">
        <ele>549.445</ele>
        <time>2020-06-30T12:28:02Z</time>
      </trkpt>
      <trkpt lat="44.08172" lon="7.10644">
        <ele>549.564</ele>
        <time>2020-06-30T12:29:35Z</time>
      </trkpt>
      <trkpt lat="44.08186" lon="7.10656">
        <ele>601.596</ele>
        <time>2020-06-30T12:29:51Z</time>
      </trkpt>
      <trkpt lat="44.08186" lon="7.10656">
        <ele>601.596</ele>
        <time>2020-06-30T12:30:06Z</time>
      </trkpt>
      <trkpt lat="44.08188" lon="7.10655">
        <ele>594.105</ele>
        <time>2020-06-30T12:30:22Z</time>
      </trkpt>
      <trkpt lat="44.08188" lon="7.10655">
        <ele>594.105</ele>
        <time>2020-06-30T12:30:37Z</time>
      </trkpt>
      <trkpt lat="44.08188" lon="7.10655">
        <ele>594.105</ele>
        <time>2020-06-30T12:30:53Z</time>
      </trkpt>
      <trkpt lat="44.08188" lon="7.10655">
        <ele>594.105</ele>
        <time>2020-06-30T12:31:09Z</time>
      </trkpt>
      <trkpt lat="44.08188" lon="7.10655">
        <ele>594.105</ele>
        <time>2020-06-30T12:31:24Z</time>
      </trkpt>
      <trkpt lat="44.08188" lon="7.10655">
        <ele>594.105</ele>
        <time>2020-06-30T12:31:40Z</time>
      </trkpt>
      <trkpt lat="44.08188" lon="7.10655">
        <ele>594.105</ele>
        <time>2020-06-30T12:31:56Z</time>
      </trkpt>
      <trkpt lat="44.08188" lon="7.10655">
        <ele>594.105</ele>
        <time>2020-06-30T12:32:12Z</time>
      </trkpt>
      <trkpt lat="44.08187" lon="7.10655">
        <ele>589.756</ele>
        <time>2020-06-30T12:32:28Z</time>
      </trkpt>
      <trkpt lat="44.08187" lon="7.10655">
        <ele>589.756</ele>
        <time>2020-06-30T12:32:44Z</time>
      </trkpt>
      <trkpt lat="44.08187" lon="7.10655">
        <ele>589.756</ele>
        <time>2020-06-30T12:32:59Z</time>
      </trkpt>
      <trkpt lat="44.08187" lon="7.10655">
        <ele>589.756</ele>
        <time>2020-06-30T12:33:15Z</time>
      </trkpt>
      <trkpt lat="44.08186" lon="7.10646">
        <ele>580.034</ele>
        <time>2020-06-30T12:33:31Z</time>
      </trkpt>
      <trkpt lat="44.08186" lon="7.10646">
        <ele>579.558</ele>
        <time>2020-06-30T12:33:47Z</time>
      </trkpt>
      <trkpt lat="44.08186" lon="7.10647">
        <ele>578.934</ele>
        <time>2020-06-30T12:34:03Z</time>
      </trkpt>
      <trkpt lat="44.08187" lon="7.1065">
        <ele>578.735</ele>
        <time>2020-06-30T12:34:19Z</time>
      </trkpt>
      <trkpt lat="44.08194" lon="7.1063">
        <ele>564.16</ele>
        <time>2020-06-30T12:34:35Z</time>
      </trkpt>
      <trkpt lat="44.08212" lon="7.10619">
        <ele>552.628</ele>
        <time>2020-06-30T12:34:50Z</time>
      </trkpt>
      <trkpt lat="44.0823" lon="7.10608">
        <ele>545.394</ele>
        <time>2020-06-30T12:35:06Z</time>
      </trkpt>
      <trkpt lat="44.08245" lon="7.10598">
        <ele>539.951</ele>
        <time>2020-06-30T12:35:21Z</time>
      </trkpt>
      <trkpt lat="44.08259" lon="7.10582">
        <ele>540.948</ele>
        <time>2020-06-30T12:35:37Z</time>
      </trkpt>
      <trkpt lat="44.08271" lon="7.10565">
        <ele>542.401</ele>
        <time>2020-06-30T12:35:53Z</time>
      </trkpt>
      <trkpt lat="44.08283" lon="7.10553">
        <ele>543.701</ele>
        <time>2020-06-30T12:36:08Z</time>
      </trkpt>
      <trkpt lat="44.08303" lon="7.10542">
        <ele>544.07</ele>
        <time>2020-06-30T12:36:24Z</time>
      </trkpt>
      <trkpt lat="44.08319" lon="7.10532">
        <ele>545.524</ele>
        <time>2020-06-30T12:36:39Z</time>
      </trkpt>
      <trkpt lat="44.08333" lon="7.10527">
        <ele>547.847</ele>
        <time>2020-06-30T12:36:55Z</time>
      </trkpt>
      <trkpt lat="44.08345" lon="7.10534">
        <ele>552.684</ele>
        <time>2020-06-30T12:37:11Z</time>
      </trkpt>
      <trkpt lat="44.08352" lon="7.10537">
        <ele>554.307</ele>
        <time>2020-06-30T12:37:26Z</time>
      </trkpt>
      <trkpt lat="44.08355" lon="7.10537">
        <ele>554.477</ele>
        <time>2020-06-30T12:37:42Z</time>
      </trkpt>
      <trkpt lat="44.08355" lon="7.10537">
        <ele>554.477</ele>
        <time>2020-06-30T12:37:58Z</time>
      </trkpt>
      <trkpt lat="44.0835" lon="7.10539">
        <ele>557.579</ele>
        <time>2020-06-30T12:38:14Z</time>
      </trkpt>
      <trkpt lat="44.08323" lon="7.10552">
        <ele>548.302</ele>
        <time>2020-06-30T12:38:46Z</time>
      </trkpt>
      <trkpt lat="44.08354" lon="7.1055">
        <ele>552.395</ele>
        <time>2020-06-30T12:39:02Z</time>
      </trkpt>
      <trkpt lat="44.08355" lon="7.10549">
        <ele>557.893</ele>
        <time>2020-06-30T12:39:18Z</time>
      </trkpt>
      <trkpt lat="44.08356" lon="7.10555">
        <ele>562.327</ele>
        <time>2020-06-30T12:39:34Z</time>
      </trkpt>
      <trkpt lat="44.08362" lon="7.10562">
        <ele>565.672</ele>
        <time>2020-06-30T12:39:49Z</time>
      </trkpt>
      <trkpt lat="44.0837" lon="7.10563">
        <ele>561.841</ele>
        <time>2020-06-30T12:40:04Z</time>
      </trkpt>
      <trkpt lat="44.0837" lon="7.10563">
        <ele>561.841</ele>
        <time>2020-06-30T12:40:20Z</time>
      </trkpt>
      <trkpt lat="44.0837" lon="7.10563">
        <ele>561.841</ele>
        <time>2020-06-30T12:40:35Z</time>
      </trkpt>
      <trkpt lat="44.08374" lon="7.10563">
        <ele>561.559</ele>
        <time>2020-06-30T12:40:51Z</time>
      </trkpt>
      <trkpt lat="44.08374" lon="7.10563">
        <ele>561.559</ele>
        <time>2020-06-30T12:41:06Z</time>
      </trkpt>
      <trkpt lat="44.08374" lon="7.10563">
        <ele>561.559</ele>
        <time>2020-06-30T12:41:22Z</time>
      </trkpt>
      <trkpt lat="44.08371" lon="7.10554">
        <ele>560.095</ele>
        <time>2020-06-30T12:41:37Z</time>
      </trkpt>
      <trkpt lat="44.08372" lon="7.10552">
        <ele>557.94</ele>
        <time>2020-06-30T12:41:53Z</time>
      </trkpt>
      <trkpt lat="44.0835" lon="7.10559">
        <ele>558.464</ele>
        <time>2020-06-30T12:42:09Z</time>
      </trkpt>
      <trkpt lat="44.08351" lon="7.10556">
        <ele>558.006</ele>
        <time>2020-06-30T12:42:24Z</time>
      </trkpt>
      <trkpt lat="44.08351" lon="7.10556">
        <ele>558.006</ele>
        <time>2020-06-30T12:42:40Z</time>
      </trkpt>
      <trkpt lat="44.08356" lon="7.10562">
        <ele>558.018</ele>
        <time>2020-06-30T12:42:55Z</time>
      </trkpt>
      <trkpt lat="44.08361" lon="7.10561">
        <ele>557.626</ele>
        <time>2020-06-30T12:43:10Z</time>
      </trkpt>
      <trkpt lat="44.08355" lon="7.10541">
        <ele>554.587</ele>
        <time>2020-06-30T12:43:25Z</time>
      </trkpt>
      <trkpt lat="44.08355" lon="7.10541">
        <ele>554.587</ele>
        <time>2020-06-30T12:43:41Z</time>
      </trkpt>
      <trkpt lat="44.08355" lon="7.10541">
        <ele>554.587</ele>
        <time>2020-06-30T12:43:57Z</time>
      </trkpt>
      <trkpt lat="44.08356" lon="7.10556">
        <ele>554.895</ele>
        <time>2020-06-30T12:44:13Z</time>
      </trkpt>
      <trkpt lat="44.08365" lon="7.10545">
        <ele>554.84</ele>
        <time>2020-06-30T12:44:29Z</time>
      </trkpt>
      <trkpt lat="44.08353" lon="7.10548">
        <ele>552.987</ele>
        <time>2020-06-30T12:44:45Z</time>
      </trkpt>
      <trkpt lat="44.08353" lon="7.10548">
        <ele>552.987</ele>
        <time>2020-06-30T12:45:00Z</time>
      </trkpt>
      <trkpt lat="44.08353" lon="7.10548">
        <ele>552.987</ele>
        <time>2020-06-30T12:45:15Z</time>
      </trkpt>
      <trkpt lat="44.08353" lon="7.10548">
        <ele>552.987</ele>
        <time>2020-06-30T12:45:31Z</time>
      </trkpt>
      <trkpt lat="44.08353" lon="7.10548">
        <ele>552.987</ele>
        <time>2020-06-30T12:45:47Z</time>
      </trkpt>
      <trkpt lat="44.08353" lon="7.10548">
        <ele>552.987</ele>
        <time>2020-06-30T12:46:02Z</time>
      </trkpt>
      <trkpt lat="44.08354" lon="7.10541">
        <ele>554.891</ele>
        <time>2020-06-30T12:46:17Z</time>
      </trkpt>
      <trkpt lat="44.08354" lon="7.10541">
        <ele>554.891</ele>
        <time>2020-06-30T12:46:32Z</time>
      </trkpt>
      <trkpt lat="44.08354" lon="7.10541">
        <ele>554.891</ele>
        <time>2020-06-30T12:46:48Z</time>
      </trkpt>
      <trkpt lat="44.08354" lon="7.10541">
        <ele>554.891</ele>
        <time>2020-06-30T12:47:03Z</time>
      </trkpt>
      <trkpt lat="44.08354" lon="7.10541">
        <ele>554.891</ele>
        <time>2020-06-30T12:47:19Z</time>
      </trkpt>
      <trkpt lat="44.08354" lon="7.10541">
        <ele>554.891</ele>
        <time>2020-06-30T12:47:35Z</time>
      </trkpt>
      <trkpt lat="44.08354" lon="7.10541">
        <ele>554.891</ele>
        <time>2020-06-30T12:47:50Z</time>
      </trkpt>
      <trkpt lat="44.08354" lon="7.10541">
        <ele>554.891</ele>
        <time>2020-06-30T12:48:06Z</time>
      </trkpt>
      <trkpt lat="44.08418" lon="7.10575">
        <ele>545.454</ele>
        <time>2020-06-30T12:54:28Z</time>
      </trkpt>
      <trkpt lat="44.08371" lon="7.10557">
        <ele>555.987</ele>
        <time>2020-06-30T12:54:44Z</time>
      </trkpt>
      <trkpt lat="44.08367" lon="7.10562">
        <ele>542.64</ele>
        <time>2020-06-30T12:54:59Z</time>
      </trkpt>
      <trkpt lat="44.08354" lon="7.10549">
        <ele>534.349</ele>
        <time>2020-06-30T12:55:15Z</time>
      </trkpt>
      <trkpt lat="44.08351" lon="7.1055">
        <ele>536.655</ele>
        <time>2020-06-30T12:55:30Z</time>
      </trkpt>
      <trkpt lat="44.08366" lon="7.10551">
        <ele>543.135</ele>
        <time>2020-06-30T12:55:46Z</time>
      </trkpt>
      <trkpt lat="44.08366" lon="7.10551">
        <ele>543.135</ele>
        <time>2020-06-30T12:56:01Z</time>
      </trkpt>
      <trkpt lat="44.08366" lon="7.10551">
        <ele>543.135</ele>
        <time>2020-06-30T12:56:17Z</time>
      </trkpt>
      <trkpt lat="44.08366" lon="7.10551">
        <ele>543.135</ele>
        <time>2020-06-30T12:56:33Z</time>
      </trkpt>
      <trkpt lat="44.08366" lon="7.10551">
        <ele>543.135</ele>
        <time>2020-06-30T12:56:48Z</time>
      </trkpt>
      <trkpt lat="44.08366" lon="7.10551">
        <ele>543.135</ele>
        <time>2020-06-30T12:57:04Z</time>
      </trkpt>
      <trkpt lat="44.08366" lon="7.10551">
        <ele>543.135</ele>
        <time>2020-06-30T12:57:20Z</time>
      </trkpt>
      <trkpt lat="44.08366" lon="7.10551">
        <ele>543.135</ele>
        <time>2020-06-30T12:57:36Z</time>
      </trkpt>
      <trkpt lat="44.08366" lon="7.10551">
        <ele>543.135</ele>
        <time>2020-06-30T12:57:52Z</time>
      </trkpt>
      <trkpt lat="44.08366" lon="7.10551">
        <ele>543.135</ele>
        <time>2020-06-30T12:58:07Z</time>
      </trkpt>
      <trkpt lat="44.08366" lon="7.10551">
        <ele>543.135</ele>
        <time>2020-06-30T12:58:22Z</time>
      </trkpt>
      <trkpt lat="44.0836" lon="7.10558">
        <ele>543.433</ele>
        <time>2020-06-30T12:58:38Z</time>
      </trkpt>
      <trkpt lat="44.0836" lon="7.10558">
        <ele>543.433</ele>
        <time>2020-06-30T12:58:53Z</time>
      </trkpt>
      <trkpt lat="44.08357" lon="7.10556">
        <ele>545.71</ele>
        <time>2020-06-30T12:59:09Z</time>
      </trkpt>
      <trkpt lat="44.08357" lon="7.10556">
        <ele>545.71</ele>
        <time>2020-06-30T12:59:25Z</time>
      </trkpt>
      <trkpt lat="44.08357" lon="7.10556">
        <ele>545.71</ele>
        <time>2020-06-30T12:59:41Z</time>
      </trkpt>
      <trkpt lat="44.08357" lon="7.10556">
        <ele>545.71</ele>
        <time>2020-06-30T12:59:57Z</time>
      </trkpt>
      <trkpt lat="44.08357" lon="7.10556">
        <ele>545.71</ele>
        <time>2020-06-30T13:00:12Z</time>
      </trkpt>
      <trkpt lat="44.08357" lon="7.10556">
        <ele>545.71</ele>
        <time>2020-06-30T13:00:27Z</time>
      </trkpt>
      <trkpt lat="44.08357" lon="7.10556">
        <ele>545.71</ele>
        <time>2020-06-30T13:00:43Z</time>
      </trkpt>
      <trkpt lat="44.08357" lon="7.10556">
        <ele>545.71</ele>
        <time>2020-06-30T13:00:59Z</time>
      </trkpt>
      <trkpt lat="44.08357" lon="7.10556">
        <ele>545.71</ele>
        <time>2020-06-30T13:01:15Z</time>
      </trkpt>
      <trkpt lat="44.08357" lon="7.10556">
        <ele>545.71</ele>
        <time>2020-06-30T13:01:31Z</time>
      </trkpt>
      <trkpt lat="44.08357" lon="7.10556">
        <ele>545.71</ele>
        <time>2020-06-30T13:01:46Z</time>
      </trkpt>
      <trkpt lat="44.08358" lon="7.10557">
        <ele>546.037</ele>
        <time>2020-06-30T13:02:02Z</time>
      </trkpt>
      <trkpt lat="44.08375" lon="7.10546">
        <ele>547.804</ele>
        <time>2020-06-30T13:02:17Z</time>
      </trkpt>
      <trkpt lat="44.08387" lon="7.10528">
        <ele>551.701</ele>
        <time>2020-06-30T13:02:32Z</time>
      </trkpt>
      <trkpt lat="44.08398" lon="7.1051">
        <ele>552.213</ele>
        <time>2020-06-30T13:02:48Z</time>
      </trkpt>
      <trkpt lat="44.08373" lon="7.10554">
        <ele>552.544</ele>
        <time>2020-06-30T13:03:03Z</time>
      </trkpt>
      <trkpt lat="44.08354" lon="7.10564">
        <ele>554.131</ele>
        <time>2020-06-30T13:03:19Z</time>
      </trkpt>
      <trkpt lat="44.08347" lon="7.10576">
        <ele>555.405</ele>
        <time>2020-06-30T13:03:34Z</time>
      </trkpt>
      <trkpt lat="44.08363" lon="7.10553">
        <ele>557.661</ele>
        <time>2020-06-30T13:03:50Z</time>
      </trkpt>
      <trkpt lat="44.08369" lon="7.10557">
        <ele>558.155</ele>
        <time>2020-06-30T13:04:05Z</time>
      </trkpt>
      <trkpt lat="44.08375" lon="7.10553">
        <ele>558.839</ele>
        <time>2020-06-30T13:04:21Z</time>
      </trkpt>
      <trkpt lat="44.08358" lon="7.10561">
        <ele>560.563</ele>
        <time>2020-06-30T13:04:37Z</time>
      </trkpt>
      <trkpt lat="44.08365" lon="7.10556">
        <ele>560.825</ele>
        <time>2020-06-30T13:04:52Z</time>
      </trkpt>
      <trkpt lat="44.08365" lon="7.10556">
        <ele>560.825</ele>
        <time>2020-06-30T13:05:08Z</time>
      </trkpt>
      <trkpt lat="44.08363" lon="7.1055">
        <ele>556.759</ele>
        <time>2020-06-30T13:05:24Z</time>
      </trkpt>
      <trkpt lat="44.08358" lon="7.10546">
        <ele>556.646</ele>
        <time>2020-06-30T13:05:40Z</time>
      </trkpt>
      <trkpt lat="44.08348" lon="7.10548">
        <ele>556.666</ele>
        <time>2020-06-30T13:05:56Z</time>
      </trkpt>
      <trkpt lat="44.08351" lon="7.10553">
        <ele>557.441</ele>
        <time>2020-06-30T13:06:11Z</time>
      </trkpt>
      <trkpt lat="44.08351" lon="7.10553">
        <ele>557.441</ele>
        <time>2020-06-30T13:06:27Z</time>
      </trkpt>
      <trkpt lat="44.08351" lon="7.10553">
        <ele>557.441</ele>
        <time>2020-06-30T13:06:43Z</time>
      </trkpt>
      <trkpt lat="44.08351" lon="7.10553">
        <ele>557.441</ele>
        <time>2020-06-30T13:06:58Z</time>
      </trkpt>
      <trkpt lat="44.08367" lon="7.1054">
        <ele>556.673</ele>
        <time>2020-06-30T13:07:14Z</time>
      </trkpt>
      <trkpt lat="44.08365" lon="7.10543">
        <ele>557.074</ele>
        <time>2020-06-30T13:07:30Z</time>
      </trkpt>
      <trkpt lat="44.08363" lon="7.10548">
        <ele>559.26</ele>
        <time>2020-06-30T13:07:45Z</time>
      </trkpt>
      <trkpt lat="44.08364" lon="7.10536">
        <ele>559.49</ele>
        <time>2020-06-30T13:08:01Z</time>
      </trkpt>
      <trkpt lat="44.08364" lon="7.10539">
        <ele>559.777</ele>
        <time>2020-06-30T13:08:17Z</time>
      </trkpt>
      <trkpt lat="44.08364" lon="7.10543">
        <ele>560.197</ele>
        <time>2020-06-30T13:08:33Z</time>
      </trkpt>
      <trkpt lat="44.08365" lon="7.10563">
        <ele>560.526</ele>
        <time>2020-06-30T13:08:54Z</time>
      </trkpt>
      <trkpt lat="44.08363" lon="7.10547">
        <ele>566.985</ele>
        <time>2020-06-30T13:09:09Z</time>
      </trkpt>
      <trkpt lat="44.08397" lon="7.10542">
        <ele>564.945</ele>
        <time>2020-06-30T13:09:25Z</time>
      </trkpt>
      <trkpt lat="44.08363" lon="7.10541">
        <ele>554.006</ele>
        <time>2020-06-30T13:09:40Z</time>
      </trkpt>
      <trkpt lat="44.08364" lon="7.10563">
        <ele>551.77</ele>
        <time>2020-06-30T13:09:55Z</time>
      </trkpt>
      <trkpt lat="44.08348" lon="7.1057">
        <ele>550.99</ele>
        <time>2020-06-30T13:10:10Z</time>
      </trkpt>
      <trkpt lat="44.08345" lon="7.10552">
        <ele>555.606</ele>
        <time>2020-06-30T13:10:26Z</time>
      </trkpt>
      <trkpt lat="44.08341" lon="7.10541">
        <ele>554.311</ele>
        <time>2020-06-30T13:10:41Z</time>
      </trkpt>
      <trkpt lat="44.08349" lon="7.10538">
        <ele>554.26</ele>
        <time>2020-06-30T13:10:56Z</time>
      </trkpt>
      <trkpt lat="44.08373" lon="7.10566">
        <ele>553.151</ele>
        <time>2020-06-30T13:11:12Z</time>
      </trkpt>
      <trkpt lat="44.0836" lon="7.10566">
        <ele>558.049</ele>
        <time>2020-06-30T13:11:27Z</time>
      </trkpt>
      <trkpt lat="44.08355" lon="7.10559">
        <ele>551.778</ele>
        <time>2020-06-30T13:11:43Z</time>
      </trkpt>
      <trkpt lat="44.08364" lon="7.10556">
        <ele>553.809</ele>
        <time>2020-06-30T13:11:58Z</time>
      </trkpt>
      <trkpt lat="44.08375" lon="7.10539">
        <ele>552.663</ele>
        <time>2020-06-30T13:12:14Z</time>
      </trkpt>
      <trkpt lat="44.08376" lon="7.10552">
        <ele>550.333</ele>
        <time>2020-06-30T13:12:30Z</time>
      </trkpt>
      <trkpt lat="44.08369" lon="7.1054">
        <ele>549.753</ele>
        <time>2020-06-30T13:12:46Z</time>
      </trkpt>
      <trkpt lat="44.08367" lon="7.10566">
        <ele>547.302</ele>
        <time>2020-06-30T13:13:01Z</time>
      </trkpt>
      <trkpt lat="44.0836" lon="7.10571">
        <ele>542.368</ele>
        <time>2020-06-30T13:13:17Z</time>
      </trkpt>
      <trkpt lat="44.08344" lon="7.1056">
        <ele>545.629</ele>
        <time>2020-06-30T13:13:32Z</time>
      </trkpt>
      <trkpt lat="44.08346" lon="7.10553">
        <ele>550.625</ele>
        <time>2020-06-30T13:13:47Z</time>
      </trkpt>
      <trkpt lat="44.08332" lon="7.10558">
        <ele>551.655</ele>
        <time>2020-06-30T13:14:03Z</time>
      </trkpt>
      <trkpt lat="44.08322" lon="7.10575">
        <ele>558.893</ele>
        <time>2020-06-30T13:14:19Z</time>
      </trkpt>
      <trkpt lat="44.08322" lon="7.10569">
        <ele>561.499</ele>
        <time>2020-06-30T13:14:35Z</time>
      </trkpt>
      <trkpt lat="44.08322" lon="7.10567">
        <ele>565.852</ele>
        <time>2020-06-30T13:14:50Z</time>
      </trkpt>
      <trkpt lat="44.08313" lon="7.10576">
        <ele>571.222</ele>
        <time>2020-06-30T13:15:06Z</time>
      </trkpt>
      <trkpt lat="44.08312" lon="7.10589">
        <ele>565.438</ele>
        <time>2020-06-30T13:15:21Z</time>
      </trkpt>
      <trkpt lat="44.08293" lon="7.10584">
        <ele>562.227</ele>
        <time>2020-06-30T13:15:37Z</time>
      </trkpt>
      <trkpt lat="44.08297" lon="7.10569">
        <ele>560.034</ele>
        <time>2020-06-30T13:15:52Z</time>
      </trkpt>
      <trkpt lat="44.08277" lon="7.10563">
        <ele>558.973</ele>
        <time>2020-06-30T13:16:08Z</time>
      </trkpt>
      <trkpt lat="44.08274" lon="7.10565">
        <ele>559.787</ele>
        <time>2020-06-30T13:16:24Z</time>
      </trkpt>
      <trkpt lat="44.08274" lon="7.10565">
        <ele>559.787</ele>
        <time>2020-06-30T13:16:40Z</time>
      </trkpt>
      <trkpt lat="44.08264" lon="7.10568">
        <ele>565.114</ele>
        <time>2020-06-30T13:16:55Z</time>
      </trkpt>
      <trkpt lat="44.08258" lon="7.10584">
        <ele>570.09</ele>
        <time>2020-06-30T13:17:11Z</time>
      </trkpt>
      <trkpt lat="44.08255" lon="7.10593">
        <ele>569.013</ele>
        <time>2020-06-30T13:17:27Z</time>
      </trkpt>
      <trkpt lat="44.08234" lon="7.10609">
        <ele>567.568</ele>
        <time>2020-06-30T13:17:42Z</time>
      </trkpt>
      <trkpt lat="44.08208" lon="7.10618">
        <ele>563.151</ele>
        <time>2020-06-30T13:17:57Z</time>
      </trkpt>
      <trkpt lat="44.08206" lon="7.1062">
        <ele>561.981</ele>
        <time>2020-06-30T13:18:13Z</time>
      </trkpt>
      <trkpt lat="44.08189" lon="7.10629">
        <ele>566.67</ele>
        <time>2020-06-30T13:18:28Z</time>
      </trkpt>
      <trkpt lat="44.08183" lon="7.10647">
        <ele>566.702</ele>
        <time>2020-06-30T13:18:44Z</time>
      </trkpt>
      <trkpt lat="44.08184" lon="7.10645">
        <ele>566.611</ele>
        <time>2020-06-30T13:19:00Z</time>
      </trkpt>
      <trkpt lat="44.08174" lon="7.10646">
        <ele>566.822</ele>
        <time>2020-06-30T13:19:15Z</time>
      </trkpt>
      <trkpt lat="44.08179" lon="7.10647">
        <ele>567.486</ele>
        <time>2020-06-30T13:19:31Z</time>
      </trkpt>
      <trkpt lat="44.08179" lon="7.10651">
        <ele>567.638</ele>
        <time>2020-06-30T13:19:47Z</time>
      </trkpt>
      <trkpt lat="44.0818" lon="7.10645">
        <ele>564.617</ele>
        <time>2020-06-30T13:20:03Z</time>
      </trkpt>
      <trkpt lat="44.08175" lon="7.10642">
        <ele>567.533</ele>
        <time>2020-06-30T13:20:19Z</time>
      </trkpt>
      <trkpt lat="44.08184" lon="7.10651">
        <ele>567.689</ele>
        <time>2020-06-30T13:20:34Z</time>
      </trkpt>
      <trkpt lat="44.08183" lon="7.10654">
        <ele>569.68</ele>
        <time>2020-06-30T13:20:50Z</time>
      </trkpt>
      <trkpt lat="44.08162" lon="7.10595">
        <ele>562.702</ele>
        <time>2020-06-30T13:22:47Z</time>
      </trkpt>
      <trkpt lat="44.08139" lon="7.10602">
        <ele>636.367</ele>
        <time>2020-06-30T13:23:03Z</time>
      </trkpt>
      <trkpt lat="44.08134" lon="7.10595">
        <ele>673.527</ele>
        <time>2020-06-30T13:23:18Z</time>
      </trkpt>
      <trkpt lat="44.08157" lon="7.10616">
        <ele>643.156</ele>
        <time>2020-06-30T13:23:34Z</time>
      </trkpt>
      <trkpt lat="44.08184" lon="7.10666">
        <ele>555.337</ele>
        <time>2020-06-30T13:23:49Z</time>
      </trkpt>
      <trkpt lat="44.08171" lon="7.10651">
        <ele>558.248</ele>
        <time>2020-06-30T13:24:04Z</time>
      </trkpt>
      <trkpt lat="44.08169" lon="7.10627">
        <ele>591.457</ele>
        <time>2020-06-30T13:24:20Z</time>
      </trkpt>
      <trkpt lat="44.08168" lon="7.10627">
        <ele>593.663</ele>
        <time>2020-06-30T13:24:35Z</time>
      </trkpt>
      <trkpt lat="44.08173" lon="7.10624">
        <ele>597.3</ele>
        <time>2020-06-30T13:24:51Z</time>
      </trkpt>
      <trkpt lat="44.08174" lon="7.10627">
        <ele>590.787</ele>
        <time>2020-06-30T13:25:07Z</time>
      </trkpt>
      <trkpt lat="44.08179" lon="7.10635">
        <ele>588.521</ele>
        <time>2020-06-30T13:25:23Z</time>
      </trkpt>
      <trkpt lat="44.08187" lon="7.10648">
        <ele>575.265</ele>
        <time>2020-06-30T13:25:39Z</time>
      </trkpt>
      <trkpt lat="44.08187" lon="7.10646">
        <ele>565.461</ele>
        <time>2020-06-30T13:25:55Z</time>
      </trkpt>
      <trkpt lat="44.08187" lon="7.10646">
        <ele>570.259</ele>
        <time>2020-06-30T13:26:10Z</time>
      </trkpt>
      <trkpt lat="44.08186" lon="7.10646">
        <ele>565.882</ele>
        <time>2020-06-30T13:26:25Z</time>
      </trkpt>
      <trkpt lat="44.08183" lon="7.10648">
        <ele>568.425</ele>
        <time>2020-06-30T13:26:41Z</time>
      </trkpt>
      <trkpt lat="44.08183" lon="7.1064">
        <ele>570.618</ele>
        <time>2020-06-30T13:26:57Z</time>
      </trkpt>
      <trkpt lat="44.08183" lon="7.10641">
        <ele>568.003</ele>
        <time>2020-06-30T13:27:13Z</time>
      </trkpt>
      <trkpt lat="44.08182" lon="7.10639">
        <ele>570.967</ele>
        <time>2020-06-30T13:27:29Z</time>
      </trkpt>
      <trkpt lat="44.08179" lon="7.10633">
        <ele>574.092</ele>
        <time>2020-06-30T13:27:44Z</time>
      </trkpt>
      <trkpt lat="44.0818" lon="7.10642">
        <ele>575.526</ele>
        <time>2020-06-30T13:28:00Z</time>
      </trkpt>
      <trkpt lat="44.0818" lon="7.10639">
        <ele>577.187</ele>
        <time>2020-06-30T13:28:15Z</time>
      </trkpt>
      <trkpt lat="44.0818" lon="7.10639">
        <ele>577.187</ele>
        <time>2020-06-30T13:28:30Z</time>
      </trkpt>
      <trkpt lat="44.0818" lon="7.10639">
        <ele>577.187</ele>
        <time>2020-06-30T13:28:46Z</time>
      </trkpt>
      <trkpt lat="44.0818" lon="7.10639">
        <ele>577.187</ele>
        <time>2020-06-30T13:29:01Z</time>
      </trkpt>
      <trkpt lat="44.0818" lon="7.10639">
        <ele>577.187</ele>
        <time>2020-06-30T13:29:17Z</time>
      </trkpt>
      <trkpt lat="44.0818" lon="7.10639">
        <ele>577.187</ele>
        <time>2020-06-30T13:29:32Z</time>
      </trkpt>
      <trkpt lat="44.0818" lon="7.10639">
        <ele>577.187</ele>
        <time>2020-06-30T13:29:47Z</time>
      </trkpt>
      <trkpt lat="44.0818" lon="7.10639">
        <ele>577.187</ele>
        <time>2020-06-30T13:30:03Z</time>
      </trkpt>
      <trkpt lat="44.0817" lon="7.10635">
        <ele>579.527</ele>
        <time>2020-06-30T13:30:19Z</time>
      </trkpt>
      <trkpt lat="44.08165" lon="7.10632">
        <ele>581.816</ele>
        <time>2020-06-30T13:30:35Z</time>
      </trkpt>
      <trkpt lat="44.08162" lon="7.10635">
        <ele>583.56</ele>
        <time>2020-06-30T13:30:50Z</time>
      </trkpt>
      <trkpt lat="44.08162" lon="7.10635">
        <ele>583.56</ele>
        <time>2020-06-30T13:31:05Z</time>
      </trkpt>
      <trkpt lat="44.08162" lon="7.10635">
        <ele>583.56</ele>
        <time>2020-06-30T13:31:21Z</time>
      </trkpt>
      <trkpt lat="44.08162" lon="7.10635">
        <ele>583.56</ele>
        <time>2020-06-30T13:31:36Z</time>
      </trkpt>
      <trkpt lat="44.08162" lon="7.10635">
        <ele>583.56</ele>
        <time>2020-06-30T13:31:52Z</time>
      </trkpt>
      <trkpt lat="44.08162" lon="7.10635">
        <ele>583.56</ele>
        <time>2020-06-30T13:32:07Z</time>
      </trkpt>
      <trkpt lat="44.08162" lon="7.10635">
        <ele>583.56</ele>
        <time>2020-06-30T13:32:23Z</time>
      </trkpt>
      <trkpt lat="44.08162" lon="7.10635">
        <ele>583.56</ele>
        <time>2020-06-30T13:32:39Z</time>
      </trkpt>
      <trkpt lat="44.08162" lon="7.10635">
        <ele>583.56</ele>
        <time>2020-06-30T13:32:55Z</time>
      </trkpt>
      <trkpt lat="44.08162" lon="7.10635">
        <ele>583.56</ele>
        <time>2020-06-30T13:33:11Z</time>
      </trkpt>
    </trkseg>
  </trk>
</gpx>